Time,TemperatureF,DewpointF,PressureIn,WindDirection,WindDirectionDegrees,WindSpeedMPH,WindSpeedGustMPH,Humidity,HourlyPrecipIn,Conditions,Clouds,dailyrainin,SoftwareType,DateUTC
2013-10-19 00:00:00,47.8,44.4,29.89,WSW,254,3.0,4.0,88,0.00,,,0.00,VWS V14.00,2013-10-19 04:00:00,
2013-10-19 00:01:00,47.8,44.4,29.89,WSW,255,3.0,4.0,88,0.00,,,0.00,VWS V14.00,2013-10-19 04:01:00,
2013-10-19 00:02:00,47.8,44.1,29.90,WSW,257,1.0,5.0,87,0.00,,,0.00,VWS V14.00,2013-10-19 04:02:00,
2013-10-19 00:03:00,47.8,44.1,29.90,WSW,257,2.0,5.0,87,0.00,,,0.00,VWS V14.00,2013-10-19 04:03:00,
2013-10-19 00:04:00,47.7,44.0,29.90,WSW,257,0.0,5.0,87,0.00,,,0.00,VWS V14.00,2013-10-19 04:04:00,
2013-10-19 00:05:00,47.7,44.0,29.89,WSW,257,0.0,5.0,87,0.00,,,0.00,VWS V14.00,2013-10-19 04:05:00,
2013-10-19 00:06:00,47.7,44.3,29.90,WSW,255,0.0,5.0,88,0.00,,,0.00,VWS V14.00,2013-10-19 04:06:00,
2013-10-19 00:07:00,47.7,44.0,29.89,WSW,250,0.0,5.0,87,0.00,,,0.00,VWS V14.00,2013-10-19 04:07:00,
2013-10-19 00:08:00,47.7,44.0,29.89,WSW,250,0.0,5.0,87,0.00,,,0.00,VWS V14.00,2013-10-19 04:08:00,
2013-10-19 00:09:00,47.7,44.0,29.89,WSW,250,4.0,5.0,87,0.00,,,0.00,VWS V14.00,2013-10-19 04:09:00,
2013-10-19 00:10:00,47.7,44.0,29.89,WSW,250,0.0,5.0,87,0.00,,,0.00,VWS V14.00,2013-10-19 04:10:00,
2013-10-19 00:11:00,47.8,44.4,29.90,WSW,257,2.0,5.0,88,0.00,,,0.00,VWS V14.00,2013-10-19 04:11:00,
2013-10-19 00:12:00,47.7,44.0,29.89,WSW,249,0.0,5.0,87,0.00,,,0.00,VWS V14.00,2013-10-19 04:12:00,
2013-10-19 00:13:00,47.7,44.0,29.89,WSW,250,0.0,5.0,87,0.00,,,0.00,VWS V14.00,2013-10-19 04:13:00,
2013-10-19 00:14:00,47.7,44.0,29.89,WSW,250,5.0,5.0,87,0.00,,,0.00,VWS V14.00,2013-10-19 04:14:00,
2013-10-19 00:15:00,47.7,44.0,29.89,WSW,250,0.0,5.0,87,0.00,,,0.00,VWS V14.00,2013-10-19 04:15:00,
2013-10-19 00:16:00,47.8,44.1,29.90,WSW,258,3.0,5.0,87,0.00,,,0.00,VWS V14.00,2013-10-19 04:16:00,
2013-10-19 00:17:00,47.6,43.9,29.89,WSW,249,2.0,5.0,87,0.00,,,0.00,VWS V14.00,2013-10-19 04:17:00,
2013-10-19 00:18:00,47.6,43.9,29.89,WSW,249,0.0,5.0,87,0.00,,,0.00,VWS V14.00,2013-10-19 04:18:00,
2013-10-19 00:19:00,47.6,43.9,29.89,WSW,250,0.0,5.0,87,0.00,,,0.00,VWS V14.00,2013-10-19 04:19:00,
2013-10-19 00:20:00,47.6,43.9,29.89,WSW,250,0.0,5.0,87,0.00,,,0.00,VWS V14.00,2013-10-19 04:20:00,
2013-10-19 00:21:00,47.7,44.0,29.89,WSW,250,0.0,5.0,87,0.00,,,0.00,VWS V14.00,2013-10-19 04:21:00,
2013-10-19 00:22:00,47.6,43.6,29.89,WSW,249,0.0,5.0,86,0.00,,,0.00,VWS V14.00,2013-10-19 04:22:00,
2013-10-19 00:23:00,47.6,43.6,29.89,WSW,249,0.0,5.0,86,0.00,,,0.00,VWS V14.00,2013-10-19 04:23:00,
2013-10-19 00:24:00,47.5,43.5,29.89,WSW,249,0.0,5.0,86,0.00,,,0.00,VWS V14.00,2013-10-19 04:24:00,
2013-10-19 00:25:00,47.5,43.5,29.89,WSW,250,0.0,5.0,86,0.00,,,0.00,VWS V14.00,2013-10-19 04:25:00,
2013-10-19 00:26:00,47.7,44.0,29.89,WSW,249,3.0,5.0,87,0.00,,,0.00,VWS V14.00,2013-10-19 04:26:00,
2013-10-19 00:27:00,47.4,43.4,29.89,WSW,250,0.0,5.0,86,0.00,,,0.00,VWS V14.00,2013-10-19 04:27:00,
2013-10-19 00:28:00,47.4,43.4,29.89,WSW,250,0.0,5.0,86,0.00,,,0.00,VWS V14.00,2013-10-19 04:28:00,
2013-10-19 00:29:00,47.3,43.3,29.89,WSW,250,0.0,5.0,86,0.00,,,0.00,VWS V14.00,2013-10-19 04:29:00,
2013-10-19 00:30:00,47.3,43.3,29.89,WSW,250,0.0,5.0,86,0.00,,,0.00,VWS V14.00,2013-10-19 04:30:00,
2013-10-19 00:31:00,47.6,43.9,29.89,WSW,250,0.0,5.0,87,0.00,,,0.00,VWS V14.00,2013-10-19 04:31:00,
2013-10-19 00:32:00,47.2,43.5,29.89,WSW,250,0.0,0.0,87,0.00,,,0.00,VWS V14.00,2013-10-19 04:32:00,
2013-10-19 00:33:00,47.2,43.5,29.89,WSW,250,0.0,0.0,87,0.00,,,0.00,VWS V14.00,2013-10-19 04:33:00,
2013-10-19 00:34:00,47.1,43.4,29.89,WSW,250,0.0,0.0,87,0.00,,,0.00,VWS V14.00,2013-10-19 04:34:00,
2013-10-19 00:35:00,47.1,43.4,29.89,WSW,250,0.0,0.0,87,0.00,,,0.00,VWS V14.00,2013-10-19 04:35:00,
2013-10-19 00:36:00,47.5,43.5,29.89,WSW,250,0.0,5.0,86,0.00,,,0.00,VWS V14.00,2013-10-19 04:36:00,
2013-10-19 00:37:00,47.0,43.3,29.89,WSW,250,0.0,0.0,87,0.00,,,0.00,VWS V14.00,2013-10-19 04:37:00,
2013-10-19 00:38:00,46.9,43.2,29.89,WSW,250,0.0,0.0,87,0.00,,,0.00,VWS V14.00,2013-10-19 04:38:00,
2013-10-19 00:39:00,46.9,43.2,29.89,WSW,250,0.0,0.0,87,0.00,,,0.00,VWS V14.00,2013-10-19 04:39:00,
2013-10-19 00:40:00,46.8,43.1,29.89,WSW,249,0.0,1.0,87,0.00,,,0.00,VWS V14.00,2013-10-19 04:40:00,
2013-10-19 00:41:00,47.3,43.3,29.89,WSW,250,0.0,0.0,86,0.00,,,0.00,VWS V14.00,2013-10-19 04:41:00,
2013-10-19 00:42:00,46.8,43.4,29.89,WSW,250,0.0,3.0,88,0.00,,,0.00,VWS V14.00,2013-10-19 04:42:00,
2013-10-19 00:43:00,46.8,43.4,29.89,WSW,250,0.0,3.0,88,0.00,,,0.00,VWS V14.00,2013-10-19 04:43:00,
2013-10-19 00:44:00,46.7,43.3,29.89,WSW,250,0.0,3.0,88,0.00,,,0.00,VWS V14.00,2013-10-19 04:44:00,
2013-10-19 00:45:00,46.7,43.3,29.89,WSW,249,0.0,3.0,88,0.00,,,0.00,VWS V14.00,2013-10-19 04:45:00,
2013-10-19 00:46:00,47.0,43.3,29.89,WSW,250,0.0,0.0,87,0.00,,,0.00,VWS V14.00,2013-10-19 04:46:00,
2013-10-19 00:47:00,46.7,43.3,29.89,WSW,250,1.0,3.0,88,0.00,,,0.00,VWS V14.00,2013-10-19 04:47:00,
2013-10-19 00:48:00,46.7,43.3,29.89,WSW,250,0.0,3.0,88,0.00,,,0.00,VWS V14.00,2013-10-19 04:48:00,
2013-10-19 00:49:00,46.7,43.3,29.88,WSW,250,0.0,3.0,88,0.00,,,0.00,VWS V14.00,2013-10-19 04:49:00,
2013-10-19 00:50:00,46.7,43.3,29.88,WSW,250,0.0,3.0,88,0.00,,,0.00,VWS V14.00,2013-10-19 04:50:00,
2013-10-19 00:51:00,46.9,43.2,29.89,WSW,250,1.0,2.0,87,0.00,,,0.00,VWS V14.00,2013-10-19 04:51:00,
2013-10-19 00:52:00,46.6,43.2,29.88,WSW,249,0.0,3.0,88,0.00,,,0.00,VWS V14.00,2013-10-19 04:52:00,
2013-10-19 00:53:00,46.6,43.2,29.88,WSW,249,0.0,3.0,88,0.00,,,0.00,VWS V14.00,2013-10-19 04:53:00,
2013-10-19 00:54:00,46.6,43.2,29.88,WSW,250,0.0,3.0,88,0.00,,,0.00,VWS V14.00,2013-10-19 04:54:00,
2013-10-19 00:55:00,46.6,43.2,29.88,WSW,249,0.0,3.0,88,0.00,,,0.00,VWS V14.00,2013-10-19 04:55:00,
2013-10-19 00:56:00,46.7,43.3,29.89,WSW,249,0.0,3.0,88,0.00,,,0.00,VWS V14.00,2013-10-19 04:56:00,
2013-10-19 00:57:00,46.6,43.2,29.88,WSW,250,0.0,3.0,88,0.00,,,0.00,VWS V14.00,2013-10-19 04:57:00,
2013-10-19 00:58:00,46.6,43.2,29.88,WSW,249,2.0,3.0,88,0.00,,,0.00,VWS V14.00,2013-10-19 04:58:00,
2013-10-19 00:59:00,46.6,43.2,29.88,WSW,249,0.0,3.0,88,0.00,,,0.00,VWS V14.00,2013-10-19 04:59:00,
2013-10-19 01:00:00,46.6,43.2,29.88,WSW,249,0.0,3.0,88,0.00,,,0.00,VWS V14.00,2013-10-19 05:00:00,
2013-10-19 01:01:00,46.7,43.3,29.88,WSW,250,0.0,3.0,88,0.00,,,0.00,VWS V14.00,2013-10-19 05:01:00,
2013-10-19 01:02:00,46.6,43.2,29.88,WSW,250,0.0,2.0,88,0.00,,,0.00,VWS V14.00,2013-10-19 05:02:00,
2013-10-19 01:03:00,46.6,43.2,29.88,WSW,250,0.0,3.0,88,0.00,,,0.00,VWS V14.00,2013-10-19 05:03:00,
2013-10-19 01:04:00,46.6,43.2,29.88,WSW,250,0.0,3.0,88,0.00,,,0.00,VWS V14.00,2013-10-19 05:04:00,
2013-10-19 01:05:00,46.6,43.2,29.88,WSW,249,0.0,3.0,88,0.00,,,0.00,VWS V14.00,2013-10-19 05:05:00,
2013-10-19 01:06:00,46.6,43.2,29.88,WSW,249,0.0,3.0,88,0.00,,,0.00,VWS V14.00,2013-10-19 05:06:00,
2013-10-19 01:07:00,46.6,43.2,29.88,WSW,250,1.0,3.0,88,0.00,,,0.00,VWS V14.00,2013-10-19 05:07:00,
2013-10-19 01:08:00,46.6,43.2,29.88,WSW,250,0.0,3.0,88,0.00,,,0.00,VWS V14.00,2013-10-19 05:08:00,
2013-10-19 01:09:00,46.6,43.2,29.88,WSW,250,0.0,3.0,88,0.00,,,0.00,VWS V14.00,2013-10-19 05:09:00,
2013-10-19 01:10:00,46.6,43.2,29.88,WSW,250,0.0,3.0,88,0.00,,,0.00,VWS V14.00,2013-10-19 05:10:00,
2013-10-19 01:11:00,46.6,43.2,29.88,WSW,249,0.0,2.0,88,0.00,,,0.00,VWS V14.00,2013-10-19 05:11:00,
2013-10-19 01:12:00,46.6,43.2,29.88,WSW,249,0.0,3.0,88,0.00,,,0.00,VWS V14.00,2013-10-19 05:12:00,
2013-10-19 01:13:00,46.5,43.1,29.88,WSW,250,0.0,3.0,88,0.00,,,0.00,VWS V14.00,2013-10-19 05:13:00,
2013-10-19 01:14:00,46.5,43.1,29.88,WSW,250,1.0,3.0,88,0.00,,,0.00,VWS V14.00,2013-10-19 05:14:00,
2013-10-19 01:15:00,46.5,43.4,29.88,WSW,250,3.0,4.0,89,0.00,,,0.00,VWS V14.00,2013-10-19 05:15:00,
2013-10-19 01:16:00,46.6,43.2,29.88,WSW,250,0.0,3.0,88,0.00,,,0.00,VWS V14.00,2013-10-19 05:16:00,
2013-10-19 01:17:00,46.5,43.4,29.88,WSW,250,1.0,4.0,89,0.00,,,0.00,VWS V14.00,2013-10-19 05:17:00,
2013-10-19 01:18:00,46.5,43.4,29.88,WSW,249,2.0,4.0,89,0.00,,,0.00,VWS V14.00,2013-10-19 05:18:00,
2013-10-19 01:19:00,46.6,43.5,29.88,WSW,249,0.0,4.0,89,0.00,,,0.00,VWS V14.00,2013-10-19 05:19:00,
2013-10-19 01:20:00,46.5,43.4,29.88,WSW,250,0.0,4.0,89,0.00,,,0.00,VWS V14.00,2013-10-19 05:20:00,
2013-10-19 01:21:00,46.6,43.2,29.88,WSW,249,0.0,3.0,88,0.00,,,0.00,VWS V14.00,2013-10-19 05:21:00,
2013-10-19 01:22:00,46.6,43.5,29.88,WSW,250,2.0,4.0,89,0.00,,,0.00,VWS V14.00,2013-10-19 05:22:00,
2013-10-19 01:23:00,46.6,43.5,29.88,WSW,250,2.0,4.0,89,0.00,,,0.00,VWS V14.00,2013-10-19 05:23:00,
2013-10-19 01:24:00,46.6,43.5,29.88,WSW,250,3.0,4.0,89,0.00,,,0.00,VWS V14.00,2013-10-19 05:24:00,
2013-10-19 01:25:00,46.6,43.5,29.87,WSW,250,0.0,4.0,89,0.00,,,0.00,VWS V14.00,2013-10-19 05:25:00,
2013-10-19 01:26:00,46.5,43.4,29.88,WSW,249,0.0,4.0,89,0.00,,,0.00,VWS V14.00,2013-10-19 05:26:00,
2013-10-19 01:27:00,46.6,43.5,29.88,WSW,249,0.0,4.0,89,0.00,,,0.00,VWS V14.00,2013-10-19 05:27:00,
2013-10-19 01:28:00,46.6,43.5,29.88,WSW,249,0.0,4.0,89,0.00,,,0.00,VWS V14.00,2013-10-19 05:28:00,
2013-10-19 01:29:00,46.6,43.5,29.87,WSW,250,3.0,4.0,89,0.00,,,0.00,VWS V14.00,2013-10-19 05:29:00,
2013-10-19 01:30:00,46.6,43.5,29.87,WSW,250,2.0,4.0,89,0.00,,,0.00,VWS V14.00,2013-10-19 05:30:00,
2013-10-19 01:31:00,46.5,43.4,29.88,WSW,250,0.0,4.0,89,0.00,,,0.00,VWS V14.00,2013-10-19 05:31:00,
2013-10-19 01:32:00,46.6,43.2,29.87,WSW,249,0.0,3.0,88,0.00,,,0.00,VWS V14.00,2013-10-19 05:32:00,
2013-10-19 01:33:00,46.6,43.2,29.87,WSW,249,0.0,3.0,88,0.00,,,0.00,VWS V14.00,2013-10-19 05:33:00,
2013-10-19 01:34:00,46.5,43.1,29.87,WSW,249,2.0,4.0,88,0.00,,,0.00,VWS V14.00,2013-10-19 05:34:00,
2013-10-19 01:35:00,46.5,43.1,29.87,WSW,250,0.0,4.0,88,0.00,,,0.00,VWS V14.00,2013-10-19 05:35:00,
2013-10-19 01:36:00,46.6,43.5,29.87,WSW,250,0.0,4.0,89,0.00,,,0.00,VWS V14.00,2013-10-19 05:36:00,
2013-10-19 01:37:00,46.5,43.1,29.87,WSW,250,0.0,4.0,88,0.00,,,0.00,VWS V14.00,2013-10-19 05:37:00,
2013-10-19 01:38:00,46.5,43.1,29.87,WSW,249,0.0,4.0,88,0.00,,,0.00,VWS V14.00,2013-10-19 05:38:00,
2013-10-19 01:39:00,46.5,43.1,29.87,WSW,249,2.0,4.0,88,0.00,,,0.00,VWS V14.00,2013-10-19 05:39:00,
2013-10-19 01:40:00,46.5,43.1,29.87,WSW,249,0.0,4.0,88,0.00,,,0.00,VWS V14.00,2013-10-19 05:40:00,
2013-10-19 01:41:00,46.6,43.5,29.87,WSW,249,1.0,2.0,89,0.00,,,0.00,VWS V14.00,2013-10-19 05:41:00,
2013-10-19 01:42:00,46.5,43.4,29.87,WSW,250,0.0,4.0,89,0.00,,,0.00,VWS V14.00,2013-10-19 05:42:00,
2013-10-19 01:43:00,46.4,43.3,29.87,WSW,250,0.0,4.0,89,0.00,,,0.00,VWS V14.00,2013-10-19 05:43:00,
2013-10-19 01:44:00,46.5,43.4,29.87,WSW,250,0.0,4.0,89,0.00,,,0.00,VWS V14.00,2013-10-19 05:44:00,
2013-10-19 01:45:00,46.4,43.3,29.87,WSW,249,0.0,4.0,89,0.00,,,0.00,VWS V14.00,2013-10-19 05:45:00,
2013-10-19 01:46:00,46.5,43.1,29.87,WSW,250,1.0,4.0,88,0.00,,,0.00,VWS V14.00,2013-10-19 05:46:00,
2013-10-19 01:47:00,46.4,43.3,29.87,WSW,249,0.0,4.0,89,0.00,,,0.00,VWS V14.00,2013-10-19 05:47:00,
2013-10-19 01:48:00,46.4,43.3,29.87,WSW,250,0.0,4.0,89,0.00,,,0.00,VWS V14.00,2013-10-19 05:48:00,
2013-10-19 01:49:00,46.4,43.3,29.87,WSW,250,0.0,4.0,89,0.00,,,0.00,VWS V14.00,2013-10-19 05:49:00,
2013-10-19 01:50:00,46.4,43.3,29.87,WSW,250,0.0,4.0,89,0.00,,,0.00,VWS V14.00,2013-10-19 05:50:00,
2013-10-19 01:51:00,46.5,43.1,29.87,WSW,249,0.0,4.0,88,0.00,,,0.00,VWS V14.00,2013-10-19 05:51:00,
2013-10-19 01:52:00,46.4,43.3,29.87,WSW,250,0.0,4.0,89,0.00,,,0.00,VWS V14.00,2013-10-19 05:52:00,
2013-10-19 01:53:00,46.4,43.3,29.87,WSW,249,2.0,4.0,89,0.00,,,0.00,VWS V14.00,2013-10-19 05:53:00,
2013-10-19 01:54:00,46.4,43.3,29.87,WSW,250,0.0,4.0,89,0.00,,,0.00,VWS V14.00,2013-10-19 05:54:00,
2013-10-19 01:55:00,46.4,43.3,29.87,WSW,250,0.0,4.0,89,0.00,,,0.00,VWS V14.00,2013-10-19 05:55:00,
2013-10-19 01:56:00,46.4,43.3,29.87,WSW,250,0.0,4.0,89,0.00,,,0.00,VWS V14.00,2013-10-19 05:56:00,
2013-10-19 01:57:00,46.4,43.3,29.87,WSW,250,2.0,4.0,89,0.00,,,0.00,VWS V14.00,2013-10-19 05:57:00,
2013-10-19 01:58:00,46.4,43.3,29.87,WSW,249,0.0,4.0,89,0.00,,,0.00,VWS V14.00,2013-10-19 05:58:00,
2013-10-19 01:59:00,46.4,43.3,29.87,WSW,249,0.0,4.0,89,0.00,,,0.00,VWS V14.00,2013-10-19 05:59:00,
2013-10-19 02:00:00,46.4,43.3,29.87,WSW,249,3.0,4.0,89,0.00,,,0.00,VWS V14.00,2013-10-19 06:00:00,
2013-10-19 02:01:00,46.4,43.3,29.87,WSW,250,0.0,4.0,89,0.00,,,0.00,VWS V14.00,2013-10-19 06:01:00,
2013-10-19 02:02:00,46.3,43.2,29.87,WSW,249,0.0,4.0,89,0.00,,,0.00,VWS V14.00,2013-10-19 06:02:00,
2013-10-19 02:03:00,46.3,43.2,29.87,WSW,249,2.0,4.0,89,0.00,,,0.00,VWS V14.00,2013-10-19 06:03:00,
2013-10-19 02:04:00,46.3,43.2,29.87,WSW,249,2.0,4.0,89,0.00,,,0.00,VWS V14.00,2013-10-19 06:04:00,
2013-10-19 02:05:00,46.3,43.2,29.87,WSW,249,0.0,4.0,89,0.00,,,0.00,VWS V14.00,2013-10-19 06:05:00,
2013-10-19 02:06:00,46.4,43.3,29.87,WSW,250,1.0,4.0,89,0.00,,,0.00,VWS V14.00,2013-10-19 06:06:00,
2013-10-19 02:07:00,46.3,43.2,29.87,WSW,249,0.0,4.0,89,0.00,,,0.00,VWS V14.00,2013-10-19 06:07:00,
2013-10-19 02:08:00,46.2,43.1,29.87,WSW,249,0.0,4.0,89,0.00,,,0.00,VWS V14.00,2013-10-19 06:08:00,
2013-10-19 02:09:00,46.2,43.1,29.87,WSW,249,2.0,4.0,89,0.00,,,0.00,VWS V14.00,2013-10-19 06:09:00,
2013-10-19 02:10:00,46.1,43.0,29.87,WSW,249,0.0,4.0,89,0.00,,,0.00,VWS V14.00,2013-10-19 06:10:00,
2013-10-19 02:11:00,46.3,43.2,29.87,WSW,249,0.0,4.0,89,0.00,,,0.00,VWS V14.00,2013-10-19 06:11:00,
2013-10-19 02:12:00,46.1,43.0,29.86,WSW,249,0.0,4.0,89,0.00,,,0.00,VWS V14.00,2013-10-19 06:12:00,
2013-10-19 02:13:00,46.0,43.0,29.86,WSW,249,0.0,4.0,89,0.00,,,0.00,VWS V14.00,2013-10-19 06:13:00,
2013-10-19 02:14:00,46.0,43.0,29.86,WSW,249,0.0,4.0,89,0.00,,,0.00,VWS V14.00,2013-10-19 06:14:00,
2013-10-19 02:15:00,46.0,43.0,29.86,WSW,249,0.0,4.0,89,0.00,,,0.00,VWS V14.00,2013-10-19 06:15:00,
2013-10-19 02:16:00,46.3,43.2,29.87,WSW,249,2.0,4.0,89,0.00,,,0.00,VWS V14.00,2013-10-19 06:16:00,
2013-10-19 02:17:00,45.9,42.8,29.86,WSW,249,0.0,4.0,89,0.00,,,0.00,VWS V14.00,2013-10-19 06:17:00,
2013-10-19 02:18:00,45.9,42.8,29.86,WSW,249,0.0,4.0,89,0.00,,,0.00,VWS V14.00,2013-10-19 06:18:00,
2013-10-19 02:19:00,45.8,42.8,29.86,WSW,249,0.0,4.0,89,0.00,,,0.00,VWS V14.00,2013-10-19 06:19:00,
2013-10-19 02:20:00,45.8,42.8,29.86,WSW,249,0.0,4.0,89,0.00,,,0.00,VWS V14.00,2013-10-19 06:20:00,
2013-10-19 02:21:00,46.1,43.0,29.87,WSW,249,0.0,4.0,89,0.00,,,0.00,VWS V14.00,2013-10-19 06:21:00,
2013-10-19 02:22:00,45.7,42.7,29.86,WSW,249,0.0,4.0,89,0.00,,,0.00,VWS V14.00,2013-10-19 06:22:00,
2013-10-19 02:23:00,45.7,42.7,29.86,WSW,249,0.0,4.0,89,0.00,,,0.00,VWS V14.00,2013-10-19 06:23:00,
2013-10-19 02:24:00,45.7,42.7,29.86,WSW,249,0.0,4.0,89,0.00,,,0.00,VWS V14.00,2013-10-19 06:24:00,
2013-10-19 02:25:00,45.6,42.5,29.86,WSW,249,0.0,4.0,89,0.00,,,0.00,VWS V14.00,2013-10-19 06:25:00,
2013-10-19 02:26:00,45.9,42.8,29.86,WSW,249,0.0,4.0,89,0.00,,,0.00,VWS V14.00,2013-10-19 06:26:00,
2013-10-19 02:27:00,45.6,42.5,29.86,WSW,249,0.0,4.0,89,0.00,,,0.00,VWS V14.00,2013-10-19 06:27:00,
2013-10-19 02:28:00,45.6,42.5,29.86,WSW,249,1.0,4.0,89,0.00,,,0.00,VWS V14.00,2013-10-19 06:28:00,
2013-10-19 02:29:00,45.6,42.5,29.86,WSW,249,0.0,4.0,89,0.00,,,0.00,VWS V14.00,2013-10-19 06:29:00,
2013-10-19 02:30:00,45.6,42.5,29.86,WSW,249,0.0,4.0,89,0.00,,,0.00,VWS V14.00,2013-10-19 06:30:00,
2013-10-19 02:31:00,45.8,42.8,29.86,WSW,249,0.0,4.0,89,0.00,,,0.00,VWS V14.00,2013-10-19 06:31:00,
2013-10-19 02:32:00,45.5,42.7,29.86,WSW,249,0.0,3.0,90,0.00,,,0.00,VWS V14.00,2013-10-19 06:32:00,
2013-10-19 02:33:00,45.5,42.7,29.86,WSW,249,0.0,3.0,90,0.00,,,0.00,VWS V14.00,2013-10-19 06:33:00,
2013-10-19 02:34:00,45.5,42.7,29.86,WSW,249,0.0,4.0,90,0.00,,,0.00,VWS V14.00,2013-10-19 06:34:00,
2013-10-19 02:35:00,45.5,42.7,29.86,WSW,249,2.0,4.0,90,0.00,,,0.00,VWS V14.00,2013-10-19 06:35:00,
2013-10-19 02:36:00,45.6,42.5,29.86,WSW,249,1.0,4.0,89,0.00,,,0.00,VWS V14.00,2013-10-19 06:36:00,
2013-10-19 02:37:00,45.5,42.7,29.86,WSW,249,3.0,5.0,90,0.00,,,0.00,VWS V14.00,2013-10-19 06:37:00,
2013-10-19 02:38:00,45.5,42.7,29.86,WSW,249,0.0,5.0,90,0.00,,,0.00,VWS V14.00,2013-10-19 06:38:00,
2013-10-19 02:39:00,45.5,42.7,29.86,WSW,249,1.0,5.0,90,0.00,,,0.00,VWS V14.00,2013-10-19 06:39:00,
2013-10-19 02:40:00,45.5,42.7,29.86,WSW,249,0.0,5.0,90,0.00,,,0.00,VWS V14.00,2013-10-19 06:40:00,
2013-10-19 02:41:00,45.6,42.5,29.86,WSW,249,0.0,3.0,89,0.00,,,0.00,VWS V14.00,2013-10-19 06:41:00,
2013-10-19 02:42:00,45.5,42.7,29.86,WSW,249,3.0,5.0,90,0.00,,,0.00,VWS V14.00,2013-10-19 06:42:00,
2013-10-19 02:43:00,45.5,42.7,29.86,WSW,249,0.0,5.0,90,0.00,,,0.00,VWS V14.00,2013-10-19 06:43:00,
2013-10-19 02:44:00,45.5,42.7,29.86,WSW,249,4.0,5.0,90,0.00,,,0.00,VWS V14.00,2013-10-19 06:44:00,
2013-10-19 02:45:00,45.5,42.7,29.86,WSW,249,0.0,5.0,90,0.00,,,0.00,VWS V14.00,2013-10-19 06:45:00,
2013-10-19 02:46:00,45.5,42.7,29.86,WSW,250,5.0,5.0,90,0.00,,,0.00,VWS V14.00,2013-10-19 06:46:00,
2013-10-19 02:47:00,45.4,42.6,29.87,WSW,249,0.0,5.0,90,0.00,,,0.00,VWS V14.00,2013-10-19 06:47:00,
2013-10-19 02:48:00,45.4,42.6,29.86,WSW,249,3.0,5.0,90,0.00,,,0.00,VWS V14.00,2013-10-19 06:48:00,
2013-10-19 02:49:00,45.4,42.6,29.86,WSW,249,2.0,5.0,90,0.00,,,0.00,VWS V14.00,2013-10-19 06:49:00,
2013-10-19 02:50:00,45.4,42.6,29.86,WSW,249,0.0,5.0,90,0.00,,,0.00,VWS V14.00,2013-10-19 06:50:00,
2013-10-19 02:51:00,45.5,42.7,29.86,WSW,249,0.0,5.0,90,0.00,,,0.00,VWS V14.00,2013-10-19 06:51:00,
2013-10-19 02:52:00,45.4,42.6,29.86,WSW,249,0.0,5.0,90,0.00,,,0.00,VWS V14.00,2013-10-19 06:52:00,
2013-10-19 02:53:00,45.3,42.5,29.86,WSW,249,0.0,5.0,90,0.00,,,0.00,VWS V14.00,2013-10-19 06:53:00,
2013-10-19 02:54:00,45.3,42.5,29.86,WSW,249,3.0,5.0,90,0.00,,,0.00,VWS V14.00,2013-10-19 06:54:00,
2013-10-19 02:55:00,45.3,42.5,29.86,WSW,248,3.0,6.0,90,0.00,,,0.00,VWS V14.00,2013-10-19 06:55:00,
2013-10-19 02:56:00,45.5,42.7,29.86,WSW,249,0.0,5.0,90,0.00,,,0.00,VWS V14.00,2013-10-19 06:56:00,
2013-10-19 02:57:00,45.2,42.5,29.86,WSW,248,0.0,6.0,90,0.00,,,0.00,VWS V14.00,2013-10-19 06:57:00,
2013-10-19 02:58:00,45.2,42.5,29.87,WSW,248,0.0,6.0,90,0.00,,,0.00,VWS V14.00,2013-10-19 06:58:00,
2013-10-19 02:59:00,45.2,42.5,29.86,WSW,248,0.0,6.0,90,0.00,,,0.00,VWS V14.00,2013-10-19 06:59:00,
2013-10-19 03:00:00,45.2,42.5,29.86,WSW,248,2.0,6.0,90,0.00,,,0.00,VWS V14.00,2013-10-19 07:00:00,
2013-10-19 03:01:00,45.4,42.6,29.87,WSW,249,0.0,5.0,90,0.00,,,0.00,VWS V14.00,2013-10-19 07:01:00,
2013-10-19 03:02:00,45.2,42.5,29.86,WSW,248,4.0,6.0,90,0.00,,,0.00,VWS V14.00,2013-10-19 07:02:00,
2013-10-19 03:03:00,45.2,42.5,29.86,WSW,248,0.0,6.0,90,0.00,,,0.00,VWS V14.00,2013-10-19 07:03:00,
2013-10-19 03:04:00,45.2,42.7,29.86,WSW,248,2.0,6.0,91,0.00,,,0.00,VWS V14.00,2013-10-19 07:04:00,
2013-10-19 03:05:00,45.2,42.7,29.86,WSW,252,1.0,6.0,91,0.00,,,0.00,VWS V14.00,2013-10-19 07:05:00,
2013-10-19 03:06:00,45.3,42.5,29.86,WSW,248,0.0,6.0,90,0.00,,,0.00,VWS V14.00,2013-10-19 07:06:00,
2013-10-19 03:07:00,45.1,42.3,29.86,WSW,249,1.0,6.0,90,0.00,,,0.00,VWS V14.00,2013-10-19 07:07:00,
2013-10-19 03:08:00,45.1,42.3,29.86,WSW,248,0.0,6.0,90,0.00,,,0.00,VWS V14.00,2013-10-19 07:08:00,
2013-10-19 03:09:00,45.1,42.3,29.86,WSW,248,3.0,6.0,90,0.00,,,0.00,VWS V14.00,2013-10-19 07:09:00,
2013-10-19 03:10:00,45.1,42.3,29.86,WSW,248,0.0,6.0,90,0.00,,,0.00,VWS V14.00,2013-10-19 07:10:00,
2013-10-19 03:11:00,45.2,42.5,29.86,WSW,248,0.0,6.0,90,0.00,,,0.00,VWS V14.00,2013-10-19 07:11:00,
2013-10-19 03:12:00,45.1,42.3,29.86,WSW,248,3.0,6.0,90,0.00,,,0.00,VWS V14.00,2013-10-19 07:12:00,
2013-10-19 03:13:00,45.1,42.3,29.86,WSW,248,5.0,6.0,90,0.00,,,0.00,VWS V14.00,2013-10-19 07:13:00,
2013-10-19 03:14:00,45.1,42.3,29.86,WSW,248,1.0,7.0,90,0.00,,,0.00,VWS V14.00,2013-10-19 07:14:00,
2013-10-19 03:15:00,45.1,42.3,29.86,WSW,248,2.0,7.0,90,0.00,,,0.00,VWS V14.00,2013-10-19 07:15:00,
2013-10-19 03:16:00,45.2,42.5,29.86,WSW,250,6.0,6.0,90,0.00,,,0.00,VWS V14.00,2013-10-19 07:16:00,
2013-10-19 03:17:00,45.1,42.3,29.86,WSW,252,0.0,12.0,90,0.00,,,0.00,VWS V14.00,2013-10-19 07:17:00,
2013-10-19 03:18:00,45.1,42.3,29.86,WSW,246,0.0,12.0,90,0.00,,,0.00,VWS V14.00,2013-10-19 07:18:00,
2013-10-19 03:19:00,45.1,42.3,29.86,WSW,246,3.0,12.0,90,0.00,,,0.00,VWS V14.00,2013-10-19 07:19:00,
2013-10-19 03:20:00,45.1,42.3,29.86,WSW,246,0.0,12.0,90,0.00,,,0.00,VWS V14.00,2013-10-19 07:20:00,
2013-10-19 03:21:00,45.1,42.3,29.86,WSW,248,5.0,6.0,90,0.00,,,0.00,VWS V14.00,2013-10-19 07:21:00,
2013-10-19 03:22:00,45.1,42.3,29.86,WSW,245,4.0,12.0,90,0.00,,,0.00,VWS V14.00,2013-10-19 07:22:00,
2013-10-19 03:23:00,45.0,42.2,29.86,WSW,245,3.0,12.0,90,0.00,,,0.00,VWS V14.00,2013-10-19 07:23:00,
2013-10-19 03:24:00,45.0,42.2,29.86,WSW,242,6.0,12.0,90,0.00,,,0.00,VWS V14.00,2013-10-19 07:24:00,
2013-10-19 03:25:00,45.0,42.2,29.86,WSW,242,1.0,12.0,90,0.00,,,0.00,VWS V14.00,2013-10-19 07:25:00,
2013-10-19 03:26:00,45.1,42.3,29.86,WSW,245,4.0,7.0,90,0.00,,,0.00,VWS V14.00,2013-10-19 07:26:00,
2013-10-19 03:27:00,45.0,42.2,29.86,WSW,242,1.0,12.0,90,0.00,,,0.00,VWS V14.00,2013-10-19 07:27:00,
2013-10-19 03:28:00,45.0,42.2,29.86,WSW,242,0.0,12.0,90,0.00,,,0.00,VWS V14.00,2013-10-19 07:28:00,
2013-10-19 03:29:00,45.0,42.2,29.86,WSW,242,4.0,12.0,90,0.00,,,0.00,VWS V14.00,2013-10-19 07:29:00,
2013-10-19 03:30:00,45.0,42.2,29.86,WSW,242,2.0,12.0,90,0.00,,,0.00,VWS V14.00,2013-10-19 07:30:00,
2013-10-19 03:31:00,45.1,42.3,29.86,WSW,246,0.0,12.0,90,0.00,,,0.00,VWS V14.00,2013-10-19 07:31:00,
2013-10-19 03:32:00,44.9,42.2,29.86,WSW,242,3.0,4.0,90,0.00,,,0.00,VWS V14.00,2013-10-19 07:32:00,
2013-10-19 03:33:00,44.9,42.2,29.86,WSW,242,3.0,4.0,90,0.00,,,0.00,VWS V14.00,2013-10-19 07:33:00,
2013-10-19 03:34:00,44.8,42.0,29.86,WSW,242,0.0,5.0,90,0.00,,,0.00,VWS V14.00,2013-10-19 07:34:00,
2013-10-19 03:35:00,44.8,42.0,29.86,WSW,242,1.0,5.0,90,0.00,,,0.00,VWS V14.00,2013-10-19 07:35:00,
2013-10-19 03:36:00,45.0,42.2,29.86,WSW,242,1.0,12.0,90,0.00,,,0.00,VWS V14.00,2013-10-19 07:36:00,
2013-10-19 03:37:00,44.7,42.0,29.86,WSW,240,3.0,7.0,90,0.00,,,0.00,VWS V14.00,2013-10-19 07:37:00,
2013-10-19 03:38:00,44.7,42.0,29.86,WSW,240,0.0,7.0,90,0.00,,,0.00,VWS V14.00,2013-10-19 07:38:00,
2013-10-19 03:39:00,44.7,42.0,29.86,WSW,240,0.0,7.0,90,0.00,,,0.00,VWS V14.00,2013-10-19 07:39:00,
2013-10-19 03:40:00,44.7,42.0,29.86,WSW,240,1.0,7.0,90,0.00,,,0.00,VWS V14.00,2013-10-19 07:40:00,
2013-10-19 03:41:00,45.0,42.2,29.86,WSW,242,2.0,2.0,90,0.00,,,0.00,VWS V14.00,2013-10-19 07:41:00,
2013-10-19 03:42:00,44.7,42.0,29.86,SW,225,2.0,10.0,90,0.00,,,0.00,VWS V14.00,2013-10-19 07:42:00,
2013-10-19 03:43:00,44.6,41.8,29.86,SW,215,5.0,10.0,90,0.00,,,0.00,VWS V14.00,2013-10-19 07:43:00,
2013-10-19 03:44:00,44.6,41.8,29.86,SW,215,2.0,10.0,90,0.00,,,0.00,VWS V14.00,2013-10-19 07:44:00,
2013-10-19 03:45:00,44.6,41.8,29.86,SW,215,2.0,10.0,90,0.00,,,0.00,VWS V14.00,2013-10-19 07:45:00,
2013-10-19 03:46:00,44.8,42.0,29.86,WSW,242,2.0,5.0,90,0.00,,,0.00,VWS V14.00,2013-10-19 07:46:00,
2013-10-19 03:47:00,44.6,41.8,29.86,SW,221,0.0,10.0,90,0.00,,,0.00,VWS V14.00,2013-10-19 07:47:00,
2013-10-19 03:48:00,44.6,41.8,29.86,SW,222,4.0,10.0,90,0.00,,,0.00,VWS V14.00,2013-10-19 07:48:00,
2013-10-19 03:49:00,44.5,41.8,29.86,SW,226,2.0,10.0,90,0.00,,,0.00,VWS V14.00,2013-10-19 07:49:00,
2013-10-19 03:50:00,44.6,41.8,29.86,SW,227,6.0,10.0,90,0.00,,,0.00,VWS V14.00,2013-10-19 07:50:00,
2013-10-19 03:51:00,44.7,42.0,29.86,SW,225,3.0,10.0,90,0.00,,,0.00,VWS V14.00,2013-10-19 07:51:00,
2013-10-19 03:52:00,44.6,41.8,29.86,WSW,238,2.0,10.0,90,0.00,,,0.00,VWS V14.00,2013-10-19 07:52:00,
2013-10-19 03:53:00,44.5,41.8,29.86,WSW,237,3.0,10.0,90,0.00,,,0.00,VWS V14.00,2013-10-19 07:53:00,
2013-10-19 03:54:00,44.5,41.8,29.86,WSW,237,4.0,10.0,90,0.00,,,0.00,VWS V14.00,2013-10-19 07:54:00,
2013-10-19 03:55:00,44.5,41.8,29.86,WSW,238,0.0,10.0,90,0.00,,,0.00,VWS V14.00,2013-10-19 07:55:00,
2013-10-19 03:56:00,44.6,41.8,29.86,SW,215,0.0,10.0,90,0.00,,,0.00,VWS V14.00,2013-10-19 07:56:00,
2013-10-19 03:57:00,44.5,41.8,29.86,SW,227,2.0,10.0,90,0.00,,,0.00,VWS V14.00,2013-10-19 07:57:00,
2013-10-19 03:58:00,44.5,41.8,29.86,SW,227,3.0,10.0,90,0.00,,,0.00,VWS V14.00,2013-10-19 07:58:00,
2013-10-19 03:59:00,44.5,41.8,29.86,SW,228,3.0,10.0,90,0.00,,,0.00,VWS V14.00,2013-10-19 07:59:00,
2013-10-19 04:00:00,44.5,41.8,29.86,SW,230,3.0,10.0,90,0.00,,,0.00,VWS V14.00,2013-10-19 08:00:00,
2013-10-19 04:01:00,44.6,41.8,29.86,SW,230,1.0,10.0,90,0.00,,,0.00,VWS V14.00,2013-10-19 08:01:00,
2013-10-19 04:02:00,44.5,41.8,29.86,SW,231,3.0,4.0,90,0.00,,,0.00,VWS V14.00,2013-10-19 08:02:00,
2013-10-19 04:03:00,44.5,41.8,29.86,SW,232,4.0,5.0,90,0.00,,,0.00,VWS V14.00,2013-10-19 08:03:00,
2013-10-19 04:04:00,44.5,41.8,29.86,SW,232,3.0,6.0,90,0.00,,,0.00,VWS V14.00,2013-10-19 08:04:00,
2013-10-19 04:05:00,44.5,41.8,29.86,SW,236,4.0,6.0,90,0.00,,,0.00,VWS V14.00,2013-10-19 08:05:00,
2013-10-19 04:06:00,44.5,41.8,29.86,WSW,238,1.0,10.0,90,0.00,,,0.00,VWS V14.00,2013-10-19 08:06:00,
2013-10-19 04:07:00,44.5,41.8,29.86,WSW,246,1.0,9.0,90,0.00,,,0.00,VWS V14.00,2013-10-19 08:07:00,
2013-10-19 04:08:00,44.5,41.8,29.86,WSW,247,0.0,9.0,90,0.00,,,0.00,VWS V14.00,2013-10-19 08:08:00,
2013-10-19 04:09:00,44.5,41.8,29.86,WSW,247,3.0,9.0,90,0.00,,,0.00,VWS V14.00,2013-10-19 08:09:00,
2013-10-19 04:10:00,44.4,41.7,29.86,WSW,248,0.0,9.0,90,0.00,,,0.00,VWS V14.00,2013-10-19 08:10:00,
2013-10-19 04:11:00,44.5,41.8,29.86,SW,230,2.0,4.0,90,0.00,,,0.00,VWS V14.00,2013-10-19 08:11:00,
2013-10-19 04:12:00,44.4,41.7,29.86,WSW,246,3.0,9.0,90,0.00,,,0.00,VWS V14.00,2013-10-19 08:12:00,
2013-10-19 04:13:00,44.4,41.7,29.86,WSW,246,0.0,9.0,90,0.00,,,0.00,VWS V14.00,2013-10-19 08:13:00,
2013-10-19 04:14:00,44.4,41.7,29.86,WSW,246,0.0,9.0,90,0.00,,,0.00,VWS V14.00,2013-10-19 08:14:00,
2013-10-19 04:15:00,44.3,41.6,29.86,WSW,247,4.0,9.0,90,0.00,,,0.00,VWS V14.00,2013-10-19 08:15:00,
2013-10-19 04:16:00,44.5,41.8,29.86,WSW,247,6.0,9.0,90,0.00,,,0.00,VWS V14.00,2013-10-19 08:16:00,
2013-10-19 04:17:00,44.3,41.6,29.86,WSW,252,3.0,9.0,90,0.00,,,0.00,VWS V14.00,2013-10-19 08:17:00,
2013-10-19 04:18:00,44.3,41.6,29.86,WSW,251,1.0,9.0,90,0.00,,,0.00,VWS V14.00,2013-10-19 08:18:00,
2013-10-19 04:19:00,44.3,41.6,29.86,WSW,251,0.0,9.0,90,0.00,,,0.00,VWS V14.00,2013-10-19 08:19:00,
2013-10-19 04:20:00,44.3,41.6,29.86,WSW,250,0.0,9.0,90,0.00,,,0.00,VWS V14.00,2013-10-19 08:20:00,
2013-10-19 04:21:00,44.4,41.7,29.86,WSW,248,2.0,9.0,90,0.00,,,0.00,VWS V14.00,2013-10-19 08:21:00,
2013-10-19 04:22:00,44.2,41.5,29.86,WSW,250,0.0,9.0,90,0.00,,,0.00,VWS V14.00,2013-10-19 08:22:00,
2013-10-19 04:23:00,44.2,41.5,29.86,WSW,250,0.0,9.0,90,0.00,,,0.00,VWS V14.00,2013-10-19 08:23:00,
2013-10-19 04:24:00,44.2,41.5,29.86,WSW,250,2.0,9.0,90,0.00,,,0.00,VWS V14.00,2013-10-19 08:24:00,
2013-10-19 04:25:00,44.2,41.5,29.85,WSW,251,0.0,9.0,90,0.00,,,0.00,VWS V14.00,2013-10-19 08:25:00,
2013-10-19 04:26:00,44.3,41.6,29.86,WSW,246,2.0,9.0,90,0.00,,,0.00,VWS V14.00,2013-10-19 08:26:00,
2013-10-19 04:27:00,44.2,41.5,29.85,WSW,251,0.0,9.0,90,0.00,,,0.00,VWS V14.00,2013-10-19 08:27:00,
2013-10-19 04:28:00,44.2,41.5,29.85,WSW,251,3.0,9.0,90,0.00,,,0.00,VWS V14.00,2013-10-19 08:28:00,
2013-10-19 04:29:00,44.1,41.4,29.85,WSW,249,3.0,9.0,90,0.00,,,0.00,VWS V14.00,2013-10-19 08:29:00,
2013-10-19 04:30:00,44.2,41.5,29.85,WSW,249,2.0,9.0,90,0.00,,,0.00,VWS V14.00,2013-10-19 08:30:00,
2013-10-19 04:31:00,44.3,41.6,29.86,WSW,251,1.0,9.0,90,0.00,,,0.00,VWS V14.00,2013-10-19 08:31:00,
2013-10-19 04:32:00,44.1,41.4,29.85,WSW,249,0.0,2.0,90,0.00,,,0.00,VWS V14.00,2013-10-19 08:32:00,
2013-10-19 04:33:00,44.1,41.4,29.85,WSW,249,2.0,5.0,90,0.00,,,0.00,VWS V14.00,2013-10-19 08:33:00,
2013-10-19 04:34:00,44.1,41.4,29.85,WSW,249,0.0,5.0,90,0.00,,,0.00,VWS V14.00,2013-10-19 08:34:00,
2013-10-19 04:35:00,44.1,41.4,29.85,WSW,249,0.0,5.0,90,0.00,,,0.00,VWS V14.00,2013-10-19 08:35:00,
2013-10-19 04:36:00,44.2,41.5,29.85,WSW,251,2.0,9.0,90,0.00,,,0.00,VWS V14.00,2013-10-19 08:36:00,
2013-10-19 04:37:00,44.0,41.3,29.85,WSW,249,0.0,5.0,90,0.00,,,0.00,VWS V14.00,2013-10-19 08:37:00,
2013-10-19 04:38:00,44.0,41.3,29.85,WSW,249,1.0,5.0,90,0.00,,,0.00,VWS V14.00,2013-10-19 08:38:00,
2013-10-19 04:39:00,44.0,41.3,29.85,WSW,249,0.0,5.0,90,0.00,,,0.00,VWS V14.00,2013-10-19 08:39:00,
2013-10-19 04:40:00,44.0,41.0,29.85,WSW,249,0.0,5.0,89,0.00,,,0.00,VWS V14.00,2013-10-19 08:40:00,
2013-10-19 04:41:00,44.1,41.4,29.85,WSW,249,0.0,2.0,90,0.00,,,0.00,VWS V14.00,2013-10-19 08:41:00,
2013-10-19 04:42:00,43.9,41.2,29.85,WSW,249,0.0,5.0,90,0.00,,,0.00,VWS V14.00,2013-10-19 08:42:00,
2013-10-19 04:43:00,43.9,41.2,29.85,WSW,249,1.0,5.0,90,0.00,,,0.00,VWS V14.00,2013-10-19 08:43:00,
2013-10-19 04:44:00,43.9,41.2,29.85,WSW,249,0.0,5.0,90,0.00,,,0.00,VWS V14.00,2013-10-19 08:44:00,
2013-10-19 04:45:00,43.9,41.2,29.84,WSW,249,0.0,5.0,90,0.00,,,0.00,VWS V14.00,2013-10-19 08:45:00,
2013-10-19 04:46:00,44.1,41.4,29.85,WSW,249,2.0,5.0,90,0.00,,,0.00,VWS V14.00,2013-10-19 08:46:00,
2013-10-19 04:47:00,43.8,41.1,29.84,WSW,249,0.0,5.0,90,0.00,,,0.00,VWS V14.00,2013-10-19 08:47:00,
2013-10-19 04:48:00,43.8,41.1,29.84,WSW,249,0.0,5.0,90,0.00,,,0.00,VWS V14.00,2013-10-19 08:48:00,
2013-10-19 04:49:00,43.8,41.1,29.84,WSW,249,2.0,5.0,90,0.00,,,0.00,VWS V14.00,2013-10-19 08:49:00,
2013-10-19 04:50:00,43.8,41.1,29.84,WSW,249,2.0,5.0,90,0.00,,,0.00,VWS V14.00,2013-10-19 08:50:00,
2013-10-19 04:51:00,43.9,40.9,29.85,WSW,249,2.0,5.0,89,0.00,,,0.00,VWS V14.00,2013-10-19 08:51:00,
2013-10-19 04:52:00,43.8,41.1,29.84,WSW,248,0.0,5.0,90,0.00,,,0.00,VWS V14.00,2013-10-19 08:52:00,
2013-10-19 04:53:00,43.8,41.1,29.84,WSW,248,0.0,5.0,90,0.00,,,0.00,VWS V14.00,2013-10-19 08:53:00,
2013-10-19 04:54:00,43.8,41.1,29.84,WSW,248,0.0,5.0,90,0.00,,,0.00,VWS V14.00,2013-10-19 08:54:00,
2013-10-19 04:55:00,43.8,41.1,29.84,WSW,248,3.0,5.0,90,0.00,,,0.00,VWS V14.00,2013-10-19 08:55:00,
2013-10-19 04:56:00,43.9,41.2,29.84,WSW,249,0.0,5.0,90,0.00,,,0.00,VWS V14.00,2013-10-19 08:56:00,
2013-10-19 04:57:00,43.8,41.1,29.84,WSW,248,0.0,5.0,90,0.00,,,0.00,VWS V14.00,2013-10-19 08:57:00,
2013-10-19 04:58:00,43.8,41.1,29.84,WSW,248,0.0,5.0,90,0.00,,,0.00,VWS V14.00,2013-10-19 08:58:00,
2013-10-19 04:59:00,43.8,41.1,29.84,WSW,248,2.0,5.0,90,0.00,,,0.00,VWS V14.00,2013-10-19 08:59:00,
2013-10-19 05:00:00,43.7,41.0,29.84,WSW,248,0.0,5.0,90,0.00,,,0.00,VWS V14.00,2013-10-19 09:00:00,
2013-10-19 05:01:00,43.8,41.1,29.84,WSW,249,0.0,5.0,90,0.00,,,0.00,VWS V14.00,2013-10-19 09:01:00,
2013-10-19 05:02:00,43.8,41.1,29.84,WSW,248,0.0,0.0,90,0.00,,,0.00,VWS V14.00,2013-10-19 09:02:00,
2013-10-19 05:03:00,43.7,41.0,29.84,WSW,248,0.0,0.0,90,0.00,,,0.00,VWS V14.00,2013-10-19 09:03:00,
2013-10-19 05:04:00,43.7,41.0,29.84,WSW,248,0.0,0.0,90,0.00,,,0.00,VWS V14.00,2013-10-19 09:04:00,
2013-10-19 05:05:00,43.7,41.0,29.84,WSW,248,0.0,1.0,90,0.00,,,0.00,VWS V14.00,2013-10-19 09:05:00,
2013-10-19 05:06:00,43.8,41.1,29.84,WSW,248,3.0,5.0,90,0.00,,,0.00,VWS V14.00,2013-10-19 09:06:00,
2013-10-19 05:07:00,43.7,41.0,29.84,WSW,248,0.0,2.0,90,0.00,,,0.00,VWS V14.00,2013-10-19 09:07:00,
2013-10-19 05:08:00,43.6,40.9,29.84,WSW,248,0.0,2.0,90,0.00,,,0.00,VWS V14.00,2013-10-19 09:08:00,
2013-10-19 05:09:00,43.6,40.9,29.84,WSW,248,0.0,3.0,90,0.00,,,0.00,VWS V14.00,2013-10-19 09:09:00,
2013-10-19 05:10:00,43.6,40.9,29.84,WSW,248,2.0,3.0,90,0.00,,,0.00,VWS V14.00,2013-10-19 09:10:00,
2013-10-19 05:11:00,43.8,41.1,29.84,WSW,248,0.0,0.0,90,0.00,,,0.00,VWS V14.00,2013-10-19 09:11:00,
2013-10-19 05:12:00,43.6,40.9,29.84,WSW,248,0.0,4.0,90,0.00,,,0.00,VWS V14.00,2013-10-19 09:12:00,
2013-10-19 05:13:00,43.6,40.9,29.84,WSW,248,1.0,4.0,90,0.00,,,0.00,VWS V14.00,2013-10-19 09:13:00,
2013-10-19 05:14:00,43.6,40.9,29.84,WSW,248,0.0,4.0,90,0.00,,,0.00,VWS V14.00,2013-10-19 09:14:00,
2013-10-19 05:15:00,43.7,41.0,29.84,WSW,248,0.0,1.0,90,0.00,,,0.00,VWS V14.00,2013-10-19 09:15:00,
2013-10-19 05:16:00,43.6,40.9,29.84,WSW,248,0.0,4.0,90,0.00,,,0.00,VWS V14.00,2013-10-19 09:16:00,
2013-10-19 05:17:00,43.6,40.9,29.84,WSW,248,1.0,4.0,90,0.00,,,0.00,VWS V14.00,2013-10-19 09:17:00,
2013-10-19 05:18:00,43.6,40.9,29.84,WSW,248,0.0,4.0,90,0.00,,,0.00,VWS V14.00,2013-10-19 09:18:00,
2013-10-19 05:19:00,43.7,41.0,29.84,WSW,248,3.0,4.0,90,0.00,,,0.00,VWS V14.00,2013-10-19 09:19:00,
2013-10-19 05:20:00,43.6,40.9,29.84,WSW,248,1.0,4.0,90,0.00,,,0.00,VWS V14.00,2013-10-19 09:20:00,
2013-10-19 05:21:00,43.6,40.9,29.84,WSW,248,1.0,3.0,90,0.00,,,0.00,VWS V14.00,2013-10-19 09:21:00,
2013-10-19 05:22:00,43.7,41.0,29.84,WSW,248,0.0,4.0,90,0.00,,,0.00,VWS V14.00,2013-10-19 09:22:00,
2013-10-19 05:23:00,43.7,41.0,29.84,WSW,248,2.0,4.0,90,0.00,,,0.00,VWS V14.00,2013-10-19 09:23:00,
2013-10-19 05:24:00,43.7,41.0,29.84,WSW,248,0.0,4.0,90,0.00,,,0.00,VWS V14.00,2013-10-19 09:24:00,
2013-10-19 05:25:00,43.7,41.0,29.83,WSW,248,3.0,4.0,90,0.00,,,0.00,VWS V14.00,2013-10-19 09:25:00,
2013-10-19 05:26:00,43.6,40.9,29.84,WSW,248,0.0,4.0,90,0.00,,,0.00,VWS V14.00,2013-10-19 09:26:00,
2013-10-19 05:27:00,43.7,41.0,29.83,WSW,248,0.0,4.0,90,0.00,,,0.00,VWS V14.00,2013-10-19 09:27:00,
2013-10-19 05:28:00,43.7,41.0,29.83,WSW,248,0.0,4.0,90,0.00,,,0.00,VWS V14.00,2013-10-19 09:28:00,
2013-10-19 05:29:00,43.8,41.1,29.83,WSW,248,2.0,4.0,90,0.00,,,0.00,VWS V14.00,2013-10-19 09:29:00,
2013-10-19 05:30:00,43.7,41.0,29.83,WSW,248,4.0,4.0,90,0.00,,,0.00,VWS V14.00,2013-10-19 09:30:00,
2013-10-19 05:31:00,43.6,40.9,29.84,WSW,248,3.0,4.0,90,0.00,,,0.00,VWS V14.00,2013-10-19 09:31:00,
2013-10-19 05:32:00,43.8,41.1,29.84,WSW,248,2.0,4.0,90,0.00,,,0.00,VWS V14.00,2013-10-19 09:32:00,
2013-10-19 05:33:00,43.8,41.1,29.84,WSW,248,0.0,4.0,90,0.00,,,0.00,VWS V14.00,2013-10-19 09:33:00,
2013-10-19 05:34:00,43.8,41.1,29.84,WSW,248,1.0,4.0,90,0.00,,,0.00,VWS V14.00,2013-10-19 09:34:00,
2013-10-19 05:35:00,43.8,41.1,29.84,WSW,248,0.0,4.0,90,0.00,,,0.00,VWS V14.00,2013-10-19 09:35:00,
2013-10-19 05:36:00,43.7,41.0,29.83,WSW,248,2.0,4.0,90,0.00,,,0.00,VWS V14.00,2013-10-19 09:36:00,
2013-10-19 05:37:00,43.8,41.1,29.84,WSW,248,0.0,4.0,90,0.00,,,0.00,VWS V14.00,2013-10-19 09:37:00,
2013-10-19 05:38:00,43.8,41.1,29.84,WSW,248,0.0,4.0,90,0.00,,,0.00,VWS V14.00,2013-10-19 09:38:00,
2013-10-19 05:39:00,43.8,41.1,29.84,WSW,248,0.0,4.0,90,0.00,,,0.00,VWS V14.00,2013-10-19 09:39:00,
2013-10-19 05:40:00,43.8,41.1,29.84,WSW,245,0.0,6.0,90,0.00,,,0.00,VWS V14.00,2013-10-19 09:40:00,
2013-10-19 05:41:00,43.8,41.1,29.83,WSW,248,2.0,4.0,90,0.00,,,0.00,VWS V14.00,2013-10-19 09:41:00,
2013-10-19 05:42:00,43.8,41.1,29.84,WSW,246,1.0,6.0,90,0.00,,,0.00,VWS V14.00,2013-10-19 09:42:00,
2013-10-19 05:43:00,43.8,41.1,29.84,WSW,246,2.0,6.0,90,0.00,,,0.00,VWS V14.00,2013-10-19 09:43:00,
2013-10-19 05:44:00,43.8,41.1,29.84,WSW,244,4.0,6.0,90,0.00,,,0.00,VWS V14.00,2013-10-19 09:44:00,
2013-10-19 05:45:00,43.8,41.1,29.84,WSW,244,3.0,6.0,90,0.00,,,0.00,VWS V14.00,2013-10-19 09:45:00,
2013-10-19 05:46:00,43.8,41.1,29.84,WSW,248,1.0,4.0,90,0.00,,,0.00,VWS V14.00,2013-10-19 09:46:00,
2013-10-19 05:47:00,43.8,41.1,29.84,WSW,244,0.0,6.0,90,0.00,,,0.00,VWS V14.00,2013-10-19 09:47:00,
2013-10-19 05:48:00,43.8,41.1,29.84,WSW,243,3.0,6.0,90,0.00,,,0.00,VWS V14.00,2013-10-19 09:48:00,
2013-10-19 05:49:00,43.8,41.1,29.84,WSW,244,5.0,6.0,90,0.00,,,0.00,VWS V14.00,2013-10-19 09:49:00,
2013-10-19 05:50:00,43.8,41.1,29.84,WSW,244,2.0,6.0,90,0.00,,,0.00,VWS V14.00,2013-10-19 09:50:00,
2013-10-19 05:51:00,43.8,41.1,29.84,WSW,246,0.0,6.0,90,0.00,,,0.00,VWS V14.00,2013-10-19 09:51:00,
2013-10-19 05:52:00,43.9,41.2,29.84,WSW,242,4.0,6.0,90,0.00,,,0.00,VWS V14.00,2013-10-19 09:52:00,
2013-10-19 05:53:00,43.9,41.2,29.85,WSW,242,3.0,6.0,90,0.00,,,0.00,VWS V14.00,2013-10-19 09:53:00,
2013-10-19 05:54:00,43.9,41.2,29.84,WSW,244,5.0,6.0,90,0.00,,,0.00,VWS V14.00,2013-10-19 09:54:00,
2013-10-19 05:55:00,43.9,41.2,29.85,WSW,242,0.0,6.0,90,0.00,,,0.00,VWS V14.00,2013-10-19 09:55:00,
2013-10-19 05:56:00,43.8,41.1,29.84,WSW,244,2.0,6.0,90,0.00,,,0.00,VWS V14.00,2013-10-19 09:56:00,
2013-10-19 05:57:00,43.9,41.2,29.84,WSW,242,3.0,6.0,90,0.00,,,0.00,VWS V14.00,2013-10-19 09:57:00,
2013-10-19 05:58:00,43.9,41.2,29.84,WSW,242,0.0,6.0,90,0.00,,,0.00,VWS V14.00,2013-10-19 09:58:00,
2013-10-19 05:59:00,43.9,41.2,29.84,WSW,242,2.0,6.0,90,0.00,,,0.00,VWS V14.00,2013-10-19 09:59:00,
2013-10-19 06:00:00,43.8,41.1,29.84,WSW,242,5.0,6.0,90,0.00,,,0.00,VWS V14.00,2013-10-19 10:00:00,
2013-10-19 06:01:00,43.9,41.2,29.84,WSW,242,0.0,4.0,90,0.00,,,0.00,VWS V14.00,2013-10-19 10:01:00,
2013-10-19 06:02:00,44.0,41.3,29.84,WSW,242,2.0,4.0,90,0.00,,,0.00,VWS V14.00,2013-10-19 10:02:00,
2013-10-19 06:03:00,43.9,41.2,29.84,WSW,242,3.0,4.0,90,0.00,,,0.00,VWS V14.00,2013-10-19 10:03:00,
2013-10-19 06:04:00,44.0,41.3,29.84,WSW,242,0.0,4.0,90,0.00,,,0.00,VWS V14.00,2013-10-19 10:04:00,
2013-10-19 06:05:00,44.0,41.3,29.84,WSW,242,1.0,4.0,90,0.00,,,0.00,VWS V14.00,2013-10-19 10:05:00,
2013-10-19 06:06:00,43.9,41.2,29.85,WSW,242,0.0,6.0,90,0.00,,,0.00,VWS V14.00,2013-10-19 10:06:00,
2013-10-19 06:07:00,44.0,41.3,29.84,WSW,242,0.0,4.0,90,0.00,,,0.00,VWS V14.00,2013-10-19 10:07:00,
2013-10-19 06:08:00,43.9,41.2,29.83,WSW,242,0.0,4.0,90,0.00,,,0.00,VWS V14.00,2013-10-19 10:08:00,
2013-10-19 06:09:00,44.0,41.3,29.83,WSW,241,4.0,5.0,90,0.00,,,0.00,VWS V14.00,2013-10-19 10:09:00,
2013-10-19 06:10:00,43.9,41.2,29.84,WSW,242,1.0,4.0,90,0.00,,,0.00,VWS V14.00,2013-10-19 10:10:00,
2013-10-19 06:11:00,44.0,41.0,29.83,WSW,242,1.0,5.0,89,0.00,,,0.00,VWS V14.00,2013-10-19 10:11:00,
2013-10-19 06:12:00,43.9,40.9,29.83,WSW,242,2.0,7.0,89,0.00,,,0.00,VWS V14.00,2013-10-19 10:12:00,
2013-10-19 06:13:00,44.0,41.0,29.83,WSW,239,0.0,7.0,89,0.00,,,0.00,VWS V14.00,2013-10-19 10:13:00,
2013-10-19 06:14:00,44.0,41.0,29.83,WSW,238,3.0,7.0,89,0.00,,,0.00,VWS V14.00,2013-10-19 10:14:00,
2013-10-19 06:15:00,44.0,41.0,29.83,WSW,239,0.0,7.0,89,0.00,,,0.00,VWS V14.00,2013-10-19 10:15:00,
2013-10-19 06:16:00,43.9,41.2,29.84,WSW,242,3.0,4.0,90,0.00,,,0.00,VWS V14.00,2013-10-19 10:16:00,
2013-10-19 06:17:00,43.9,40.9,29.83,WSW,238,0.0,7.0,89,0.00,,,0.00,VWS V14.00,2013-10-19 10:17:00,
2013-10-19 06:18:00,44.0,41.0,29.83,WSW,239,0.0,7.0,89,0.00,,,0.00,VWS V14.00,2013-10-19 10:18:00,
2013-10-19 06:19:00,44.0,41.0,29.83,WSW,239,0.0,7.0,89,0.00,,,0.00,VWS V14.00,2013-10-19 10:19:00,
2013-10-19 06:20:00,44.0,41.0,29.83,WSW,238,1.0,7.0,89,0.00,,,0.00,VWS V14.00,2013-10-19 10:20:00,
2013-10-19 06:21:00,44.0,41.0,29.83,WSW,241,4.0,5.0,89,0.00,,,0.00,VWS V14.00,2013-10-19 10:21:00,
2013-10-19 06:22:00,44.0,41.0,29.83,WSW,239,2.0,7.0,89,0.00,,,0.00,VWS V14.00,2013-10-19 10:22:00,
2013-10-19 06:23:00,44.0,41.0,29.83,WSW,238,0.0,7.0,89,0.00,,,0.00,VWS V14.00,2013-10-19 10:23:00,
2013-10-19 06:24:00,44.0,41.0,29.83,WSW,240,3.0,7.0,89,0.00,,,0.00,VWS V14.00,2013-10-19 10:24:00,
2013-10-19 06:25:00,44.0,41.0,29.83,WSW,240,5.0,7.0,89,0.00,,,0.00,VWS V14.00,2013-10-19 10:25:00,
2013-10-19 06:26:00,44.0,41.0,29.83,WSW,239,0.0,7.0,89,0.00,,,0.00,VWS V14.00,2013-10-19 10:26:00,
2013-10-19 06:27:00,44.0,41.0,29.83,WSW,244,0.0,7.0,89,0.00,,,0.00,VWS V14.00,2013-10-19 10:27:00,
2013-10-19 06:28:00,44.0,41.0,29.83,WSW,244,1.0,7.0,89,0.00,,,0.00,VWS V14.00,2013-10-19 10:28:00,
2013-10-19 06:29:00,44.0,41.0,29.82,WSW,244,3.0,7.0,89,0.00,,,0.00,VWS V14.00,2013-10-19 10:29:00,
2013-10-19 06:30:00,44.0,41.0,29.82,WSW,244,4.0,7.0,89,0.00,,,0.00,VWS V14.00,2013-10-19 10:30:00,
2013-10-19 06:31:00,44.0,41.0,29.83,WSW,238,3.0,7.0,89,0.00,,,0.00,VWS V14.00,2013-10-19 10:31:00,
2013-10-19 06:32:00,44.0,41.3,29.82,WSW,244,0.0,4.0,90,0.00,,,0.00,VWS V14.00,2013-10-19 10:32:00,
2013-10-19 06:33:00,44.0,41.3,29.82,WSW,244,0.0,4.0,90,0.00,,,0.00,VWS V14.00,2013-10-19 10:33:00,
2013-10-19 06:34:00,44.0,41.3,29.82,WSW,244,3.0,4.0,90,0.00,,,0.00,VWS V14.00,2013-10-19 10:34:00,
2013-10-19 06:35:00,44.0,41.3,29.82,WSW,244,0.0,4.0,90,0.00,,,0.00,VWS V14.00,2013-10-19 10:35:00,
2013-10-19 06:36:00,44.0,41.0,29.83,WSW,244,7.0,7.0,89,0.00,,,0.00,VWS V14.00,2013-10-19 10:36:00,
2013-10-19 06:37:00,44.0,41.3,29.82,WSW,244,0.0,4.0,90,0.00,,,0.00,VWS V14.00,2013-10-19 10:37:00,
2013-10-19 06:38:00,44.0,41.3,29.82,WSW,244,0.0,4.0,90,0.00,,,0.00,VWS V14.00,2013-10-19 10:38:00,
2013-10-19 06:39:00,44.0,41.3,29.82,WSW,244,0.0,4.0,90,0.00,,,0.00,VWS V14.00,2013-10-19 10:39:00,
2013-10-19 06:40:00,44.0,41.3,29.82,WSW,244,2.0,4.0,90,0.00,,,0.00,VWS V14.00,2013-10-19 10:40:00,
2013-10-19 06:41:00,44.0,41.3,29.82,WSW,244,0.0,4.0,90,0.00,,,0.00,VWS V14.00,2013-10-19 10:41:00,
2013-10-19 06:42:00,44.0,41.3,29.82,WSW,244,0.0,4.0,90,0.00,,,0.00,VWS V14.00,2013-10-19 10:42:00,
2013-10-19 06:43:00,44.0,41.3,29.82,WSW,244,0.0,4.0,90,0.00,,,0.00,VWS V14.00,2013-10-19 10:43:00,
2013-10-19 06:44:00,44.0,41.3,29.82,WSW,244,2.0,4.0,90,0.00,,,0.00,VWS V14.00,2013-10-19 10:44:00,
2013-10-19 06:45:00,44.1,41.4,29.82,WSW,244,0.0,4.0,90,0.00,,,0.00,VWS V14.00,2013-10-19 10:45:00,
2013-10-19 06:46:00,44.0,41.3,29.82,WSW,244,0.0,4.0,90,0.00,,,0.00,VWS V14.00,2013-10-19 10:46:00,
2013-10-19 06:47:00,44.1,41.4,29.82,WSW,243,3.0,4.0,90,0.00,,,0.00,VWS V14.00,2013-10-19 10:47:00,
2013-10-19 06:48:00,44.1,41.4,29.82,WSW,244,0.0,4.0,90,0.00,,,0.00,VWS V14.00,2013-10-19 10:48:00,
2013-10-19 06:49:00,44.1,41.4,29.82,WSW,242,0.0,4.0,90,0.00,,,0.00,VWS V14.00,2013-10-19 10:49:00,
2013-10-19 06:50:00,44.1,41.4,29.82,WSW,243,1.0,4.0,90,0.00,,,0.00,VWS V14.00,2013-10-19 10:50:00,
2013-10-19 06:51:00,44.0,41.3,29.82,WSW,244,2.0,4.0,90,0.00,,,0.00,VWS V14.00,2013-10-19 10:51:00,
2013-10-19 06:52:00,44.1,41.4,29.82,WSW,243,0.0,4.0,90,0.00,,,0.00,VWS V14.00,2013-10-19 10:52:00,
2013-10-19 06:53:00,44.2,41.5,29.82,WSW,243,0.0,4.0,90,0.00,,,0.00,VWS V14.00,2013-10-19 10:53:00,
2013-10-19 06:54:00,44.2,41.5,29.82,WSW,243,0.0,4.0,90,0.00,,,0.00,VWS V14.00,2013-10-19 10:54:00,
2013-10-19 06:55:00,44.2,41.5,29.82,WSW,243,0.0,4.0,90,0.00,,,0.00,VWS V14.00,2013-10-19 10:55:00,
2013-10-19 06:56:00,44.0,41.3,29.82,WSW,244,0.0,4.0,90,0.00,,,0.00,VWS V14.00,2013-10-19 10:56:00,
2013-10-19 06:57:00,44.2,41.5,29.82,WSW,243,1.0,4.0,90,0.00,,,0.00,VWS V14.00,2013-10-19 10:57:00,
2013-10-19 06:58:00,44.2,41.5,29.82,WSW,242,0.0,4.0,90,0.00,,,0.00,VWS V14.00,2013-10-19 10:58:00,
2013-10-19 06:59:00,44.2,41.5,29.82,WSW,244,0.0,4.0,90,0.00,,,0.00,VWS V14.00,2013-10-19 10:59:00,
2013-10-19 07:00:00,44.2,41.5,29.82,WSW,244,0.0,4.0,90,0.00,,,0.00,VWS V14.00,2013-10-19 11:00:00,
2013-10-19 07:01:00,44.1,41.4,29.82,WSW,243,0.0,4.0,90,0.00,,,0.00,VWS V14.00,2013-10-19 11:01:00,
2013-10-19 07:02:00,44.3,41.6,29.82,WSW,243,0.0,0.0,90,0.00,,,0.00,VWS V14.00,2013-10-19 11:02:00,
2013-10-19 07:03:00,44.3,41.6,29.82,WSW,243,0.0,0.0,90,0.00,,,0.00,VWS V14.00,2013-10-19 11:03:00,
2013-10-19 07:04:00,44.3,41.6,29.82,WSW,243,0.0,0.0,90,0.00,,,0.00,VWS V14.00,2013-10-19 11:04:00,
2013-10-19 07:05:00,44.3,41.6,29.82,WSW,242,0.0,0.0,90,0.00,,,0.00,VWS V14.00,2013-10-19 11:05:00,
2013-10-19 07:06:00,44.2,41.5,29.82,WSW,243,0.0,4.0,90,0.00,,,0.00,VWS V14.00,2013-10-19 11:06:00,
2013-10-19 07:07:00,44.3,41.6,29.82,WSW,244,0.0,0.0,90,0.00,,,0.00,VWS V14.00,2013-10-19 11:07:00,
2013-10-19 07:08:00,44.3,41.6,29.82,WSW,243,0.0,0.0,90,0.00,,,0.00,VWS V14.00,2013-10-19 11:08:00,
2013-10-19 07:09:00,44.3,41.6,29.81,WSW,243,0.0,0.0,90,0.00,,,0.00,VWS V14.00,2013-10-19 11:09:00,
2013-10-19 07:10:00,44.3,41.6,29.81,WSW,243,0.0,0.0,90,0.00,,,0.00,VWS V14.00,2013-10-19 11:10:00,
2013-10-19 07:11:00,44.2,41.5,29.82,WSW,242,0.0,0.0,90,0.00,,,0.00,VWS V14.00,2013-10-19 11:11:00,
2013-10-19 07:12:00,44.3,41.6,29.81,WSW,242,0.0,0.0,90,0.00,,,0.00,VWS V14.00,2013-10-19 11:12:00,
2013-10-19 07:13:00,44.3,41.8,29.81,WSW,243,0.0,0.0,91,0.00,,,0.00,VWS V14.00,2013-10-19 11:13:00,
2013-10-19 07:14:00,44.3,41.8,29.81,WSW,242,0.0,0.0,91,0.00,,,0.00,VWS V14.00,2013-10-19 11:14:00,
2013-10-19 07:15:00,44.3,41.8,29.81,WSW,243,0.0,0.0,91,0.00,,,0.00,VWS V14.00,2013-10-19 11:15:00,
2013-10-19 07:16:00,44.3,41.6,29.82,WSW,242,0.0,0.0,90,0.00,,,0.00,VWS V14.00,2013-10-19 11:16:00,
2013-10-19 07:17:00,44.3,41.8,29.81,WSW,243,0.0,0.0,91,0.00,,,0.00,VWS V14.00,2013-10-19 11:17:00,
2013-10-19 07:18:00,44.2,41.7,29.81,WSW,243,0.0,0.0,91,0.00,,,0.00,VWS V14.00,2013-10-19 11:18:00,
2013-10-19 07:19:00,44.3,41.8,29.81,WSW,242,0.0,0.0,91,0.00,,,0.00,VWS V14.00,2013-10-19 11:19:00,
2013-10-19 07:20:00,44.2,41.7,29.81,WSW,242,0.0,0.0,91,0.00,,,0.00,VWS V14.00,2013-10-19 11:20:00,
2013-10-19 07:21:00,44.3,41.6,29.81,WSW,243,0.0,0.0,90,0.00,,,0.00,VWS V14.00,2013-10-19 11:21:00,
2013-10-19 07:22:00,44.2,41.7,29.81,WSW,243,0.0,0.0,91,0.00,,,0.00,VWS V14.00,2013-10-19 11:22:00,
2013-10-19 07:23:00,44.2,41.7,29.81,WSW,243,0.0,0.0,91,0.00,,,0.00,VWS V14.00,2013-10-19 11:23:00,
2013-10-19 07:24:00,44.2,41.7,29.81,WSW,242,0.0,0.0,91,0.00,,,0.00,VWS V14.00,2013-10-19 11:24:00,
2013-10-19 07:25:00,44.2,41.7,29.81,WSW,242,2.0,2.0,91,0.00,,,0.00,VWS V14.00,2013-10-19 11:25:00,
2013-10-19 07:26:00,44.3,41.8,29.81,WSW,243,0.0,0.0,91,0.00,,,0.00,VWS V14.00,2013-10-19 11:26:00,
2013-10-19 07:27:00,44.2,41.7,29.81,WSW,243,0.0,2.0,91,0.00,,,0.00,VWS V14.00,2013-10-19 11:27:00,
2013-10-19 07:28:00,44.1,41.7,29.81,WSW,243,0.0,2.0,91,0.00,,,0.00,VWS V14.00,2013-10-19 11:28:00,
2013-10-19 07:29:00,44.2,41.7,29.81,WSW,243,0.0,2.0,91,0.00,,,0.00,VWS V14.00,2013-10-19 11:29:00,
2013-10-19 07:30:00,44.2,41.7,29.81,WSW,242,0.0,2.0,91,0.00,,,0.01,VWS V14.00,2013-10-19 11:30:00,
2013-10-19 07:31:00,44.2,41.7,29.81,WSW,242,0.0,0.0,91,0.00,,,0.00,VWS V14.00,2013-10-19 11:31:00,
2013-10-19 07:32:00,44.1,41.7,29.82,WSW,242,0.0,0.0,91,0.00,,,0.01,VWS V14.00,2013-10-19 11:32:00,
2013-10-19 07:33:00,44.1,41.9,29.82,WSW,242,0.0,0.0,92,0.00,,,0.01,VWS V14.00,2013-10-19 11:33:00,
2013-10-19 07:34:00,44.1,41.9,29.82,WSW,243,0.0,0.0,92,0.00,,,0.01,VWS V14.00,2013-10-19 11:34:00,
2013-10-19 07:35:00,44.1,41.9,29.81,WSW,243,0.0,0.0,92,0.00,,,0.01,VWS V14.00,2013-10-19 11:35:00,
2013-10-19 07:36:00,44.2,41.7,29.81,WSW,243,0.0,2.0,91,0.00,,,0.00,VWS V14.00,2013-10-19 11:36:00,
2013-10-19 07:37:00,44.1,41.9,29.82,WSW,243,0.0,0.0,92,0.00,,,0.01,VWS V14.00,2013-10-19 11:37:00,
2013-10-19 07:38:00,44.1,41.9,29.82,WSW,243,0.0,0.0,92,0.00,,,0.01,VWS V14.00,2013-10-19 11:38:00,
2013-10-19 07:39:00,44.1,41.9,29.82,WSW,242,0.0,0.0,92,0.00,,,0.01,VWS V14.00,2013-10-19 11:39:00,
2013-10-19 07:40:00,44.1,41.9,29.82,WSW,243,0.0,0.0,92,0.00,,,0.01,VWS V14.00,2013-10-19 11:40:00,
2013-10-19 07:41:00,44.1,41.7,29.82,WSW,242,0.0,0.0,91,0.00,,,0.01,VWS V14.00,2013-10-19 11:41:00,
2013-10-19 07:42:00,44.1,41.9,29.81,WSW,242,0.0,0.0,92,0.00,,,0.01,VWS V14.00,2013-10-19 11:42:00,
2013-10-19 07:43:00,44.1,41.9,29.81,WSW,243,0.0,0.0,92,0.00,,,0.01,VWS V14.00,2013-10-19 11:43:00,
2013-10-19 07:44:00,44.0,41.8,29.81,WSW,243,0.0,0.0,92,0.00,,,0.01,VWS V14.00,2013-10-19 11:44:00,
2013-10-19 07:45:00,44.0,41.8,29.81,WSW,242,0.0,0.0,92,0.00,,,0.01,VWS V14.00,2013-10-19 11:45:00,
2013-10-19 07:46:00,44.1,41.9,29.81,WSW,243,0.0,0.0,92,0.00,,,0.01,VWS V14.00,2013-10-19 11:46:00,
2013-10-19 07:47:00,44.0,41.8,29.81,WSW,243,0.0,0.0,92,0.00,,,0.01,VWS V14.00,2013-10-19 11:47:00,
2013-10-19 07:48:00,44.0,41.8,29.81,WSW,243,0.0,0.0,92,0.00,,,0.01,VWS V14.00,2013-10-19 11:48:00,
2013-10-19 07:49:00,44.0,42.1,29.81,WSW,243,0.0,0.0,93,0.00,,,0.01,VWS V14.00,2013-10-19 11:49:00,
2013-10-19 07:50:00,44.0,42.1,29.81,WSW,244,0.0,0.0,93,0.00,,,0.01,VWS V14.00,2013-10-19 11:50:00,
2013-10-19 07:51:00,44.1,41.9,29.82,WSW,243,0.0,0.0,92,0.00,,,0.01,VWS V14.00,2013-10-19 11:51:00,
2013-10-19 07:52:00,44.0,42.1,29.81,WSW,243,0.0,1.0,93,0.00,,,0.01,VWS V14.00,2013-10-19 11:52:00,
2013-10-19 07:53:00,44.0,42.1,29.81,WSW,242,0.0,1.0,93,0.00,,,0.01,VWS V14.00,2013-10-19 11:53:00,
2013-10-19 07:54:00,44.0,42.1,29.81,WSW,242,1.0,2.0,93,0.00,,,0.02,VWS V14.00,2013-10-19 11:54:00,
2013-10-19 07:55:00,43.9,42.0,29.81,WSW,242,2.0,2.0,93,0.00,,,0.02,VWS V14.00,2013-10-19 11:55:00,
2013-10-19 07:56:00,44.0,41.8,29.81,WSW,243,0.0,0.0,92,0.00,,,0.01,VWS V14.00,2013-10-19 11:56:00,
2013-10-19 07:57:00,43.9,42.0,29.81,WSW,243,0.0,2.0,93,0.00,,,0.02,VWS V14.00,2013-10-19 11:57:00,
2013-10-19 07:58:00,43.9,42.0,29.81,WSW,243,0.0,2.0,93,0.00,,,0.02,VWS V14.00,2013-10-19 11:58:00,
2013-10-19 07:59:00,43.9,42.0,29.81,WSW,243,0.0,2.0,93,0.00,,,0.02,VWS V14.00,2013-10-19 11:59:00,
2013-10-19 08:00:00,43.9,42.0,29.81,WSW,242,0.0,2.0,93,0.00,,,0.02,VWS V14.00,2013-10-19 12:00:00,
2013-10-19 08:01:00,44.0,42.1,29.81,WSW,242,0.0,0.0,93,0.00,,,0.01,VWS V14.00,2013-10-19 12:01:00,
2013-10-19 08:02:00,43.8,41.9,29.81,WSW,243,0.0,0.0,93,0.00,,,0.02,VWS V14.00,2013-10-19 12:02:00,
2013-10-19 08:03:00,43.8,41.9,29.81,WSW,243,0.0,0.0,93,0.00,,,0.02,VWS V14.00,2013-10-19 12:03:00,
2013-10-19 08:04:00,43.8,42.2,29.81,WSW,243,0.0,0.0,94,0.00,,,0.02,VWS V14.00,2013-10-19 12:04:00,
2013-10-19 08:05:00,43.8,42.2,29.81,WSW,243,0.0,1.0,94,0.00,,,0.02,VWS V14.00,2013-10-19 12:05:00,
2013-10-19 08:06:00,43.9,42.0,29.81,WSW,243,1.0,2.0,93,0.00,,,0.02,VWS V14.00,2013-10-19 12:06:00,
2013-10-19 08:07:00,43.7,42.1,29.81,WSW,242,0.0,1.0,94,0.00,,,0.02,VWS V14.00,2013-10-19 12:07:00,
2013-10-19 08:08:00,43.7,42.1,29.81,WSW,243,1.0,1.0,94,0.00,,,0.02,VWS V14.00,2013-10-19 12:08:00,
2013-10-19 08:09:00,43.7,42.1,29.81,WSW,243,0.0,1.0,94,0.00,,,0.02,VWS V14.00,2013-10-19 12:09:00,
2013-10-19 08:10:00,43.8,41.9,29.81,WSW,242,0.0,0.0,93,0.00,,,0.02,VWS V14.00,2013-10-19 12:10:00,
2013-10-19 08:11:00,43.7,42.1,29.81,WSW,244,0.0,1.0,94,0.00,,,0.02,VWS V14.00,2013-10-19 12:11:00,
2013-10-19 08:12:00,43.7,42.1,29.81,WSW,243,1.0,2.0,94,0.00,,,0.02,VWS V14.00,2013-10-19 12:12:00,
2013-10-19 08:13:00,43.7,42.1,29.81,WSW,242,0.0,2.0,94,0.00,,,0.02,VWS V14.00,2013-10-19 12:13:00,
2013-10-19 08:14:00,43.7,42.1,29.81,WSW,242,0.0,2.0,94,0.00,,,0.02,VWS V14.00,2013-10-19 12:14:00,
2013-10-19 08:15:00,43.6,42.0,29.81,WSW,243,0.0,2.0,94,0.00,,,0.02,VWS V14.00,2013-10-19 12:15:00,
2013-10-19 08:16:00,43.8,42.2,29.81,WSW,243,0.0,1.0,94,0.00,,,0.02,VWS V14.00,2013-10-19 12:16:00,
2013-10-19 08:17:00,43.7,42.1,29.81,WSW,243,0.0,2.0,94,0.00,,,0.03,VWS V14.00,2013-10-19 12:17:00,
2013-10-19 08:18:00,43.6,42.3,29.81,WSW,242,0.0,2.0,95,0.00,,,0.03,VWS V14.00,2013-10-19 12:18:00,
2013-10-19 08:19:00,43.6,42.3,29.81,WSW,242,0.0,2.0,95,0.00,,,0.03,VWS V14.00,2013-10-19 12:19:00,
2013-10-19 08:20:00,43.6,42.3,29.81,WSW,242,0.0,2.0,95,0.00,,,0.03,VWS V14.00,2013-10-19 12:20:00,
2013-10-19 08:21:00,43.7,42.1,29.81,WSW,243,0.0,1.0,94,0.00,,,0.02,VWS V14.00,2013-10-19 12:21:00,
2013-10-19 08:22:00,43.6,42.3,29.81,WSW,243,0.0,2.0,95,0.00,,,0.03,VWS V14.00,2013-10-19 12:22:00,
2013-10-19 08:23:00,43.6,42.3,29.81,WSW,242,0.0,2.0,95,0.00,,,0.03,VWS V14.00,2013-10-19 12:23:00,
2013-10-19 08:24:00,43.6,42.3,29.81,WSW,244,0.0,2.0,95,0.00,,,0.03,VWS V14.00,2013-10-19 12:24:00,
2013-10-19 08:25:00,43.6,42.3,29.81,WSW,243,0.0,2.0,95,0.00,,,0.03,VWS V14.00,2013-10-19 12:25:00,
2013-10-19 08:26:00,43.6,42.0,29.81,WSW,243,0.0,2.0,94,0.00,,,0.02,VWS V14.00,2013-10-19 12:26:00,
2013-10-19 08:27:00,43.6,42.3,29.81,WSW,242,0.0,2.0,95,0.00,,,0.03,VWS V14.00,2013-10-19 12:27:00,
2013-10-19 08:28:00,43.6,42.3,29.81,WSW,243,1.0,3.0,95,0.00,,,0.03,VWS V14.00,2013-10-19 12:28:00,
2013-10-19 08:29:00,43.6,42.3,29.81,WSW,242,0.0,3.0,95,0.00,,,0.03,VWS V14.00,2013-10-19 12:29:00,
2013-10-19 08:30:00,43.6,42.3,29.81,WSW,243,0.0,3.0,95,0.00,,,0.03,VWS V14.00,2013-10-19 12:30:00,
2013-10-19 08:31:00,43.6,42.3,29.81,WSW,242,0.0,2.0,95,0.00,,,0.03,VWS V14.00,2013-10-19 12:31:00,
2013-10-19 08:32:00,43.6,42.3,29.81,WSW,244,3.0,3.0,95,0.00,,,0.03,VWS V14.00,2013-10-19 12:32:00,
2013-10-19 08:33:00,43.5,42.2,29.81,WSW,243,0.0,3.0,95,0.00,,,0.03,VWS V14.00,2013-10-19 12:33:00,
2013-10-19 08:34:00,43.5,42.2,29.81,WSW,242,0.0,3.0,95,0.00,,,0.03,VWS V14.00,2013-10-19 12:34:00,
2013-10-19 08:35:00,43.5,42.2,29.81,WSW,243,0.0,3.0,95,0.00,,,0.03,VWS V14.00,2013-10-19 12:35:00,
2013-10-19 08:36:00,43.6,42.3,29.81,WSW,243,0.0,2.0,95,0.00,,,0.03,VWS V14.00,2013-10-19 12:36:00,
2013-10-19 08:37:00,43.5,42.2,29.81,WSW,244,2.0,3.0,95,0.00,,,0.03,VWS V14.00,2013-10-19 12:37:00,
2013-10-19 08:38:00,43.5,42.2,29.81,WSW,243,1.0,3.0,95,0.00,,,0.03,VWS V14.00,2013-10-19 12:38:00,
2013-10-19 08:39:00,43.5,42.2,29.81,WSW,243,2.0,3.0,95,0.00,,,0.03,VWS V14.00,2013-10-19 12:39:00,
2013-10-19 08:40:00,43.5,42.2,29.81,WSW,243,0.0,3.0,95,0.00,,,0.03,VWS V14.00,2013-10-19 12:40:00,
2013-10-19 08:41:00,43.6,42.3,29.81,WSW,243,0.0,2.0,95,0.00,,,0.03,VWS V14.00,2013-10-19 12:41:00,
2013-10-19 08:42:00,43.5,42.2,29.81,WSW,244,2.0,4.0,95,0.00,,,0.03,VWS V14.00,2013-10-19 12:42:00,
2013-10-19 08:43:00,43.5,42.2,29.81,WSW,244,4.0,5.0,95,0.00,,,0.03,VWS V14.00,2013-10-19 12:43:00,
2013-10-19 08:44:00,43.5,42.2,29.81,WSW,244,0.0,5.0,95,0.00,,,0.03,VWS V14.00,2013-10-19 12:44:00,
2013-10-19 08:45:00,43.5,42.2,29.81,WSW,244,1.0,5.0,95,0.00,,,0.03,VWS V14.00,2013-10-19 12:45:00,
2013-10-19 08:46:00,43.5,42.2,29.81,WSW,242,0.0,3.0,95,0.00,,,0.03,VWS V14.00,2013-10-19 12:46:00,
2013-10-19 08:47:00,43.5,42.4,29.81,WSW,244,0.0,5.0,96,0.00,,,0.03,VWS V14.00,2013-10-19 12:47:00,
2013-10-19 08:48:00,43.5,42.2,29.81,WSW,244,0.0,5.0,95,0.00,,,0.03,VWS V14.00,2013-10-19 12:48:00,
2013-10-19 08:49:00,43.5,42.2,29.81,WSW,244,0.0,5.0,95,0.00,,,0.03,VWS V14.00,2013-10-19 12:49:00,
2013-10-19 08:50:00,43.5,42.2,29.81,WSW,244,0.0,5.0,95,0.00,,,0.03,VWS V14.00,2013-10-19 12:50:00,
2013-10-19 08:51:00,43.5,42.2,29.81,WSW,244,0.0,3.0,95,0.00,,,0.03,VWS V14.00,2013-10-19 12:51:00,
2013-10-19 08:52:00,43.5,42.2,29.81,WSW,245,0.0,5.0,95,0.00,,,0.03,VWS V14.00,2013-10-19 12:52:00,
2013-10-19 08:53:00,43.5,42.4,29.82,WSW,245,0.0,5.0,96,0.00,,,0.03,VWS V14.00,2013-10-19 12:53:00,
2013-10-19 08:54:00,43.5,42.4,29.82,WSW,245,0.0,5.0,96,0.00,,,0.03,VWS V14.00,2013-10-19 12:54:00,
2013-10-19 08:55:00,43.5,42.4,29.82,WSW,245,0.0,5.0,96,0.00,,,0.03,VWS V14.00,2013-10-19 12:55:00,
2013-10-19 08:56:00,43.4,42.1,29.81,WSW,244,3.0,5.0,95,0.00,,,0.03,VWS V14.00,2013-10-19 12:56:00,
2013-10-19 08:57:00,43.6,42.5,29.82,WSW,246,2.0,6.0,96,0.00,,,0.04,VWS V14.00,2013-10-19 12:57:00,
2013-10-19 08:58:00,43.5,42.4,29.82,WSW,246,0.0,6.0,96,0.00,,,0.04,VWS V14.00,2013-10-19 12:58:00,
2013-10-19 08:59:00,43.6,42.5,29.82,WSW,246,0.0,6.0,96,0.00,,,0.04,VWS V14.00,2013-10-19 12:59:00,
2013-10-19 09:00:00,43.5,42.4,29.82,WSW,245,0.0,6.0,96,0.00,,,0.04,VWS V14.00,2013-10-19 13:00:00,
2013-10-19 09:01:00,43.5,42.2,29.81,WSW,244,0.0,5.0,95,0.00,,,0.03,VWS V14.00,2013-10-19 13:01:00,
2013-10-19 09:02:00,43.6,42.5,29.82,WSW,246,0.0,5.0,96,0.00,,,0.04,VWS V14.00,2013-10-19 13:02:00,
2013-10-19 09:03:00,43.6,42.5,29.82,WSW,246,2.0,5.0,96,0.00,,,0.04,VWS V14.00,2013-10-19 13:03:00,
2013-10-19 09:04:00,43.6,42.5,29.82,WSW,246,0.0,5.0,96,0.00,,,0.04,VWS V14.00,2013-10-19 13:04:00,
2013-10-19 09:05:00,43.6,42.5,29.81,WSW,245,0.0,5.0,96,0.00,,,0.04,VWS V14.00,2013-10-19 13:05:00,
2013-10-19 09:06:00,43.5,42.4,29.82,WSW,245,0.0,5.0,96,0.00,,,0.04,VWS V14.00,2013-10-19 13:06:00,
2013-10-19 09:07:00,43.6,42.5,29.81,WSW,246,0.0,5.0,96,0.00,,,0.04,VWS V14.00,2013-10-19 13:07:00,
2013-10-19 09:08:00,43.6,42.5,29.81,WSW,245,0.0,5.0,96,0.00,,,0.04,VWS V14.00,2013-10-19 13:08:00,
2013-10-19 09:09:00,43.6,42.5,29.81,WSW,245,0.0,5.0,96,0.00,,,0.04,VWS V14.00,2013-10-19 13:09:00,
2013-10-19 09:10:00,43.6,42.5,29.81,WSW,245,0.0,5.0,96,0.00,,,0.04,VWS V14.00,2013-10-19 13:10:00,
2013-10-19 09:11:00,43.6,42.5,29.82,WSW,245,4.0,4.0,96,0.00,,,0.04,VWS V14.00,2013-10-19 13:11:00,
2013-10-19 09:12:00,43.6,42.5,29.81,WSW,246,0.0,5.0,96,0.00,,,0.04,VWS V14.00,2013-10-19 13:12:00,
2013-10-19 09:13:00,43.6,42.5,29.81,WSW,246,1.0,5.0,96,0.00,,,0.04,VWS V14.00,2013-10-19 13:13:00,
2013-10-19 09:14:00,43.7,42.6,29.81,WSW,246,3.0,5.0,96,0.00,,,0.04,VWS V14.00,2013-10-19 13:14:00,
2013-10-19 09:15:00,43.7,42.6,29.81,WSW,246,4.0,5.0,96,0.00,,,0.04,VWS V14.00,2013-10-19 13:15:00,
2013-10-19 09:16:00,43.6,42.5,29.81,WSW,246,2.0,5.0,96,0.00,,,0.04,VWS V14.00,2013-10-19 13:16:00,
2013-10-19 09:17:00,43.7,42.6,29.81,WSW,246,0.0,5.0,96,0.00,,,0.04,VWS V14.00,2013-10-19 13:17:00,
2013-10-19 09:18:00,43.7,42.6,29.81,WSW,246,0.0,5.0,96,0.00,,,0.04,VWS V14.00,2013-10-19 13:18:00,
2013-10-19 09:19:00,43.7,42.6,29.81,WSW,246,0.0,5.0,96,0.00,,,0.04,VWS V14.00,2013-10-19 13:19:00,
2013-10-19 09:20:00,43.7,42.6,29.81,WSW,244,0.0,5.0,96,0.00,,,0.04,VWS V14.00,2013-10-19 13:20:00,
2013-10-19 09:21:00,43.6,42.5,29.81,WSW,245,0.0,5.0,96,0.00,,,0.04,VWS V14.00,2013-10-19 13:21:00,
2013-10-19 09:22:00,43.7,42.6,29.81,WSW,244,2.0,5.0,96,0.00,,,0.04,VWS V14.00,2013-10-19 13:22:00,
2013-10-19 09:23:00,43.7,42.6,29.81,WSW,244,1.0,5.0,96,0.00,,,0.04,VWS V14.00,2013-10-19 13:23:00,
2013-10-19 09:24:00,43.7,42.6,29.81,WSW,244,0.0,5.0,96,0.00,,,0.04,VWS V14.00,2013-10-19 13:24:00,
2013-10-19 09:25:00,43.8,42.7,29.81,WSW,244,0.0,5.0,96,0.00,,,0.04,VWS V14.00,2013-10-19 13:25:00,
2013-10-19 09:26:00,43.7,42.6,29.81,WSW,246,2.0,5.0,96,0.00,,,0.04,VWS V14.00,2013-10-19 13:26:00,
2013-10-19 09:27:00,43.7,42.6,29.81,WSW,244,3.0,5.0,96,0.00,,,0.04,VWS V14.00,2013-10-19 13:27:00,
2013-10-19 09:28:00,43.7,42.6,29.81,WSW,244,0.0,5.0,96,0.00,,,0.04,VWS V14.00,2013-10-19 13:28:00,
2013-10-19 09:29:00,43.8,42.7,29.81,WSW,244,0.0,5.0,96,0.00,,,0.04,VWS V14.00,2013-10-19 13:29:00,
2013-10-19 09:30:00,43.7,42.6,29.81,WSW,244,0.0,5.0,96,0.00,,,0.04,VWS V14.00,2013-10-19 13:30:00,
2013-10-19 09:31:00,43.7,42.6,29.81,WSW,244,0.0,5.0,96,0.00,,,0.04,VWS V14.00,2013-10-19 13:31:00,
2013-10-19 09:32:00,43.8,42.7,29.81,WSW,244,1.0,3.0,96,0.00,,,0.04,VWS V14.00,2013-10-19 13:32:00,
2013-10-19 09:33:00,43.7,42.6,29.81,WSW,244,2.0,4.0,96,0.00,,,0.04,VWS V14.00,2013-10-19 13:33:00,
2013-10-19 09:34:00,43.8,42.7,29.81,WSW,244,0.0,4.0,96,0.00,,,0.04,VWS V14.00,2013-10-19 13:34:00,
2013-10-19 09:35:00,43.8,42.7,29.81,WSW,244,0.0,4.0,96,0.00,,,0.04,VWS V14.00,2013-10-19 13:35:00,
2013-10-19 09:36:00,43.7,42.6,29.81,WSW,244,0.0,5.0,96,0.00,,,0.04,VWS V14.00,2013-10-19 13:36:00,
2013-10-19 09:37:00,43.8,42.7,29.81,WSW,244,2.0,4.0,96,0.00,,,0.04,VWS V14.00,2013-10-19 13:37:00,
2013-10-19 09:38:00,43.8,42.7,29.81,WSW,244,1.0,4.0,96,0.00,,,0.04,VWS V14.00,2013-10-19 13:38:00,
2013-10-19 09:39:00,43.8,42.7,29.81,WSW,244,0.0,4.0,96,0.00,,,0.04,VWS V14.00,2013-10-19 13:39:00,
2013-10-19 09:40:00,43.8,43.0,29.81,WSW,244,0.0,4.0,97,0.00,,,0.04,VWS V14.00,2013-10-19 13:40:00,
2013-10-19 09:41:00,43.8,42.7,29.81,WSW,244,0.0,0.0,96,0.00,,,0.04,VWS V14.00,2013-10-19 13:41:00,
2013-10-19 09:42:00,43.8,43.0,29.81,WSW,244,0.0,4.0,97,0.00,,,0.04,VWS V14.00,2013-10-19 13:42:00,
2013-10-19 09:43:00,43.8,43.0,29.81,WSW,244,0.0,4.0,97,0.00,,,0.04,VWS V14.00,2013-10-19 13:43:00,
2013-10-19 09:44:00,43.8,43.0,29.81,WSW,244,0.0,4.0,97,0.00,,,0.05,VWS V14.00,2013-10-19 13:44:00,
2013-10-19 09:45:00,43.9,43.1,29.81,WSW,244,0.0,4.0,97,0.00,,,0.05,VWS V14.00,2013-10-19 13:45:00,
2013-10-19 09:46:00,43.8,42.7,29.81,WSW,244,0.0,4.0,96,0.00,,,0.04,VWS V14.00,2013-10-19 13:46:00,
2013-10-19 09:47:00,43.9,43.1,29.81,WSW,244,2.0,4.0,97,0.00,,,0.05,VWS V14.00,2013-10-19 13:47:00,
2013-10-19 09:48:00,43.9,43.1,29.80,WSW,244,0.0,4.0,97,0.00,,,0.05,VWS V14.00,2013-10-19 13:48:00,
2013-10-19 09:49:00,43.9,43.1,29.80,WSW,244,0.0,4.0,97,0.00,,,0.05,VWS V14.00,2013-10-19 13:49:00,
2013-10-19 09:50:00,43.9,43.1,29.80,WSW,244,4.0,4.0,97,0.00,,,0.05,VWS V14.00,2013-10-19 13:50:00,
2013-10-19 09:51:00,43.8,43.0,29.81,WSW,244,0.0,4.0,97,0.00,,,0.04,VWS V14.00,2013-10-19 13:51:00,
2013-10-19 09:52:00,43.9,43.1,29.80,WSW,244,0.0,4.0,97,0.00,,,0.05,VWS V14.00,2013-10-19 13:52:00,
2013-10-19 09:53:00,43.9,43.1,29.80,WSW,244,0.0,4.0,97,0.00,,,0.05,VWS V14.00,2013-10-19 13:53:00,
2013-10-19 09:54:00,43.9,43.1,29.80,WSW,244,2.0,4.0,97,0.00,,,0.05,VWS V14.00,2013-10-19 13:54:00,
2013-10-19 09:55:00,43.9,43.1,29.80,WSW,244,1.0,4.0,97,0.00,,,0.05,VWS V14.00,2013-10-19 13:55:00,
2013-10-19 09:56:00,43.8,43.0,29.81,WSW,244,2.0,4.0,97,0.00,,,0.05,VWS V14.00,2013-10-19 13:56:00,
2013-10-19 09:57:00,43.9,43.1,29.80,WSW,244,0.0,4.0,97,0.00,,,0.05,VWS V14.00,2013-10-19 13:57:00,
2013-10-19 09:58:00,43.9,43.1,29.80,WSW,244,3.0,4.0,97,0.00,,,0.05,VWS V14.00,2013-10-19 13:58:00,
2013-10-19 09:59:00,43.9,43.1,29.80,WSW,244,0.0,4.0,97,0.00,,,0.05,VWS V14.00,2013-10-19 13:59:00,
2013-10-19 10:00:00,43.9,43.1,29.80,WSW,244,0.0,4.0,97,0.00,,,0.05,VWS V14.00,2013-10-19 14:00:00,
2013-10-19 10:01:00,43.9,43.1,29.80,WSW,244,2.0,4.0,97,0.00,,,0.05,VWS V14.00,2013-10-19 14:01:00,
2013-10-19 10:02:00,43.9,43.1,29.80,WSW,244,0.0,2.0,97,0.04,,,0.06,VWS V14.00,2013-10-19 14:02:00,
2013-10-19 10:03:00,43.9,43.1,29.80,WSW,244,0.0,2.0,97,0.04,,,0.06,VWS V14.00,2013-10-19 14:03:00,
2013-10-19 10:04:00,44.0,43.2,29.80,WSW,244,0.0,2.0,97,0.04,,,0.06,VWS V14.00,2013-10-19 14:04:00,
2013-10-19 10:05:00,44.0,43.2,29.80,WSW,244,2.0,2.0,97,0.04,,,0.06,VWS V14.00,2013-10-19 14:05:00,
2013-10-19 10:06:00,43.9,43.1,29.80,WSW,244,1.0,4.0,97,0.00,,,0.05,VWS V14.00,2013-10-19 14:06:00,
2013-10-19 10:07:00,43.9,43.1,29.80,WSW,244,3.0,4.0,97,0.04,,,0.06,VWS V14.00,2013-10-19 14:07:00,
2013-10-19 10:08:00,44.0,43.2,29.80,WSW,244,1.0,4.0,97,0.04,,,0.06,VWS V14.00,2013-10-19 14:08:00,
2013-10-19 10:09:00,44.0,43.2,29.80,WSW,244,0.0,4.0,97,0.04,,,0.06,VWS V14.00,2013-10-19 14:09:00,
2013-10-19 10:10:00,44.0,43.2,29.80,WSW,244,1.0,4.0,97,0.04,,,0.06,VWS V14.00,2013-10-19 14:10:00,
2013-10-19 10:11:00,43.9,43.1,29.80,WSW,244,0.0,0.0,97,0.04,,,0.06,VWS V14.00,2013-10-19 14:11:00,
2013-10-19 10:12:00,44.0,43.2,29.80,WSW,244,0.0,4.0,97,0.04,,,0.06,VWS V14.00,2013-10-19 14:12:00,
2013-10-19 10:13:00,44.0,43.2,29.80,WSW,244,0.0,4.0,97,0.04,,,0.07,VWS V14.00,2013-10-19 14:13:00,
2013-10-19 10:14:00,44.0,43.2,29.80,WSW,244,1.0,4.0,97,0.05,,,0.07,VWS V14.00,2013-10-19 14:14:00,
2013-10-19 10:15:00,44.0,43.2,29.80,WSW,244,0.0,4.0,97,0.05,,,0.07,VWS V14.00,2013-10-19 14:15:00,
2013-10-19 10:16:00,44.0,43.2,29.80,WSW,244,0.0,2.0,97,0.04,,,0.06,VWS V14.00,2013-10-19 14:16:00,
2013-10-19 10:17:00,44.0,43.2,29.80,WSW,244,6.0,6.0,97,0.05,,,0.07,VWS V14.00,2013-10-19 14:17:00,
2013-10-19 10:18:00,44.0,43.2,29.80,WSW,244,2.0,6.0,97,0.05,,,0.07,VWS V14.00,2013-10-19 14:18:00,
2013-10-19 10:19:00,44.0,43.2,29.80,WSW,244,2.0,6.0,97,0.05,,,0.07,VWS V14.00,2013-10-19 14:19:00,
2013-10-19 10:20:00,43.9,43.1,29.80,WSW,244,2.0,6.0,97,0.05,,,0.07,VWS V14.00,2013-10-19 14:20:00,
2013-10-19 10:21:00,44.0,43.2,29.80,WSW,244,0.0,4.0,97,0.04,,,0.06,VWS V14.00,2013-10-19 14:21:00,
2013-10-19 10:22:00,44.0,43.2,29.80,WSW,244,3.0,6.0,97,0.05,,,0.07,VWS V14.00,2013-10-19 14:22:00,
2013-10-19 10:23:00,44.0,43.2,29.80,WSW,244,0.0,6.0,97,0.05,,,0.07,VWS V14.00,2013-10-19 14:23:00,
2013-10-19 10:24:00,44.0,43.2,29.80,WSW,244,3.0,6.0,97,0.05,,,0.07,VWS V14.00,2013-10-19 14:24:00,
2013-10-19 10:25:00,44.0,43.2,29.80,WSW,244,0.0,6.0,97,0.05,,,0.07,VWS V14.00,2013-10-19 14:25:00,
2013-10-19 10:26:00,44.0,43.2,29.80,WSW,244,4.0,4.0,97,0.05,,,0.07,VWS V14.00,2013-10-19 14:26:00,
2013-10-19 10:27:00,44.0,43.2,29.80,WSW,244,3.0,6.0,97,0.04,,,0.08,VWS V14.00,2013-10-19 14:27:00,
2013-10-19 10:28:00,44.0,43.2,29.80,WSW,244,0.0,6.0,97,0.04,,,0.08,VWS V14.00,2013-10-19 14:28:00,
2013-10-19 10:29:00,44.0,43.2,29.80,WSW,244,0.0,6.0,97,0.04,,,0.08,VWS V14.00,2013-10-19 14:29:00,
2013-10-19 10:30:00,44.0,43.2,29.80,WSW,244,0.0,6.0,97,0.04,,,0.08,VWS V14.00,2013-10-19 14:30:00,
2013-10-19 10:31:00,44.0,43.2,29.80,WSW,244,3.0,6.0,97,0.05,,,0.07,VWS V14.00,2013-10-19 14:31:00,
2013-10-19 10:32:00,44.1,43.3,29.80,WSW,244,2.0,3.0,97,0.04,,,0.08,VWS V14.00,2013-10-19 14:32:00,
2013-10-19 10:33:00,44.1,43.3,29.80,WSW,244,0.0,3.0,97,0.04,,,0.08,VWS V14.00,2013-10-19 14:33:00,
2013-10-19 10:34:00,44.1,43.3,29.80,WSW,244,1.0,3.0,97,0.04,,,0.08,VWS V14.00,2013-10-19 14:34:00,
2013-10-19 10:35:00,44.1,43.3,29.80,WSW,245,4.0,5.0,97,0.04,,,0.08,VWS V14.00,2013-10-19 14:35:00,
2013-10-19 10:36:00,44.0,43.2,29.80,WSW,244,1.0,6.0,97,0.05,,,0.07,VWS V14.00,2013-10-19 14:36:00,
2013-10-19 10:37:00,44.1,43.3,29.80,WSW,245,3.0,5.0,97,0.04,,,0.08,VWS V14.00,2013-10-19 14:37:00,
2013-10-19 10:38:00,44.1,43.3,29.80,WSW,245,5.0,5.0,97,0.04,,,0.08,VWS V14.00,2013-10-19 14:38:00,
2013-10-19 10:39:00,44.1,43.3,29.81,WSW,242,3.0,6.0,97,0.04,,,0.08,VWS V14.00,2013-10-19 14:39:00,
2013-10-19 10:40:00,44.1,43.3,29.81,WSW,242,4.0,6.0,97,0.04,,,0.08,VWS V14.00,2013-10-19 14:40:00,
2013-10-19 10:41:00,44.0,43.2,29.80,WSW,244,2.0,2.0,97,0.04,,,0.08,VWS V14.00,2013-10-19 14:41:00,
2013-10-19 10:42:00,44.1,43.3,29.80,WSW,242,0.0,6.0,97,0.04,,,0.09,VWS V14.00,2013-10-19 14:42:00,
2013-10-19 10:43:00,44.1,43.3,29.80,WSW,242,2.0,6.0,97,0.04,,,0.09,VWS V14.00,2013-10-19 14:43:00,
2013-10-19 10:44:00,44.1,43.3,29.80,WSW,242,0.0,6.0,97,0.04,,,0.09,VWS V14.00,2013-10-19 14:44:00,
2013-10-19 10:45:00,44.1,43.3,29.80,WSW,242,2.0,6.0,97,0.04,,,0.09,VWS V14.00,2013-10-19 14:45:00,
2013-10-19 10:46:00,44.1,43.3,29.80,WSW,245,3.0,5.0,97,0.04,,,0.08,VWS V14.00,2013-10-19 14:46:00,
2013-10-19 10:47:00,44.2,43.4,29.81,WSW,245,2.0,6.0,97,0.04,,,0.09,VWS V14.00,2013-10-19 14:47:00,
2013-10-19 10:48:00,44.2,43.4,29.80,WSW,245,3.0,6.0,97,0.04,,,0.09,VWS V14.00,2013-10-19 14:48:00,
2013-10-19 10:49:00,44.2,43.4,29.80,WSW,245,0.0,6.0,97,0.04,,,0.09,VWS V14.00,2013-10-19 14:49:00,
2013-10-19 10:50:00,44.2,43.4,29.80,WSW,248,0.0,6.0,97,0.04,,,0.09,VWS V14.00,2013-10-19 14:50:00,
2013-10-19 10:51:00,44.1,43.3,29.81,WSW,242,1.0,6.0,97,0.04,,,0.08,VWS V14.00,2013-10-19 14:51:00,
2013-10-19 10:52:00,44.2,43.4,29.81,WSW,245,3.0,6.0,97,0.04,,,0.09,VWS V14.00,2013-10-19 14:52:00,
2013-10-19 10:53:00,44.2,43.4,29.81,WSW,245,3.0,6.0,97,0.06,,,0.10,VWS V14.00,2013-10-19 14:53:00,
2013-10-19 10:54:00,44.2,43.4,29.81,WSW,245,0.0,6.0,97,0.06,,,0.10,VWS V14.00,2013-10-19 14:54:00,
2013-10-19 10:55:00,44.2,43.4,29.81,WSW,246,2.0,6.0,97,0.06,,,0.10,VWS V14.00,2013-10-19 14:55:00,
2013-10-19 10:56:00,44.1,43.3,29.80,WSW,242,3.0,6.0,97,0.04,,,0.09,VWS V14.00,2013-10-19 14:56:00,
2013-10-19 10:57:00,44.2,43.4,29.81,WSW,245,0.0,6.0,97,0.06,,,0.10,VWS V14.00,2013-10-19 14:57:00,
2013-10-19 10:58:00,44.2,43.4,29.81,WSW,245,3.0,6.0,97,0.06,,,0.10,VWS V14.00,2013-10-19 14:58:00,
2013-10-19 10:59:00,44.2,43.4,29.81,WSW,246,4.0,6.0,97,0.06,,,0.10,VWS V14.00,2013-10-19 14:59:00,
2013-10-19 11:00:00,44.2,43.4,29.81,WSW,246,4.0,6.0,97,0.06,,,0.10,VWS V14.00,2013-10-19 15:00:00,
2013-10-19 11:01:00,44.2,43.4,29.80,WSW,248,1.0,6.0,97,0.04,,,0.09,VWS V14.00,2013-10-19 15:01:00,
2013-10-19 11:02:00,44.2,43.4,29.81,WSW,246,3.0,5.0,97,0.06,,,0.10,VWS V14.00,2013-10-19 15:02:00,
2013-10-19 11:03:00,44.2,43.4,29.81,WSW,247,2.0,5.0,97,0.06,,,0.10,VWS V14.00,2013-10-19 15:03:00,
2013-10-19 11:04:00,44.2,43.4,29.81,WSW,249,0.0,5.0,97,0.05,,,0.10,VWS V14.00,2013-10-19 15:04:00,
2013-10-19 11:05:00,44.2,43.4,29.81,WSW,250,0.0,5.0,97,0.05,,,0.10,VWS V14.00,2013-10-19 15:05:00,
2013-10-19 11:06:00,44.2,43.4,29.81,WSW,245,2.0,6.0,97,0.06,,,0.10,VWS V14.00,2013-10-19 15:06:00,
2013-10-19 11:07:00,44.2,43.4,29.81,WSW,249,0.0,5.0,97,0.04,,,0.11,VWS V14.00,2013-10-19 15:07:00,
2013-10-19 11:08:00,44.2,43.4,29.80,WSW,249,2.0,5.0,97,0.04,,,0.11,VWS V14.00,2013-10-19 15:08:00,
2013-10-19 11:09:00,44.2,43.4,29.80,WSW,241,3.0,6.0,97,0.04,,,0.11,VWS V14.00,2013-10-19 15:09:00,
2013-10-19 11:10:00,44.1,43.3,29.80,WSW,241,4.0,6.0,97,0.04,,,0.11,VWS V14.00,2013-10-19 15:10:00,
2013-10-19 11:11:00,44.2,43.4,29.81,WSW,246,0.0,5.0,97,0.06,,,0.10,VWS V14.00,2013-10-19 15:11:00,
2013-10-19 11:12:00,44.1,43.3,29.81,WSW,243,3.0,6.0,97,0.04,,,0.11,VWS V14.00,2013-10-19 15:12:00,
2013-10-19 11:13:00,44.1,43.3,29.81,WSW,242,5.0,6.0,97,0.04,,,0.11,VWS V14.00,2013-10-19 15:13:00,
2013-10-19 11:14:00,44.1,43.3,29.81,WSW,243,2.0,6.0,97,0.04,,,0.11,VWS V14.00,2013-10-19 15:14:00,
2013-10-19 11:15:00,44.1,43.3,29.81,WSW,244,1.0,6.0,97,0.04,,,0.11,VWS V14.00,2013-10-19 15:15:00,
2013-10-19 11:16:00,44.2,43.4,29.81,WSW,250,4.0,5.0,97,0.04,,,0.10,VWS V14.00,2013-10-19 15:16:00,
2013-10-19 11:17:00,44.1,43.3,29.81,WSW,243,3.0,6.0,97,0.04,,,0.11,VWS V14.00,2013-10-19 15:17:00,
2013-10-19 11:18:00,44.1,43.3,29.81,WSW,242,2.0,6.0,97,0.04,,,0.11,VWS V14.00,2013-10-19 15:18:00,
2013-10-19 11:19:00,44.1,43.3,29.81,WSW,242,3.0,6.0,97,0.05,,,0.12,VWS V14.00,2013-10-19 15:19:00,
2013-10-19 11:20:00,44.1,43.3,29.80,WSW,242,0.0,6.0,97,0.05,,,0.12,VWS V14.00,2013-10-19 15:20:00,
2013-10-19 11:21:00,44.1,43.3,29.80,WSW,241,4.0,6.0,97,0.04,,,0.11,VWS V14.00,2013-10-19 15:21:00,
2013-10-19 11:22:00,44.1,43.3,29.80,WSW,243,0.0,6.0,97,0.05,,,0.12,VWS V14.00,2013-10-19 15:22:00,
2013-10-19 11:23:00,44.1,43.3,29.81,WSW,242,3.0,6.0,97,0.05,,,0.12,VWS V14.00,2013-10-19 15:23:00,
2013-10-19 11:24:00,44.1,43.3,29.81,WSW,242,2.0,6.0,97,0.05,,,0.12,VWS V14.00,2013-10-19 15:24:00,
2013-10-19 11:25:00,44.1,43.3,29.80,WSW,242,1.0,6.0,97,0.05,,,0.12,VWS V14.00,2013-10-19 15:25:00,
2013-10-19 11:26:00,44.1,43.3,29.81,WSW,244,1.0,6.0,97,0.04,,,0.11,VWS V14.00,2013-10-19 15:26:00,
2013-10-19 11:27:00,44.1,43.3,29.80,WSW,242,3.0,6.0,97,0.05,,,0.12,VWS V14.00,2013-10-19 15:27:00,
2013-10-19 11:28:00,44.1,43.3,29.80,WSW,242,3.0,6.0,97,0.05,,,0.12,VWS V14.00,2013-10-19 15:28:00,
2013-10-19 11:29:00,44.1,43.3,29.80,WSW,242,3.0,6.0,97,0.05,,,0.12,VWS V14.00,2013-10-19 15:29:00,
2013-10-19 11:30:00,44.1,43.3,29.80,WSW,242,0.0,6.0,97,0.06,,,0.12,VWS V14.00,2013-10-19 15:30:00,
2013-10-19 11:31:00,44.1,43.3,29.80,WSW,243,0.0,6.0,97,0.05,,,0.12,VWS V14.00,2013-10-19 15:31:00,
2013-10-19 11:32:00,44.2,43.4,29.80,WSW,242,4.0,4.0,97,0.06,,,0.13,VWS V14.00,2013-10-19 15:32:00,
2013-10-19 11:33:00,44.2,43.4,29.80,WSW,242,2.0,4.0,97,0.06,,,0.13,VWS V14.00,2013-10-19 15:33:00,
2013-10-19 11:34:00,44.1,43.3,29.80,WSW,242,1.0,4.0,97,0.06,,,0.13,VWS V14.00,2013-10-19 15:34:00,
2013-10-19 11:35:00,44.2,43.4,29.80,WSW,241,3.0,7.0,97,0.06,,,0.13,VWS V14.00,2013-10-19 15:35:00,
2013-10-19 11:36:00,44.1,43.3,29.80,WSW,242,0.0,6.0,97,0.05,,,0.12,VWS V14.00,2013-10-19 15:36:00,
2013-10-19 11:37:00,44.1,43.3,29.80,WSW,241,3.0,7.0,97,0.06,,,0.13,VWS V14.00,2013-10-19 15:37:00,
2013-10-19 11:38:00,44.1,43.3,29.80,WSW,241,2.0,7.0,97,0.06,,,0.13,VWS V14.00,2013-10-19 15:38:00,
2013-10-19 11:39:00,44.1,43.3,29.80,WSW,241,0.0,7.0,97,0.06,,,0.13,VWS V14.00,2013-10-19 15:39:00,
2013-10-19 11:40:00,44.1,43.3,29.80,WSW,241,2.0,7.0,97,0.06,,,0.14,VWS V14.00,2013-10-19 15:40:00,
2013-10-19 11:41:00,44.1,43.3,29.80,WSW,242,0.0,1.0,97,0.06,,,0.13,VWS V14.00,2013-10-19 15:41:00,
2013-10-19 11:42:00,44.0,43.2,29.80,WSW,238,2.0,7.0,97,0.06,,,0.14,VWS V14.00,2013-10-19 15:42:00,
2013-10-19 11:43:00,44.0,43.2,29.80,WSW,239,3.0,7.0,97,0.06,,,0.14,VWS V14.00,2013-10-19 15:43:00,
2013-10-19 11:44:00,44.0,43.2,29.79,WSW,238,2.0,7.0,97,0.06,,,0.14,VWS V14.00,2013-10-19 15:44:00,
2013-10-19 11:45:00,43.9,43.1,29.79,WSW,240,3.0,7.0,97,0.06,,,0.14,VWS V14.00,2013-10-19 15:45:00,
2013-10-19 11:46:00,44.2,43.4,29.80,WSW,241,4.0,7.0,97,0.06,,,0.13,VWS V14.00,2013-10-19 15:46:00,
2013-10-19 11:47:00,43.9,43.1,29.79,SW,234,4.0,7.0,97,0.06,,,0.14,VWS V14.00,2013-10-19 15:47:00,
2013-10-19 11:48:00,43.8,43.0,29.79,WSW,244,3.0,7.0,97,0.06,,,0.14,VWS V14.00,2013-10-19 15:48:00,
2013-10-19 11:49:00,43.8,43.0,29.79,WSW,241,2.0,7.0,97,0.06,,,0.14,VWS V14.00,2013-10-19 15:49:00,
2013-10-19 11:50:00,43.8,43.0,29.79,WSW,242,0.0,7.0,97,0.06,,,0.14,VWS V14.00,2013-10-19 15:50:00,
2013-10-19 11:51:00,44.1,43.3,29.80,WSW,241,4.0,7.0,97,0.06,,,0.14,VWS V14.00,2013-10-19 15:51:00,
2013-10-19 11:52:00,43.7,42.9,29.79,WSW,241,0.0,7.0,97,0.05,,,0.14,VWS V14.00,2013-10-19 15:52:00,
2013-10-19 11:53:00,43.7,42.9,29.79,WSW,242,0.0,7.0,97,0.05,,,0.14,VWS V14.00,2013-10-19 15:53:00,
2013-10-19 11:54:00,43.7,42.9,29.79,WSW,241,0.0,7.0,97,0.04,,,0.14,VWS V14.00,2013-10-19 15:54:00,
2013-10-19 11:55:00,43.7,42.9,29.79,WSW,248,6.0,7.0,97,0.04,,,0.15,VWS V14.00,2013-10-19 15:55:00,
2013-10-19 11:56:00,43.9,43.1,29.79,WSW,241,4.0,7.0,97,0.06,,,0.14,VWS V14.00,2013-10-19 15:56:00,
2013-10-19 11:57:00,43.7,42.9,29.79,WSW,244,5.0,7.0,97,0.04,,,0.15,VWS V14.00,2013-10-19 15:57:00,
2013-10-19 11:58:00,43.7,42.9,29.79,WSW,244,1.0,7.0,97,0.04,,,0.15,VWS V14.00,2013-10-19 15:58:00,
2013-10-19 11:59:00,43.7,42.9,29.79,WSW,243,4.0,7.0,97,0.04,,,0.15,VWS V14.00,2013-10-19 15:59:00,
2013-10-19 12:00:00,43.7,42.9,29.79,WSW,242,3.0,7.0,97,0.04,,,0.15,VWS V14.00,2013-10-19 16:00:00,
2013-10-19 12:01:00,43.7,42.9,29.79,WSW,242,0.0,7.0,97,0.06,,,0.14,VWS V14.00,2013-10-19 16:01:00,
2013-10-19 12:02:00,43.7,42.9,29.79,WSW,242,7.0,7.0,97,0.04,,,0.15,VWS V14.00,2013-10-19 16:02:00,
2013-10-19 12:03:00,43.7,42.9,29.79,SW,223,3.0,9.0,97,0.04,,,0.15,VWS V14.00,2013-10-19 16:03:00,
2013-10-19 12:04:00,43.7,42.9,29.79,SW,223,3.0,9.0,97,0.04,,,0.15,VWS V14.00,2013-10-19 16:04:00,
2013-10-19 12:05:00,43.7,42.9,29.79,SW,236,0.0,9.0,97,0.04,,,0.15,VWS V14.00,2013-10-19 16:05:00,
2013-10-19 12:06:00,43.7,42.9,29.79,WSW,248,2.0,7.0,97,0.04,,,0.15,VWS V14.00,2013-10-19 16:06:00,
2013-10-19 12:07:00,43.7,42.9,29.78,SW,236,3.0,9.0,97,0.04,,,0.15,VWS V14.00,2013-10-19 16:07:00,
2013-10-19 12:08:00,43.7,42.9,29.79,SW,230,2.0,9.0,97,0.04,,,0.15,VWS V14.00,2013-10-19 16:08:00,
2013-10-19 12:09:00,43.7,42.9,29.79,SW,230,3.0,9.0,97,0.04,,,0.15,VWS V14.00,2013-10-19 16:09:00,
2013-10-19 12:10:00,43.7,42.9,29.79,SW,230,2.0,9.0,97,0.04,,,0.16,VWS V14.00,2013-10-19 16:10:00,
2013-10-19 12:11:00,43.7,42.9,29.79,WSW,243,1.0,4.0,97,0.04,,,0.15,VWS V14.00,2013-10-19 16:11:00,
2013-10-19 12:12:00,43.8,43.0,29.79,SW,227,2.0,9.0,97,0.04,,,0.16,VWS V14.00,2013-10-19 16:12:00,
2013-10-19 12:13:00,43.8,43.0,29.79,SW,227,0.0,9.0,97,0.04,,,0.16,VWS V14.00,2013-10-19 16:13:00,
2013-10-19 12:14:00,43.8,43.0,29.79,SW,227,3.0,9.0,97,0.04,,,0.16,VWS V14.00,2013-10-19 16:14:00,
2013-10-19 12:15:00,43.8,43.0,29.79,SW,227,0.0,9.0,97,0.04,,,0.16,VWS V14.00,2013-10-19 16:15:00,
2013-10-19 12:16:00,43.7,42.9,29.79,SW,236,2.0,9.0,97,0.04,,,0.15,VWS V14.00,2013-10-19 16:16:00,
2013-10-19 12:17:00,43.9,43.1,29.79,SW,227,4.0,9.0,97,0.04,,,0.16,VWS V14.00,2013-10-19 16:17:00,
2013-10-19 12:18:00,43.9,43.1,29.79,SW,228,3.0,9.0,97,0.04,,,0.16,VWS V14.00,2013-10-19 16:18:00,
2013-10-19 12:19:00,43.9,43.1,29.79,SW,227,0.0,9.0,97,0.04,,,0.16,VWS V14.00,2013-10-19 16:19:00,
2013-10-19 12:20:00,43.9,43.1,29.79,SW,227,2.0,9.0,97,0.04,,,0.16,VWS V14.00,2013-10-19 16:20:00,
2013-10-19 12:21:00,43.7,42.9,29.79,SW,230,2.0,9.0,97,0.04,,,0.16,VWS V14.00,2013-10-19 16:21:00,
2013-10-19 12:22:00,43.9,43.1,29.79,WSW,238,3.0,9.0,97,0.04,,,0.16,VWS V14.00,2013-10-19 16:22:00,
2013-10-19 12:23:00,43.9,42.8,29.79,WSW,238,0.0,9.0,96,0.04,,,0.16,VWS V14.00,2013-10-19 16:23:00,
2013-10-19 12:24:00,43.9,42.8,29.79,WSW,238,1.0,9.0,96,0.04,,,0.16,VWS V14.00,2013-10-19 16:24:00,
2013-10-19 12:25:00,43.9,43.1,29.79,SW,236,3.0,9.0,97,0.04,,,0.16,VWS V14.00,2013-10-19 16:25:00,
2013-10-19 12:26:00,43.8,43.0,29.79,SW,227,0.0,9.0,97,0.04,,,0.16,VWS V14.00,2013-10-19 16:26:00,
2013-10-19 12:27:00,43.9,43.1,29.78,SW,236,0.0,9.0,97,0.00,,,0.16,VWS V14.00,2013-10-19 16:27:00,
2013-10-19 12:28:00,43.9,43.1,29.79,SW,236,0.0,9.0,97,0.00,,,0.16,VWS V14.00,2013-10-19 16:28:00,
2013-10-19 12:29:00,43.9,43.1,29.78,WSW,242,3.0,9.0,97,0.00,,,0.16,VWS V14.00,2013-10-19 16:29:00,
2013-10-19 12:30:00,43.9,43.1,29.78,WSW,242,0.0,9.0,97,0.00,,,0.16,VWS V14.00,2013-10-19 16:30:00,
2013-10-19 12:31:00,43.9,43.1,29.79,SW,226,5.0,9.0,97,0.04,,,0.16,VWS V14.00,2013-10-19 16:31:00,
2013-10-19 12:32:00,43.9,42.8,29.78,WSW,244,2.0,4.0,96,0.00,,,0.16,VWS V14.00,2013-10-19 16:32:00,
2013-10-19 12:33:00,43.9,42.8,29.79,WSW,244,0.0,4.0,96,0.00,,,0.16,VWS V14.00,2013-10-19 16:33:00,
2013-10-19 12:34:00,43.9,42.8,29.78,WSW,244,1.0,4.0,96,0.00,,,0.16,VWS V14.00,2013-10-19 16:34:00,
2013-10-19 12:35:00,43.9,42.8,29.78,WSW,244,0.0,4.0,96,0.00,,,0.16,VWS V14.00,2013-10-19 16:35:00,
2013-10-19 12:36:00,43.9,43.1,29.79,SW,236,2.0,9.0,97,0.04,,,0.16,VWS V14.00,2013-10-19 16:36:00,
2013-10-19 12:37:00,43.9,42.8,29.78,WSW,239,1.0,6.0,96,0.00,,,0.16,VWS V14.00,2013-10-19 16:37:00,
2013-10-19 12:38:00,43.8,42.7,29.78,WSW,239,2.0,6.0,96,0.00,,,0.16,VWS V14.00,2013-10-19 16:38:00,
2013-10-19 12:39:00,43.8,42.7,29.78,WSW,239,2.0,6.0,96,0.00,,,0.16,VWS V14.00,2013-10-19 16:39:00,
2013-10-19 12:40:00,43.8,42.7,29.78,WSW,239,2.0,6.0,96,0.00,,,0.16,VWS V14.00,2013-10-19 16:40:00,
2013-10-19 12:41:00,43.9,43.1,29.79,WSW,242,3.0,4.0,97,0.00,,,0.16,VWS V14.00,2013-10-19 16:41:00,
2013-10-19 12:42:00,43.8,42.7,29.78,WSW,238,6.0,6.0,96,0.00,,,0.16,VWS V14.00,2013-10-19 16:42:00,
2013-10-19 12:43:00,43.8,42.7,29.78,WSW,239,3.0,6.0,96,0.00,,,0.16,VWS V14.00,2013-10-19 16:43:00,
2013-10-19 12:44:00,43.9,42.8,29.78,WSW,239,0.0,6.0,96,0.00,,,0.17,VWS V14.00,2013-10-19 16:44:00,
2013-10-19 12:45:00,43.9,42.8,29.78,WSW,239,3.0,6.0,96,0.00,,,0.17,VWS V14.00,2013-10-19 16:45:00,
2013-10-19 12:46:00,43.9,42.8,29.78,WSW,244,4.0,4.0,96,0.00,,,0.16,VWS V14.00,2013-10-19 16:46:00,
2013-10-19 12:47:00,43.9,42.8,29.78,WSW,239,3.0,6.0,96,0.00,,,0.17,VWS V14.00,2013-10-19 16:47:00,
2013-10-19 12:48:00,43.9,42.8,29.78,WSW,238,0.0,6.0,96,0.00,,,0.17,VWS V14.00,2013-10-19 16:48:00,
2013-10-19 12:49:00,44.0,42.9,29.78,WSW,239,0.0,6.0,96,0.00,,,0.17,VWS V14.00,2013-10-19 16:49:00,
2013-10-19 12:50:00,44.0,42.9,29.78,WSW,239,0.0,6.0,96,0.00,,,0.17,VWS V14.00,2013-10-19 16:50:00,
2013-10-19 12:51:00,43.8,42.7,29.78,WSW,239,1.0,6.0,96,0.00,,,0.16,VWS V14.00,2013-10-19 16:51:00,
2013-10-19 12:52:00,44.1,43.0,29.78,WSW,239,2.0,6.0,96,0.00,,,0.17,VWS V14.00,2013-10-19 16:52:00,
2013-10-19 12:53:00,44.2,43.1,29.78,WSW,238,0.0,6.0,96,0.00,,,0.17,VWS V14.00,2013-10-19 16:53:00,
2013-10-19 12:54:00,44.2,43.1,29.77,WSW,238,0.0,6.0,96,0.00,,,0.17,VWS V14.00,2013-10-19 16:54:00,
2013-10-19 12:55:00,44.2,43.1,29.77,WSW,239,0.0,6.0,96,0.00,,,0.17,VWS V14.00,2013-10-19 16:55:00,
2013-10-19 12:56:00,43.9,42.8,29.78,WSW,238,0.0,6.0,96,0.00,,,0.17,VWS V14.00,2013-10-19 16:56:00,
2013-10-19 12:57:00,44.2,43.1,29.77,WSW,238,1.0,6.0,96,0.00,,,0.17,VWS V14.00,2013-10-19 16:57:00,
2013-10-19 12:58:00,44.2,43.1,29.77,WSW,240,4.0,6.0,96,0.00,,,0.18,VWS V14.00,2013-10-19 16:58:00,
2013-10-19 12:59:00,44.2,43.1,29.77,WSW,242,0.0,6.0,96,0.04,,,0.18,VWS V14.00,2013-10-19 16:59:00,
2013-10-19 13:00:00,44.2,43.1,29.77,WSW,241,1.0,6.0,96,0.04,,,0.18,VWS V14.00,2013-10-19 17:00:00,
2013-10-19 13:01:00,44.0,42.9,29.78,WSW,239,0.0,6.0,96,0.00,,,0.17,VWS V14.00,2013-10-19 17:01:00,
2013-10-19 13:02:00,44.2,43.1,29.77,WSW,242,0.0,5.0,96,0.04,,,0.18,VWS V14.00,2013-10-19 17:02:00,
2013-10-19 13:03:00,44.3,43.2,29.77,WSW,242,3.0,5.0,96,0.04,,,0.18,VWS V14.00,2013-10-19 17:03:00,
2013-10-19 13:04:00,44.3,43.2,29.77,WSW,242,4.0,5.0,96,0.04,,,0.18,VWS V14.00,2013-10-19 17:04:00,
2013-10-19 13:05:00,44.4,43.3,29.77,WSW,241,3.0,5.0,96,0.04,,,0.18,VWS V14.00,2013-10-19 17:05:00,
2013-10-19 13:06:00,44.2,43.1,29.77,WSW,239,4.0,6.0,96,0.00,,,0.17,VWS V14.00,2013-10-19 17:06:00,
2013-10-19 13:07:00,44.5,43.4,29.77,WSW,241,0.0,5.0,96,0.04,,,0.18,VWS V14.00,2013-10-19 17:07:00,
2013-10-19 13:08:00,44.6,43.8,29.76,WSW,242,0.0,5.0,97,0.04,,,0.18,VWS V14.00,2013-10-19 17:08:00,
2013-10-19 13:09:00,44.6,43.8,29.76,WSW,242,1.0,5.0,97,0.04,,,0.18,VWS V14.00,2013-10-19 17:09:00,
2013-10-19 13:10:00,44.7,43.9,29.76,WSW,241,4.0,5.0,97,0.04,,,0.18,VWS V14.00,2013-10-19 17:10:00,
2013-10-19 13:11:00,44.2,43.1,29.77,WSW,242,2.0,2.0,96,0.04,,,0.18,VWS V14.00,2013-10-19 17:11:00,
2013-10-19 13:12:00,44.8,44.0,29.77,WSW,242,2.0,5.0,97,0.04,,,0.18,VWS V14.00,2013-10-19 17:12:00,
2013-10-19 13:13:00,44.8,44.0,29.77,WSW,244,2.0,6.0,97,0.04,,,0.18,VWS V14.00,2013-10-19 17:13:00,
2013-10-19 13:14:00,44.9,44.1,29.77,WSW,244,0.0,6.0,97,0.04,,,0.18,VWS V14.00,2013-10-19 17:14:00,
2013-10-19 13:15:00,44.9,44.1,29.77,WSW,240,2.0,6.0,97,0.04,,,0.18,VWS V14.00,2013-10-19 17:15:00,
2013-10-19 13:16:00,44.4,43.3,29.77,WSW,242,4.0,5.0,96,0.04,,,0.18,VWS V14.00,2013-10-19 17:16:00,
2013-10-19 13:17:00,44.9,43.8,29.76,WSW,241,3.0,6.0,96,0.00,,,0.18,VWS V14.00,2013-10-19 17:17:00,
2013-10-19 13:18:00,44.9,43.8,29.76,WSW,240,4.0,6.0,96,0.00,,,0.18,VWS V14.00,2013-10-19 17:18:00,
2013-10-19 13:19:00,44.8,43.7,29.76,WSW,240,3.0,6.0,96,0.00,,,0.18,VWS V14.00,2013-10-19 17:19:00,
2013-10-19 13:20:00,44.8,43.7,29.76,WSW,238,3.0,6.0,96,0.00,,,0.18,VWS V14.00,2013-10-19 17:20:00,
2013-10-19 13:21:00,44.7,43.9,29.76,WSW,241,2.0,5.0,97,0.04,,,0.18,VWS V14.00,2013-10-19 17:21:00,
2013-10-19 13:22:00,44.7,43.6,29.76,West,264,3.0,6.0,96,0.00,,,0.18,VWS V14.00,2013-10-19 17:22:00,
2013-10-19 13:23:00,44.7,43.6,29.76,West,264,5.0,6.0,96,0.00,,,0.18,VWS V14.00,2013-10-19 17:23:00,
2013-10-19 13:24:00,44.7,43.6,29.76,SW,234,6.0,9.0,96,0.00,,,0.18,VWS V14.00,2013-10-19 17:24:00,
2013-10-19 13:25:00,44.7,43.6,29.76,SW,226,4.0,9.0,96,0.00,,,0.18,VWS V14.00,2013-10-19 17:25:00,
2013-10-19 13:26:00,44.9,44.1,29.77,WSW,240,5.0,6.0,97,0.04,,,0.18,VWS V14.00,2013-10-19 17:26:00,
2013-10-19 13:27:00,44.7,43.6,29.76,SW,227,1.0,9.0,96,0.00,,,0.18,VWS V14.00,2013-10-19 17:27:00,
2013-10-19 13:28:00,44.7,43.6,29.76,SW,234,4.0,9.0,96,0.00,,,0.18,VWS V14.00,2013-10-19 17:28:00,
2013-10-19 13:29:00,44.7,43.6,29.76,WSW,244,3.0,9.0,96,0.00,,,0.18,VWS V14.00,2013-10-19 17:29:00,
2013-10-19 13:30:00,44.7,43.6,29.76,WSW,244,0.0,9.0,96,0.00,,,0.18,VWS V14.00,2013-10-19 17:30:00,
2013-10-19 13:31:00,44.8,43.7,29.76,WSW,237,5.0,6.0,96,0.00,,,0.18,VWS V14.00,2013-10-19 17:31:00,
2013-10-19 13:32:00,44.6,43.5,29.76,WSW,242,5.0,9.0,96,0.00,,,0.18,VWS V14.00,2013-10-19 17:32:00,
2013-10-19 13:33:00,44.6,43.5,29.76,WSW,241,4.0,9.0,96,0.00,,,0.18,VWS V14.00,2013-10-19 17:33:00,
2013-10-19 13:34:00,44.6,43.5,29.76,WSW,248,5.0,9.0,96,0.00,,,0.18,VWS V14.00,2013-10-19 17:34:00,
2013-10-19 13:35:00,44.6,43.5,29.76,WSW,248,0.0,9.0,96,0.00,,,0.18,VWS V14.00,2013-10-19 17:35:00,
2013-10-19 13:36:00,44.7,43.6,29.76,SW,227,3.0,9.0,96,0.00,,,0.18,VWS V14.00,2013-10-19 17:36:00,
2013-10-19 13:37:00,44.6,43.5,29.76,SW,232,4.0,10.0,96,0.00,,,0.18,VWS V14.00,2013-10-19 17:37:00,
2013-10-19 13:38:00,44.6,43.5,29.76,WSW,240,0.0,10.0,96,0.00,,,0.18,VWS V14.00,2013-10-19 17:38:00,
2013-10-19 13:39:00,44.6,43.5,29.76,WSW,240,3.0,10.0,96,0.00,,,0.18,VWS V14.00,2013-10-19 17:39:00,
2013-10-19 13:40:00,44.6,43.5,29.76,WSW,240,4.0,10.0,96,0.00,,,0.18,VWS V14.00,2013-10-19 17:40:00,
2013-10-19 13:41:00,44.7,43.6,29.76,WSW,244,4.0,9.0,96,0.00,,,0.18,VWS V14.00,2013-10-19 17:41:00,
2013-10-19 13:42:00,44.7,43.6,29.76,WSW,248,3.0,10.0,96,0.00,,,0.18,VWS V14.00,2013-10-19 17:42:00,
2013-10-19 13:43:00,44.7,43.6,29.76,WSW,248,2.0,10.0,96,0.00,,,0.18,VWS V14.00,2013-10-19 17:43:00,
2013-10-19 13:44:00,44.7,43.6,29.76,WSW,248,0.0,10.0,96,0.00,,,0.18,VWS V14.00,2013-10-19 17:44:00,
2013-10-19 13:45:00,44.7,43.6,29.76,WSW,248,1.0,10.0,96,0.00,,,0.18,VWS V14.00,2013-10-19 17:45:00,
2013-10-19 13:46:00,44.6,43.5,29.76,WSW,248,2.0,9.0,96,0.00,,,0.18,VWS V14.00,2013-10-19 17:46:00,
2013-10-19 13:47:00,44.8,43.7,29.76,WSW,248,3.0,10.0,96,0.00,,,0.18,VWS V14.00,2013-10-19 17:47:00,
2013-10-19 13:48:00,44.9,43.8,29.76,WSW,248,2.0,10.0,96,0.00,,,0.18,VWS V14.00,2013-10-19 17:48:00,
2013-10-19 13:49:00,44.9,43.8,29.76,WSW,248,0.0,10.0,96,0.00,,,0.18,VWS V14.00,2013-10-19 17:49:00,
2013-10-19 13:50:00,44.9,43.8,29.76,WSW,248,0.0,10.0,96,0.00,,,0.18,VWS V14.00,2013-10-19 17:50:00,
2013-10-19 13:51:00,44.6,43.5,29.76,WSW,240,2.0,10.0,96,0.00,,,0.18,VWS V14.00,2013-10-19 17:51:00,
2013-10-19 13:52:00,44.9,43.8,29.77,SW,232,3.0,10.0,96,0.00,,,0.18,VWS V14.00,2013-10-19 17:52:00,
2013-10-19 13:53:00,44.9,43.8,29.76,SW,232,4.0,10.0,96,0.00,,,0.18,VWS V14.00,2013-10-19 17:53:00,
2013-10-19 13:54:00,45.0,43.9,29.76,SW,232,2.0,10.0,96,0.00,,,0.18,VWS V14.00,2013-10-19 17:54:00,
2013-10-19 13:55:00,45.0,43.9,29.76,SW,232,2.0,10.0,96,0.00,,,0.18,VWS V14.00,2013-10-19 17:55:00,
2013-10-19 13:56:00,44.8,43.7,29.76,WSW,248,2.0,10.0,96,0.00,,,0.18,VWS V14.00,2013-10-19 17:56:00,
2013-10-19 13:57:00,45.0,43.9,29.76,SW,232,3.0,10.0,96,0.00,,,0.18,VWS V14.00,2013-10-19 17:57:00,
2013-10-19 13:58:00,45.0,43.9,29.76,SW,232,4.0,10.0,96,0.00,,,0.18,VWS V14.00,2013-10-19 17:58:00,
2013-10-19 13:59:00,45.1,44.0,29.76,West,260,3.0,10.0,96,0.00,,,0.18,VWS V14.00,2013-10-19 17:59:00,
2013-10-19 14:00:00,45.1,44.0,29.76,West,260,2.0,10.0,96,0.00,,,0.18,VWS V14.00,2013-10-19 18:00:00,
2013-10-19 14:01:00,44.9,43.8,29.76,WSW,248,0.0,10.0,96,0.00,,,0.18,VWS V14.00,2013-10-19 18:01:00,
2013-10-19 14:02:00,45.2,44.1,29.76,WSW,254,1.0,6.0,96,0.00,,,0.18,VWS V14.00,2013-10-19 18:02:00,
2013-10-19 14:03:00,45.3,44.2,29.76,WSW,254,3.0,6.0,96,0.00,,,0.18,VWS V14.00,2013-10-19 18:03:00,
2013-10-19 14:04:00,45.3,44.2,29.76,WSW,254,4.0,6.0,96,0.00,,,0.18,VWS V14.00,2013-10-19 18:04:00,
2013-10-19 14:05:00,45.3,44.2,29.76,SW,235,5.0,12.0,96,0.00,,,0.19,VWS V14.00,2013-10-19 18:05:00,
2013-10-19 14:06:00,45.0,43.9,29.76,SW,232,2.0,10.0,96,0.00,,,0.18,VWS V14.00,2013-10-19 18:06:00,
2013-10-19 14:07:00,45.4,44.3,29.76,WSW,241,5.0,12.0,96,0.00,,,0.19,VWS V14.00,2013-10-19 18:07:00,
2013-10-19 14:08:00,45.4,44.3,29.75,WSW,241,0.0,12.0,96,0.00,,,0.19,VWS V14.00,2013-10-19 18:08:00,
2013-10-19 14:09:00,45.5,44.4,29.75,WSW,241,2.0,12.0,96,0.00,,,0.19,VWS V14.00,2013-10-19 18:09:00,
2013-10-19 14:10:00,45.6,44.5,29.75,WSW,241,1.0,12.0,96,0.00,,,0.19,VWS V14.00,2013-10-19 18:10:00,
2013-10-19 14:11:00,45.1,44.0,29.76,WSW,254,3.0,6.0,96,0.00,,,0.18,VWS V14.00,2013-10-19 18:11:00,
2013-10-19 14:12:00,45.6,44.5,29.75,WSW,242,2.0,12.0,96,0.00,,,0.19,VWS V14.00,2013-10-19 18:12:00,
2013-10-19 14:13:00,45.7,44.6,29.75,WSW,242,1.0,12.0,96,0.00,,,0.19,VWS V14.00,2013-10-19 18:13:00,
2013-10-19 14:14:00,45.8,44.7,29.75,WSW,242,2.0,12.0,96,0.00,,,0.19,VWS V14.00,2013-10-19 18:14:00,
2013-10-19 14:15:00,45.8,44.7,29.75,WSW,242,4.0,12.0,96,0.00,,,0.19,VWS V14.00,2013-10-19 18:15:00,
2013-10-19 14:16:00,45.4,44.3,29.76,WSW,240,4.0,12.0,96,0.00,,,0.19,VWS V14.00,2013-10-19 18:16:00,
2013-10-19 14:17:00,45.9,44.8,29.75,WSW,245,2.0,12.0,96,0.00,,,0.19,VWS V14.00,2013-10-19 18:17:00,
2013-10-19 14:18:00,45.9,44.8,29.75,WSW,246,2.0,12.0,96,0.00,,,0.19,VWS V14.00,2013-10-19 18:18:00,
2013-10-19 14:19:00,46.0,44.9,29.75,WSW,251,3.0,12.0,96,0.00,,,0.19,VWS V14.00,2013-10-19 18:19:00,
2013-10-19 14:20:00,46.0,44.9,29.75,WSW,241,4.0,12.0,96,0.00,,,0.19,VWS V14.00,2013-10-19 18:20:00,
2013-10-19 14:21:00,45.6,44.5,29.75,WSW,238,3.0,12.0,96,0.00,,,0.19,VWS V14.00,2013-10-19 18:21:00,
2013-10-19 14:22:00,46.0,44.9,29.75,WSW,241,0.0,12.0,96,0.00,,,0.19,VWS V14.00,2013-10-19 18:22:00,
2013-10-19 14:23:00,46.0,44.9,29.75,WSW,249,5.0,12.0,96,0.00,,,0.19,VWS V14.00,2013-10-19 18:23:00,
2013-10-19 14:24:00,46.1,45.0,29.75,WSW,238,2.0,12.0,96,0.00,,,0.19,VWS V14.00,2013-10-19 18:24:00,
2013-10-19 14:25:00,46.1,45.0,29.75,SW,234,5.0,12.0,96,0.00,,,0.19,VWS V14.00,2013-10-19 18:25:00,
2013-10-19 14:26:00,45.8,44.7,29.75,WSW,242,4.0,12.0,96,0.00,,,0.19,VWS V14.00,2013-10-19 18:26:00,
2013-10-19 14:27:00,46.0,44.9,29.75,SW,228,3.0,12.0,96,0.00,,,0.19,VWS V14.00,2013-10-19 18:27:00,
2013-10-19 14:28:00,46.0,44.9,29.75,SW,223,7.0,12.0,96,0.00,,,0.19,VWS V14.00,2013-10-19 18:28:00,
2013-10-19 14:29:00,46.0,44.9,29.75,SW,224,0.0,12.0,96,0.00,,,0.19,VWS V14.00,2013-10-19 18:29:00,
2013-10-19 14:30:00,46.0,44.9,29.75,SW,224,3.0,12.0,96,0.00,,,0.19,VWS V14.00,2013-10-19 18:30:00,
2013-10-19 14:31:00,46.0,44.9,29.75,WSW,241,0.0,12.0,96,0.00,,,0.19,VWS V14.00,2013-10-19 18:31:00,
2013-10-19 14:32:00,46.3,45.2,29.75,SW,223,4.0,10.0,96,0.00,,,0.19,VWS V14.00,2013-10-19 18:32:00,
2013-10-19 14:33:00,46.4,45.3,29.75,SW,226,0.0,10.0,96,0.00,,,0.19,VWS V14.00,2013-10-19 18:33:00,
2013-10-19 14:34:00,46.5,45.4,29.75,SW,226,3.0,10.0,96,0.00,,,0.19,VWS V14.00,2013-10-19 18:34:00,
2013-10-19 14:35:00,46.6,45.5,29.75,SW,227,3.0,10.0,96,0.00,,,0.19,VWS V14.00,2013-10-19 18:35:00,
2013-10-19 14:36:00,46.1,45.0,29.75,SW,230,6.0,12.0,96,0.00,,,0.19,VWS V14.00,2013-10-19 18:36:00,
2013-10-19 14:37:00,46.7,45.6,29.75,SW,230,2.0,10.0,96,0.00,,,0.19,VWS V14.00,2013-10-19 18:37:00,
2013-10-19 14:38:00,46.7,45.6,29.75,SW,232,5.0,10.0,96,0.00,,,0.19,VWS V14.00,2013-10-19 18:38:00,
2013-10-19 14:39:00,46.8,45.7,29.75,SW,232,3.0,10.0,96,0.00,,,0.19,VWS V14.00,2013-10-19 18:39:00,
2013-10-19 14:40:00,46.8,45.7,29.75,WSW,247,3.0,10.0,96,0.00,,,0.19,VWS V14.00,2013-10-19 18:40:00,
2013-10-19 14:41:00,46.1,45.0,29.75,SW,232,3.0,6.0,96,0.00,,,0.19,VWS V14.00,2013-10-19 18:41:00,
2013-10-19 14:42:00,47.0,45.7,29.75,WSW,242,2.0,10.0,95,0.00,,,0.19,VWS V14.00,2013-10-19 18:42:00,
2013-10-19 14:43:00,47.0,45.7,29.75,WSW,242,4.0,10.0,95,0.00,,,0.19,VWS V14.00,2013-10-19 18:43:00,
2013-10-19 14:44:00,47.1,45.7,29.75,WSW,240,5.0,10.0,95,0.00,,,0.19,VWS V14.00,2013-10-19 18:44:00,
2013-10-19 14:45:00,47.2,45.8,29.75,WSW,240,3.0,10.0,95,0.00,,,0.19,VWS V14.00,2013-10-19 18:45:00,
2013-10-19 14:46:00,46.6,45.5,29.75,SW,227,2.0,10.0,96,0.00,,,0.19,VWS V14.00,2013-10-19 18:46:00,
2013-10-19 14:47:00,47.2,45.8,29.75,WSW,239,3.0,10.0,95,0.00,,,0.19,VWS V14.00,2013-10-19 18:47:00,
2013-10-19 14:48:00,47.3,45.9,29.75,WSW,238,4.0,10.0,95,0.00,,,0.19,VWS V14.00,2013-10-19 18:48:00,
2013-10-19 14:49:00,47.3,45.9,29.75,WSW,237,4.0,10.0,95,0.00,,,0.19,VWS V14.00,2013-10-19 18:49:00,
2013-10-19 14:50:00,47.3,45.9,29.75,SW,236,5.0,10.0,95,0.00,,,0.19,VWS V14.00,2013-10-19 18:50:00,
2013-10-19 14:51:00,46.9,45.8,29.75,WSW,246,1.0,10.0,96,0.00,,,0.19,VWS V14.00,2013-10-19 18:51:00,
2013-10-19 14:52:00,47.3,45.9,29.75,SW,234,3.0,10.0,95,0.00,,,0.19,VWS V14.00,2013-10-19 18:52:00,
2013-10-19 14:53:00,47.4,46.0,29.75,SW,233,6.0,10.0,95,0.00,,,0.19,VWS V14.00,2013-10-19 18:53:00,
2013-10-19 14:54:00,47.3,45.9,29.75,SW,233,3.0,10.0,95,0.00,,,0.19,VWS V14.00,2013-10-19 18:54:00,
2013-10-19 14:55:00,47.3,45.7,29.75,SW,234,1.0,10.0,94,0.00,,,0.19,VWS V14.00,2013-10-19 18:55:00,
2013-10-19 14:56:00,47.2,45.8,29.75,WSW,241,4.0,10.0,95,0.00,,,0.19,VWS V14.00,2013-10-19 18:56:00,
2013-10-19 14:57:00,47.1,45.5,29.75,SW,233,1.0,10.0,94,0.00,,,0.19,VWS V14.00,2013-10-19 18:57:00,
2013-10-19 14:58:00,47.1,45.5,29.75,SW,232,4.0,10.0,94,0.00,,,0.19,VWS V14.00,2013-10-19 18:58:00,
2013-10-19 14:59:00,46.9,45.3,29.75,WSW,252,6.0,10.0,94,0.00,,,0.19,VWS V14.00,2013-10-19 18:59:00,
2013-10-19 15:00:00,46.9,45.3,29.75,WSW,252,2.0,10.0,94,0.00,,,0.19,VWS V14.00,2013-10-19 19:00:00,
2013-10-19 15:01:00,47.4,46.0,29.75,SW,236,5.0,10.0,95,0.00,,,0.19,VWS V14.00,2013-10-19 19:01:00,
2013-10-19 15:02:00,46.7,44.8,29.76,SW,224,4.0,12.0,93,0.00,,,0.19,VWS V14.00,2013-10-19 19:02:00,
2013-10-19 15:03:00,46.6,44.7,29.75,SW,222,6.0,12.0,93,0.00,,,0.19,VWS V14.00,2013-10-19 19:03:00,
2013-10-19 15:04:00,46.5,44.6,29.75,SW,218,0.0,12.0,93,0.00,,,0.19,VWS V14.00,2013-10-19 19:04:00,
2013-10-19 15:05:00,46.5,44.6,29.75,SW,219,2.0,12.0,93,0.00,,,0.19,VWS V14.00,2013-10-19 19:05:00,
2013-10-19 15:06:00,47.2,45.6,29.75,SW,233,1.0,10.0,94,0.00,,,0.19,VWS V14.00,2013-10-19 19:06:00,
2013-10-19 15:07:00,46.4,44.5,29.75,WSW,238,3.0,12.0,93,0.00,,,0.19,VWS V14.00,2013-10-19 19:07:00,
2013-10-19 15:08:00,46.4,44.5,29.76,WSW,238,4.0,12.0,93,0.00,,,0.19,VWS V14.00,2013-10-19 19:08:00,
2013-10-19 15:09:00,46.4,44.5,29.76,WSW,246,7.0,12.0,93,0.00,,,0.19,VWS V14.00,2013-10-19 19:09:00,
2013-10-19 15:10:00,46.4,44.5,29.76,WSW,245,4.0,12.0,93,0.00,,,0.19,VWS V14.00,2013-10-19 19:10:00,
2013-10-19 15:11:00,46.9,45.0,29.75,WSW,249,5.0,5.0,93,0.00,,,0.19,VWS V14.00,2013-10-19 19:11:00,
2013-10-19 15:12:00,46.4,44.5,29.76,WSW,237,3.0,12.0,93,0.00,,,0.19,VWS V14.00,2013-10-19 19:12:00,
2013-10-19 15:13:00,46.4,44.5,29.76,SW,218,7.0,12.0,93,0.00,,,0.19,VWS V14.00,2013-10-19 19:13:00,
2013-10-19 15:14:00,46.4,44.5,29.76,WSW,241,4.0,12.0,93,0.00,,,0.19,VWS V14.00,2013-10-19 19:14:00,
2013-10-19 15:15:00,46.4,44.5,29.76,WSW,242,4.0,12.0,93,0.00,,,0.19,VWS V14.00,2013-10-19 19:15:00,
2013-10-19 15:16:00,46.5,44.6,29.75,SW,219,2.0,12.0,93,0.00,,,0.19,VWS V14.00,2013-10-19 19:16:00,
2013-10-19 15:17:00,46.4,44.5,29.76,WSW,238,5.0,12.0,93,0.00,,,0.19,VWS V14.00,2013-10-19 19:17:00,
2013-10-19 15:18:00,46.5,44.6,29.75,West,260,1.0,12.0,93,0.00,,,0.19,VWS V14.00,2013-10-19 19:18:00,
2013-10-19 15:19:00,46.5,44.6,29.75,SW,215,5.0,12.0,93,0.00,,,0.19,VWS V14.00,2013-10-19 19:19:00,
2013-10-19 15:20:00,46.6,44.7,29.75,SW,218,2.0,12.0,93,0.00,,,0.19,VWS V14.00,2013-10-19 19:20:00,
2013-10-19 15:21:00,46.4,44.5,29.76,WSW,245,3.0,12.0,93,0.00,,,0.19,VWS V14.00,2013-10-19 19:21:00,
2013-10-19 15:22:00,46.8,44.9,29.75,SW,222,5.0,12.0,93,0.00,,,0.19,VWS V14.00,2013-10-19 19:22:00,
2013-10-19 15:23:00,46.9,45.0,29.75,SW,217,4.0,12.0,93,0.00,,,0.19,VWS V14.00,2013-10-19 19:23:00,
2013-10-19 15:24:00,47.0,45.1,29.75,SW,219,1.0,12.0,93,0.00,,,0.19,VWS V14.00,2013-10-19 19:24:00,
2013-10-19 15:25:00,47.2,45.3,29.75,SW,232,4.0,12.0,93,0.00,,,0.19,VWS V14.00,2013-10-19 19:25:00,
2013-10-19 15:26:00,46.4,44.5,29.76,WSW,247,6.0,12.0,93,0.00,,,0.19,VWS V14.00,2013-10-19 19:26:00,
2013-10-19 15:27:00,47.4,45.5,29.75,WSW,243,4.0,12.0,93,0.00,,,0.19,VWS V14.00,2013-10-19 19:27:00,
2013-10-19 15:28:00,47.5,45.6,29.75,SW,229,5.0,12.0,93,0.00,,,0.19,VWS V14.00,2013-10-19 19:28:00,
2013-10-19 15:29:00,47.6,45.7,29.75,SW,232,3.0,12.0,93,0.00,,,0.19,VWS V14.00,2013-10-19 19:29:00,
2013-10-19 15:30:00,47.6,45.4,29.75,SW,232,3.0,12.0,92,0.00,,,0.19,VWS V14.00,2013-10-19 19:30:00,
2013-10-19 15:31:00,46.6,44.7,29.75,SW,218,5.0,12.0,93,0.00,,,0.19,VWS V14.00,2013-10-19 19:31:00,
2013-10-19 15:32:00,47.8,45.6,29.75,SW,229,2.0,9.0,92,0.00,,,0.19,VWS V14.00,2013-10-19 19:32:00,
2013-10-19 15:33:00,47.9,45.7,29.75,SW,229,5.0,9.0,92,0.00,,,0.19,VWS V14.00,2013-10-19 19:33:00,
2013-10-19 15:34:00,48.0,45.8,29.75,WSW,240,3.0,9.0,92,0.00,,,0.19,VWS V14.00,2013-10-19 19:34:00,
2013-10-19 15:35:00,48.1,45.9,29.75,SW,236,5.0,9.0,92,0.00,,,0.19,VWS V14.00,2013-10-19 19:35:00,
2013-10-19 15:36:00,47.2,45.3,29.75,SW,232,3.0,12.0,93,0.00,,,0.19,VWS V14.00,2013-10-19 19:36:00,
2013-10-19 15:37:00,48.3,47.2,29.75,SW,225,4.0,9.0,96,0.00,,,0.19,VWS V14.00,2013-10-19 19:37:00,
2013-10-19 15:38:00,48.4,45.9,29.75,SW,225,9.0,10.0,91,0.00,,,0.19,VWS V14.00,2013-10-19 19:38:00,
2013-10-19 15:39:00,48.4,45.9,29.75,SW,236,3.0,10.0,91,0.00,,,0.19,VWS V14.00,2013-10-19 19:39:00,
2013-10-19 15:40:00,48.5,46.0,29.75,SW,235,5.0,10.0,91,0.00,,,0.19,VWS V14.00,2013-10-19 19:40:00,
2013-10-19 15:41:00,47.7,45.5,29.75,SW,234,5.0,9.0,92,0.00,,,0.19,VWS V14.00,2013-10-19 19:41:00,
2013-10-19 15:42:00,48.7,45.9,29.75,WSW,250,4.0,10.0,90,0.00,,,0.19,VWS V14.00,2013-10-19 19:42:00,
2013-10-19 15:43:00,48.8,46.0,29.75,WSW,246,7.0,10.0,90,0.00,,,0.19,VWS V14.00,2013-10-19 19:43:00,
2013-10-19 15:44:00,48.8,46.0,29.75,WSW,248,2.0,10.0,90,0.00,,,0.19,VWS V14.00,2013-10-19 19:44:00,
2013-10-19 15:45:00,48.9,46.1,29.75,WSW,247,3.0,10.0,90,0.00,,,0.19,VWS V14.00,2013-10-19 19:45:00,
2013-10-19 15:46:00,48.1,45.9,29.75,SW,230,6.0,9.0,92,0.00,,,0.19,VWS V14.00,2013-10-19 19:46:00,
2013-10-19 15:47:00,49.0,46.2,29.75,WSW,240,5.0,10.0,90,0.00,,,0.19,VWS V14.00,2013-10-19 19:47:00,
2013-10-19 15:48:00,49.0,45.9,29.75,WSW,237,2.0,10.0,89,0.00,,,0.19,VWS V14.00,2013-10-19 19:48:00,
2013-10-19 15:49:00,48.9,45.5,29.75,SW,232,3.0,10.0,88,0.00,,,0.19,VWS V14.00,2013-10-19 19:49:00,
2013-10-19 15:50:00,48.8,45.4,29.75,WSW,251,2.0,10.0,88,0.00,,,0.19,VWS V14.00,2013-10-19 19:50:00,
2013-10-19 15:51:00,48.5,46.0,29.75,WSW,242,6.0,10.0,91,0.00,,,0.19,VWS V14.00,2013-10-19 19:51:00,
2013-10-19 15:52:00,48.7,45.3,29.75,WSW,244,3.0,10.0,88,0.00,,,0.19,VWS V14.00,2013-10-19 19:52:00,
2013-10-19 15:53:00,48.7,45.3,29.75,SW,221,7.0,10.0,88,0.00,,,0.19,VWS V14.00,2013-10-19 19:53:00,
2013-10-19 15:54:00,48.6,45.2,29.75,SW,214,2.0,10.0,88,0.00,,,0.19,VWS V14.00,2013-10-19 19:54:00,
2013-10-19 15:55:00,48.5,45.1,29.75,SW,234,4.0,10.0,88,0.00,,,0.19,VWS V14.00,2013-10-19 19:55:00,
2013-10-19 15:56:00,48.9,46.1,29.75,WSW,246,2.0,10.0,90,0.00,,,0.19,VWS V14.00,2013-10-19 19:56:00,
2013-10-19 15:57:00,48.4,45.0,29.75,SW,226,3.0,10.0,88,0.00,,,0.19,VWS V14.00,2013-10-19 19:57:00,
2013-10-19 15:58:00,48.4,45.0,29.75,SW,232,13.0,13.0,88,0.00,,,0.19,VWS V14.00,2013-10-19 19:58:00,
2013-10-19 15:59:00,48.3,44.9,29.75,SW,236,3.0,13.0,88,0.00,,,0.19,VWS V14.00,2013-10-19 19:59:00,
2013-10-19 16:00:00,48.3,44.9,29.75,West,269,11.0,13.0,88,0.00,,,0.19,VWS V14.00,2013-10-19 20:00:00,
2013-10-19 16:01:00,48.8,45.4,29.75,WSW,251,2.0,10.0,88,0.00,,,0.19,VWS V14.00,2013-10-19 20:01:00,
2013-10-19 16:02:00,48.1,44.7,29.75,WSW,258,5.0,11.0,88,0.00,,,0.19,VWS V14.00,2013-10-19 20:02:00,
2013-10-19 16:03:00,48.1,44.4,29.76,WSW,254,4.0,11.0,87,0.00,,,0.19,VWS V14.00,2013-10-19 20:03:00,
2013-10-19 16:04:00,48.1,44.4,29.75,WSW,255,5.0,11.0,87,0.00,,,0.19,VWS V14.00,2013-10-19 20:04:00,
2013-10-19 16:05:00,48.0,44.3,29.75,WSW,240,5.0,11.0,87,0.00,,,0.19,VWS V14.00,2013-10-19 20:05:00,
2013-10-19 16:06:00,48.6,45.2,29.75,SW,233,5.0,10.0,88,0.00,,,0.19,VWS V14.00,2013-10-19 20:06:00,
2013-10-19 16:07:00,47.9,44.2,29.75,WSW,242,6.0,11.0,87,0.00,,,0.19,VWS V14.00,2013-10-19 20:07:00,
2013-10-19 16:08:00,48.0,44.3,29.76,WSW,244,5.0,11.0,87,0.00,,,0.19,VWS V14.00,2013-10-19 20:08:00,
2013-10-19 16:09:00,48.1,44.4,29.75,WSW,244,2.0,11.0,87,0.00,,,0.19,VWS V14.00,2013-10-19 20:09:00,
2013-10-19 16:11:00,48.2,44.8,29.75,West,265,4.0,11.0,88,0.00,,,0.19,VWS V14.00,2013-10-19 20:11:00,
2013-10-19 16:12:00,48.3,44.6,29.75,SW,227,3.0,11.0,87,0.00,,,0.19,VWS V14.00,2013-10-19 20:12:00,
2013-10-19 16:13:00,48.4,44.7,29.75,SW,227,1.0,11.0,87,0.00,,,0.19,VWS V14.00,2013-10-19 20:13:00,
2013-10-19 16:14:00,48.4,44.7,29.75,SW,221,6.0,11.0,87,0.00,,,0.19,VWS V14.00,2013-10-19 20:14:00,
2013-10-19 16:15:00,48.4,44.7,29.75,SW,231,4.0,11.0,87,0.00,,,0.19,VWS V14.00,2013-10-19 20:15:00,
2013-10-19 16:16:00,48.0,44.3,29.75,WSW,238,4.0,11.0,87,0.00,,,0.19,VWS V14.00,2013-10-19 20:16:00,
2013-10-19 16:17:00,48.4,44.4,29.75,SW,232,2.0,11.0,86,0.00,,,0.19,VWS V14.00,2013-10-19 20:17:00,
2013-10-19 16:18:00,48.4,44.7,29.76,SW,231,3.0,11.0,87,0.00,,,0.19,VWS V14.00,2013-10-19 20:18:00,
2013-10-19 16:19:00,48.3,44.3,29.76,SW,230,1.0,11.0,86,0.00,,,0.19,VWS V14.00,2013-10-19 20:19:00,
2013-10-19 16:20:00,48.3,44.3,29.76,SW,236,4.0,11.0,86,0.00,,,0.19,VWS V14.00,2013-10-19 20:20:00,
2013-10-19 16:21:00,48.1,44.7,29.76,WSW,244,4.0,11.0,88,0.00,,,0.19,VWS V14.00,2013-10-19 20:21:00,
2013-10-19 16:22:00,48.3,44.6,29.76,WSW,240,2.0,11.0,87,0.00,,,0.19,VWS V14.00,2013-10-19 20:22:00,
2013-10-19 16:23:00,48.3,44.6,29.76,West,260,2.0,11.0,87,0.00,,,0.19,VWS V14.00,2013-10-19 20:23:00,
2013-10-19 16:24:00,48.3,44.6,29.76,West,261,3.0,11.0,87,0.00,,,0.19,VWS V14.00,2013-10-19 20:24:00,
2013-10-19 16:25:00,48.3,44.3,29.76,West,259,5.0,11.0,86,0.00,,,0.19,VWS V14.00,2013-10-19 20:25:00,
2013-10-19 16:26:00,48.4,44.7,29.75,SW,231,2.0,11.0,87,0.00,,,0.19,VWS V14.00,2013-10-19 20:26:00,
2013-10-19 16:27:00,48.3,44.3,29.76,WSW,251,9.0,11.0,86,0.00,,,0.19,VWS V14.00,2013-10-19 20:27:00,
2013-10-19 16:28:00,48.3,44.3,29.76,WSW,252,6.0,13.0,86,0.00,,,0.19,VWS V14.00,2013-10-19 20:28:00,
2013-10-19 16:29:00,48.3,44.0,29.76,WSW,258,2.0,13.0,85,0.00,,,0.19,VWS V14.00,2013-10-19 20:29:00,
2013-10-19 16:30:00,48.4,44.1,29.76,West,260,8.0,13.0,85,0.00,,,0.19,VWS V14.00,2013-10-19 20:30:00,
2013-10-19 16:31:00,48.3,44.3,29.76,WSW,238,4.0,11.0,86,0.00,,,0.19,VWS V14.00,2013-10-19 20:31:00,
2013-10-19 16:32:00,48.5,44.2,29.76,WSW,257,13.0,13.0,85,0.00,,,0.19,VWS V14.00,2013-10-19 20:32:00,
2013-10-19 16:33:00,48.7,44.4,29.76,SW,216,3.0,13.0,85,0.00,,,0.19,VWS V14.00,2013-10-19 20:33:00,
2013-10-19 16:34:00,48.9,44.6,29.76,SW,229,12.0,13.0,85,0.00,,,0.19,VWS V14.00,2013-10-19 20:34:00,
2013-10-19 16:35:00,49.0,44.4,29.76,SW,221,6.0,13.0,84,0.00,,,0.19,VWS V14.00,2013-10-19 20:35:00,
2013-10-19 16:36:00,48.3,44.3,29.76,WSW,251,5.0,11.0,86,0.00,,,0.19,VWS V14.00,2013-10-19 20:36:00,
2013-10-19 16:37:00,49.3,44.7,29.76,WSW,247,9.0,13.0,84,0.00,,,0.19,VWS V14.00,2013-10-19 20:37:00,
2013-10-19 16:38:00,49.4,44.8,29.76,WSW,250,3.0,13.0,84,0.00,,,0.19,VWS V14.00,2013-10-19 20:38:00,
2013-10-19 16:39:00,49.5,44.9,29.76,WSW,247,4.0,13.0,84,0.00,,,0.19,VWS V14.00,2013-10-19 20:39:00,
2013-10-19 16:40:00,49.6,44.7,29.76,SW,232,4.0,13.0,83,0.00,,,0.19,VWS V14.00,2013-10-19 20:40:00,
2013-10-19 16:41:00,48.4,44.1,29.76,SW,231,5.0,8.0,85,0.00,,,0.19,VWS V14.00,2013-10-19 20:41:00,
2013-10-19 16:42:00,49.6,44.7,29.76,WSW,257,4.0,13.0,83,0.00,,,0.19,VWS V14.00,2013-10-19 20:42:00,
2013-10-19 16:43:00,49.6,44.3,29.76,SW,219,5.0,13.0,82,0.00,,,0.19,VWS V14.00,2013-10-19 20:43:00,
2013-10-19 16:44:00,49.6,44.3,29.76,WSW,238,7.0,13.0,82,0.00,,,0.19,VWS V14.00,2013-10-19 20:44:00,
2013-10-19 16:45:00,49.5,44.2,29.76,SW,229,6.0,13.0,82,0.00,,,0.19,VWS V14.00,2013-10-19 20:45:00,
2013-10-19 16:46:00,49.1,44.5,29.76,SW,221,4.0,13.0,84,0.00,,,0.19,VWS V14.00,2013-10-19 20:46:00,
2013-10-19 16:47:00,49.4,44.1,29.77,SW,230,2.0,13.0,82,0.00,,,0.19,VWS V14.00,2013-10-19 20:47:00,
2013-10-19 16:48:00,49.3,44.0,29.77,SW,227,2.0,13.0,82,0.00,,,0.19,VWS V14.00,2013-10-19 20:48:00,
2013-10-19 16:49:00,49.2,44.0,29.77,WSW,250,6.0,13.0,82,0.00,,,0.19,VWS V14.00,2013-10-19 20:49:00,
2013-10-19 16:50:00,49.2,44.0,29.77,WSW,250,0.0,13.0,82,0.00,,,0.19,VWS V14.00,2013-10-19 20:50:00,
2013-10-19 16:51:00,49.6,44.7,29.76,WSW,254,6.0,13.0,83,0.00,,,0.19,VWS V14.00,2013-10-19 20:51:00,
2013-10-19 16:52:00,49.0,43.8,29.77,WSW,241,1.0,13.0,82,0.00,,,0.19,VWS V14.00,2013-10-19 20:52:00,
2013-10-19 16:53:00,48.9,44.0,29.77,West,260,2.0,13.0,83,0.00,,,0.19,VWS V14.00,2013-10-19 20:53:00,
2013-10-19 16:54:00,48.9,44.0,29.77,West,259,5.0,13.0,83,0.00,,,0.19,VWS V14.00,2013-10-19 20:54:00,
2013-10-19 16:55:00,48.8,43.9,29.77,West,259,2.0,13.0,83,0.00,,,0.19,VWS V14.00,2013-10-19 20:55:00,
2013-10-19 16:56:00,49.5,44.2,29.76,SW,232,5.0,13.0,82,0.00,,,0.19,VWS V14.00,2013-10-19 20:56:00,
2013-10-19 16:57:00,48.7,43.8,29.77,SW,236,1.0,13.0,83,0.00,,,0.19,VWS V14.00,2013-10-19 20:57:00,
2013-10-19 16:58:00,48.7,43.8,29.77,WSW,242,5.0,13.0,83,0.00,,,0.19,VWS V14.00,2013-10-19 20:58:00,
2013-10-19 16:59:00,48.6,43.7,29.77,WSW,242,6.0,13.0,83,0.00,,,0.19,VWS V14.00,2013-10-19 20:59:00,
2013-10-19 17:00:00,48.7,43.8,29.77,SW,228,6.0,13.0,83,0.00,,,0.19,VWS V14.00,2013-10-19 21:00:00,
2013-10-19 17:01:00,49.2,44.0,29.77,WSW,249,3.0,13.0,82,0.00,,,0.19,VWS V14.00,2013-10-19 21:01:00,
2013-10-19 17:02:00,48.5,43.6,29.77,WSW,254,2.0,11.0,83,0.00,,,0.19,VWS V14.00,2013-10-19 21:02:00,
2013-10-19 17:03:00,48.5,43.6,29.77,WSW,253,6.0,11.0,83,0.00,,,0.19,VWS V14.00,2013-10-19 21:03:00,
2013-10-19 17:04:00,48.5,43.6,29.77,SW,236,6.0,11.0,83,0.00,,,0.19,VWS V14.00,2013-10-19 21:04:00,
2013-10-19 17:05:00,48.4,43.2,29.77,West,262,11.0,13.0,82,0.00,,,0.19,VWS V14.00,2013-10-19 21:05:00,
2013-10-19 17:06:00,48.8,43.9,29.77,WSW,257,4.0,13.0,83,0.00,,,0.19,VWS V14.00,2013-10-19 21:06:00,
2013-10-19 17:07:00,48.3,43.1,29.77,West,262,6.0,13.0,82,0.00,,,0.19,VWS V14.00,2013-10-19 21:07:00,
2013-10-19 17:08:00,48.3,43.1,29.77,WSW,254,2.0,13.0,82,0.00,,,0.19,VWS V14.00,2013-10-19 21:08:00,
2013-10-19 17:09:00,48.3,43.1,29.77,West,265,3.0,13.0,82,0.00,,,0.19,VWS V14.00,2013-10-19 21:09:00,
2013-10-19 17:10:00,48.2,43.0,29.77,WSW,247,1.0,13.0,82,0.00,,,0.19,VWS V14.00,2013-10-19 21:10:00,
2013-10-19 17:11:00,48.6,43.7,29.77,SW,229,5.0,11.0,83,0.00,,,0.19,VWS V14.00,2013-10-19 21:11:00,
2013-10-19 17:12:00,48.2,43.0,29.77,West,264,3.0,13.0,82,0.00,,,0.19,VWS V14.00,2013-10-19 21:12:00,
2013-10-19 17:13:00,48.1,42.9,29.77,West,263,3.0,13.0,82,0.00,,,0.19,VWS V14.00,2013-10-19 21:13:00,
2013-10-19 17:14:00,48.1,42.9,29.77,West,264,2.0,13.0,82,0.00,,,0.19,VWS V14.00,2013-10-19 21:14:00,
2013-10-19 17:15:00,48.1,42.9,29.77,West,265,3.0,13.0,82,0.00,,,0.19,VWS V14.00,2013-10-19 21:15:00,
2013-10-19 17:16:00,48.4,43.2,29.77,West,265,5.0,13.0,82,0.00,,,0.19,VWS V14.00,2013-10-19 21:16:00,
2013-10-19 17:17:00,48.1,42.9,29.77,SW,233,2.0,13.0,82,0.00,,,0.19,VWS V14.00,2013-10-19 21:17:00,
2013-10-19 17:18:00,48.1,42.9,29.77,SW,234,2.0,13.0,82,0.00,,,0.19,VWS V14.00,2013-10-19 21:18:00,
2013-10-19 17:19:00,48.1,43.2,29.77,WSW,245,3.0,13.0,83,0.00,,,0.19,VWS V14.00,2013-10-19 21:19:00,
2013-10-19 17:20:00,48.1,43.2,29.78,WSW,255,3.0,13.0,83,0.00,,,0.19,VWS V14.00,2013-10-19 21:20:00,
2013-10-19 17:21:00,48.3,43.1,29.77,WSW,247,3.0,13.0,82,0.00,,,0.19,VWS V14.00,2013-10-19 21:21:00,
2013-10-19 17:22:00,48.1,42.9,29.77,WSW,250,6.0,13.0,82,0.00,,,0.19,VWS V14.00,2013-10-19 21:22:00,
2013-10-19 17:23:00,48.1,42.9,29.77,WSW,258,2.0,13.0,82,0.00,,,0.19,VWS V14.00,2013-10-19 21:23:00,
2013-10-19 17:24:00,48.1,42.9,29.77,WSW,257,3.0,13.0,82,0.00,,,0.19,VWS V14.00,2013-10-19 21:24:00,
2013-10-19 17:25:00,48.1,42.9,29.77,WSW,252,3.0,13.0,82,0.00,,,0.19,VWS V14.00,2013-10-19 21:25:00,
2013-10-19 17:26:00,48.1,42.9,29.77,WSW,252,9.0,13.0,82,0.00,,,0.19,VWS V14.00,2013-10-19 21:26:00,
2013-10-19 17:27:00,48.2,43.0,29.77,West,263,3.0,13.0,82,0.00,,,0.19,VWS V14.00,2013-10-19 21:27:00,
2013-10-19 17:28:00,48.3,43.1,29.77,WSW,256,4.0,13.0,82,0.00,,,0.19,VWS V14.00,2013-10-19 21:28:00,
2013-10-19 17:29:00,48.3,43.1,29.78,WSW,257,4.0,13.0,82,0.00,,,0.19,VWS V14.00,2013-10-19 21:29:00,
2013-10-19 17:30:00,48.4,43.2,29.78,WSW,257,5.0,13.0,82,0.00,,,0.19,VWS V14.00,2013-10-19 21:30:00,
2013-10-19 17:31:00,48.1,43.2,29.78,WSW,256,5.0,13.0,83,0.00,,,0.19,VWS V14.00,2013-10-19 21:31:00,
2013-10-19 17:32:00,48.5,43.3,29.78,West,267,2.0,8.0,82,0.00,,,0.19,VWS V14.00,2013-10-19 21:32:00,
2013-10-19 17:33:00,48.6,43.4,29.78,WSW,257,4.0,8.0,82,0.00,,,0.19,VWS V14.00,2013-10-19 21:33:00,
2013-10-19 17:34:00,48.6,43.0,29.78,WSW,258,6.0,8.0,81,0.00,,,0.19,VWS V14.00,2013-10-19 21:34:00,
2013-10-19 17:35:00,48.6,43.0,29.78,West,265,4.0,8.0,81,0.00,,,0.19,VWS V14.00,2013-10-19 21:35:00,
2013-10-19 17:36:00,48.1,42.9,29.77,West,263,2.0,13.0,82,0.00,,,0.19,VWS V14.00,2013-10-19 21:36:00,
2013-10-19 17:37:00,48.5,42.6,29.78,WSW,251,5.0,8.0,80,0.00,,,0.19,VWS V14.00,2013-10-19 21:37:00,
2013-10-19 17:38:00,48.5,42.6,29.78,WSW,256,2.0,8.0,80,0.00,,,0.19,VWS V14.00,2013-10-19 21:38:00,
2013-10-19 17:39:00,48.5,42.6,29.78,WSW,241,0.0,8.0,80,0.00,,,0.19,VWS V14.00,2013-10-19 21:39:00,
2013-10-19 17:40:00,48.5,42.6,29.78,SW,236,2.0,8.0,80,0.00,,,0.19,VWS V14.00,2013-10-19 21:40:00,
2013-10-19 17:41:00,48.4,43.2,29.78,West,260,6.0,6.0,82,0.00,,,0.19,VWS V14.00,2013-10-19 21:41:00,
2013-10-19 17:42:00,48.4,42.5,29.78,WSW,249,5.0,8.0,80,0.00,,,0.19,VWS V14.00,2013-10-19 21:42:00,
2013-10-19 17:43:00,48.4,42.5,29.78,WSW,257,2.0,8.0,80,0.00,,,0.19,VWS V14.00,2013-10-19 21:43:00,
2013-10-19 17:44:00,48.4,42.5,29.78,WSW,256,2.0,8.0,80,0.00,,,0.19,VWS V14.00,2013-10-19 21:44:00,
2013-10-19 17:45:00,48.3,42.4,29.78,WSW,257,2.0,8.0,80,0.00,,,0.19,VWS V14.00,2013-10-19 21:45:00,
2013-10-19 17:46:00,48.6,43.0,29.78,West,270,5.0,8.0,81,0.00,,,0.19,VWS V14.00,2013-10-19 21:46:00,
2013-10-19 17:47:00,48.3,42.4,29.78,WSW,257,1.0,8.0,80,0.00,,,0.19,VWS V14.00,2013-10-19 21:47:00,
2013-10-19 17:48:00,48.3,42.4,29.78,WSW,257,2.0,8.0,80,0.00,,,0.19,VWS V14.00,2013-10-19 21:48:00,
2013-10-19 17:49:00,48.2,42.3,29.78,WSW,257,2.0,8.0,80,0.00,,,0.19,VWS V14.00,2013-10-19 21:49:00,
2013-10-19 17:50:00,48.2,42.3,29.78,WSW,257,4.0,8.0,80,0.00,,,0.19,VWS V14.00,2013-10-19 21:50:00,
2013-10-19 17:51:00,48.5,42.6,29.78,SW,236,1.0,8.0,80,0.00,,,0.19,VWS V14.00,2013-10-19 21:51:00,
2013-10-19 17:52:00,48.2,42.7,29.78,WSW,256,0.0,8.0,81,0.00,,,0.19,VWS V14.00,2013-10-19 21:52:00,
2013-10-19 17:53:00,48.1,42.5,29.78,WSW,256,0.0,8.0,81,0.00,,,0.19,VWS V14.00,2013-10-19 21:53:00,
2013-10-19 17:54:00,48.1,42.5,29.78,WSW,256,2.0,8.0,81,0.00,,,0.19,VWS V14.00,2013-10-19 21:54:00,
2013-10-19 17:55:00,48.1,42.5,29.78,WSW,256,0.0,8.0,81,0.00,,,0.19,VWS V14.00,2013-10-19 21:55:00,
2013-10-19 17:56:00,48.3,42.4,29.78,WSW,257,2.0,8.0,80,0.00,,,0.19,VWS V14.00,2013-10-19 21:56:00,
2013-10-19 17:57:00,48.0,42.5,29.78,WSW,249,4.0,8.0,81,0.00,,,0.19,VWS V14.00,2013-10-19 21:57:00,
2013-10-19 17:58:00,47.9,42.4,29.78,SW,219,3.0,8.0,81,0.00,,,0.19,VWS V14.00,2013-10-19 21:58:00,
2013-10-19 17:59:00,47.9,42.4,29.79,SW,223,4.0,8.0,81,0.00,,,0.19,VWS V14.00,2013-10-19 21:59:00,
2013-10-19 18:00:00,47.9,42.4,29.79,WSW,238,4.0,8.0,81,0.00,,,0.19,VWS V14.00,2013-10-19 22:00:00,
2013-10-19 18:01:00,48.2,42.3,29.78,WSW,257,4.0,8.0,80,0.00,,,0.19,VWS V14.00,2013-10-19 22:01:00,
2013-10-19 18:02:00,47.8,42.6,29.79,SW,229,1.0,6.0,82,0.00,,,0.19,VWS V14.00,2013-10-19 22:02:00,
2013-10-19 18:03:00,47.8,42.6,29.79,WSW,250,4.0,6.0,82,0.00,,,0.19,VWS V14.00,2013-10-19 22:03:00,
2013-10-19 18:04:00,47.8,42.6,29.79,WSW,249,4.0,6.0,82,0.00,,,0.19,VWS V14.00,2013-10-19 22:04:00,
2013-10-19 18:05:00,47.8,42.6,29.79,WSW,249,2.0,6.0,82,0.00,,,0.19,VWS V14.00,2013-10-19 22:05:00,
2013-10-19 18:06:00,48.1,42.5,29.78,WSW,256,2.0,8.0,81,0.00,,,0.19,VWS V14.00,2013-10-19 22:06:00,
2013-10-19 18:07:00,47.7,42.5,29.79,WSW,246,4.0,6.0,82,0.00,,,0.19,VWS V14.00,2013-10-19 22:07:00,
2013-10-19 18:08:00,47.7,42.5,29.79,WSW,246,1.0,6.0,82,0.00,,,0.19,VWS V14.00,2013-10-19 22:08:00,
2013-10-19 18:09:00,47.7,42.8,29.79,WSW,245,4.0,6.0,83,0.00,,,0.19,VWS V14.00,2013-10-19 22:09:00,
2013-10-19 18:10:00,47.7,42.5,29.79,WSW,242,2.0,6.0,82,0.00,,,0.19,VWS V14.00,2013-10-19 22:10:00,
2013-10-19 18:11:00,47.9,42.7,29.79,SW,233,3.0,5.0,82,0.00,,,0.19,VWS V14.00,2013-10-19 22:11:00,
2013-10-19 18:12:00,47.7,42.5,29.79,WSW,243,0.0,6.0,82,0.00,,,0.19,VWS V14.00,2013-10-19 22:12:00,
2013-10-19 18:13:00,47.7,42.5,29.79,WSW,245,1.0,6.0,82,0.00,,,0.19,VWS V14.00,2013-10-19 22:13:00,
2013-10-19 18:14:00,47.7,42.5,29.79,WSW,246,3.0,6.0,82,0.00,,,0.19,VWS V14.00,2013-10-19 22:14:00,
2013-10-19 18:15:00,47.7,42.5,29.79,WSW,246,6.0,6.0,82,0.00,,,0.19,VWS V14.00,2013-10-19 22:15:00,
2013-10-19 18:16:00,47.8,42.6,29.79,WSW,249,1.0,6.0,82,0.00,,,0.19,VWS V14.00,2013-10-19 22:16:00,
2013-10-19 18:17:00,47.7,42.5,29.79,WSW,249,2.0,7.0,82,0.00,,,0.19,VWS V14.00,2013-10-19 22:17:00,
2013-10-19 18:18:00,47.7,42.5,29.79,WSW,249,3.0,7.0,82,0.00,,,0.19,VWS V14.00,2013-10-19 22:18:00,
2013-10-19 18:19:00,47.6,42.4,29.79,WSW,248,4.0,7.0,82,0.00,,,0.19,VWS V14.00,2013-10-19 22:19:00,
2013-10-19 18:20:00,47.6,42.4,29.79,WSW,252,3.0,9.0,82,0.00,,,0.19,VWS V14.00,2013-10-19 22:20:00,
2013-10-19 18:21:00,47.7,42.5,29.79,WSW,242,2.0,6.0,82,0.00,,,0.19,VWS V14.00,2013-10-19 22:21:00,
2013-10-19 18:22:00,47.6,42.1,29.79,WSW,257,1.0,9.0,81,0.00,,,0.19,VWS V14.00,2013-10-19 22:22:00,
2013-10-19 18:23:00,47.6,42.1,29.79,WSW,256,3.0,9.0,81,0.00,,,0.19,VWS V14.00,2013-10-19 22:23:00,
2013-10-19 18:24:00,47.6,42.1,29.79,WSW,256,3.0,9.0,81,0.00,,,0.19,VWS V14.00,2013-10-19 22:24:00,
2013-10-19 18:25:00,47.6,42.1,29.79,WSW,255,3.0,9.0,81,0.00,,,0.19,VWS V14.00,2013-10-19 22:25:00,
2013-10-19 18:26:00,47.7,42.5,29.79,WSW,249,7.0,7.0,82,0.00,,,0.19,VWS V14.00,2013-10-19 22:26:00,
2013-10-19 18:27:00,47.5,42.0,29.79,SW,230,5.0,9.0,81,0.00,,,0.19,VWS V14.00,2013-10-19 22:27:00,
2013-10-19 18:28:00,47.4,41.5,29.79,SW,233,2.0,9.0,80,0.00,,,0.19,VWS V14.00,2013-10-19 22:28:00,
2013-10-19 18:29:00,47.4,41.5,29.79,SW,233,3.0,9.0,80,0.00,,,0.19,VWS V14.00,2013-10-19 22:29:00,
2013-10-19 18:30:00,47.4,41.5,29.79,SW,233,1.0,9.0,80,0.00,,,0.19,VWS V14.00,2013-10-19 22:30:00,
2013-10-19 18:31:00,47.6,42.4,29.79,WSW,253,6.0,9.0,82,0.00,,,0.19,VWS V14.00,2013-10-19 22:31:00,
2013-10-19 18:32:00,47.3,41.5,29.79,WSW,253,2.0,9.0,80,0.00,,,0.19,VWS V14.00,2013-10-19 22:32:00,
2013-10-19 18:33:00,47.2,41.4,29.79,WSW,241,2.0,9.0,80,0.00,,,0.19,VWS V14.00,2013-10-19 22:33:00,
2013-10-19 18:34:00,47.2,41.4,29.79,WSW,241,1.0,9.0,80,0.00,,,0.19,VWS V14.00,2013-10-19 22:34:00,
2013-10-19 18:35:00,47.2,41.4,29.79,WSW,241,1.0,9.0,80,0.00,,,0.19,VWS V14.00,2013-10-19 22:35:00,
2013-10-19 18:36:00,47.5,42.0,29.79,WSW,255,2.0,9.0,81,0.00,,,0.19,VWS V14.00,2013-10-19 22:36:00,
2013-10-19 18:37:00,47.1,41.3,29.79,WSW,242,1.0,9.0,80,0.00,,,0.19,VWS V14.00,2013-10-19 22:37:00,
2013-10-19 18:38:00,47.0,41.2,29.79,WSW,241,0.0,9.0,80,0.00,,,0.19,VWS V14.00,2013-10-19 22:38:00,
2013-10-19 18:39:00,47.0,41.2,29.79,SW,236,6.0,9.0,80,0.00,,,0.19,VWS V14.00,2013-10-19 22:39:00,
2013-10-19 18:40:00,46.9,41.1,29.79,SW,234,3.0,9.0,80,0.00,,,0.19,VWS V14.00,2013-10-19 22:40:00,
2013-10-19 18:41:00,47.3,41.5,29.79,SW,233,1.0,1.0,80,0.00,,,0.19,VWS V14.00,2013-10-19 22:41:00,
2013-10-19 18:42:00,46.9,41.1,29.79,SW,234,2.0,9.0,80,0.00,,,0.19,VWS V14.00,2013-10-19 22:42:00,
2013-10-19 18:43:00,46.8,41.0,29.79,SW,234,3.0,9.0,80,0.00,,,0.19,VWS V14.00,2013-10-19 22:43:00,
2013-10-19 18:44:00,46.8,41.0,29.80,SW,234,3.0,9.0,80,0.00,,,0.19,VWS V14.00,2013-10-19 22:44:00,
2013-10-19 18:45:00,46.8,41.0,29.80,SW,232,1.0,9.0,80,0.00,,,0.19,VWS V14.00,2013-10-19 22:45:00,
2013-10-19 18:46:00,47.1,41.3,29.79,WSW,242,0.0,9.0,80,0.00,,,0.19,VWS V14.00,2013-10-19 22:46:00,
2013-10-19 18:47:00,46.7,40.9,29.80,SW,232,2.0,9.0,80,0.00,,,0.19,VWS V14.00,2013-10-19 22:47:00,
2013-10-19 18:48:00,46.7,40.9,29.80,SW,232,1.0,9.0,80,0.00,,,0.19,VWS V14.00,2013-10-19 22:48:00,
2013-10-19 18:49:00,46.7,40.9,29.80,SW,232,0.0,9.0,80,0.00,,,0.19,VWS V14.00,2013-10-19 22:49:00,
2013-10-19 18:50:00,46.6,40.8,29.80,SW,232,2.0,9.0,80,0.00,,,0.19,VWS V14.00,2013-10-19 22:50:00,
2013-10-19 18:51:00,46.9,41.1,29.79,SW,235,2.0,9.0,80,0.00,,,0.19,VWS V14.00,2013-10-19 22:51:00,
2013-10-19 18:52:00,46.6,41.1,29.80,SW,232,3.0,9.0,81,0.00,,,0.19,VWS V14.00,2013-10-19 22:52:00,
2013-10-19 18:53:00,46.6,41.1,29.80,SW,232,3.0,9.0,81,0.00,,,0.19,VWS V14.00,2013-10-19 22:53:00,
2013-10-19 18:54:00,46.5,41.0,29.80,SW,229,5.0,9.0,81,0.00,,,0.19,VWS V14.00,2013-10-19 22:54:00,
2013-10-19 18:55:00,46.5,41.0,29.80,SW,228,3.0,9.0,81,0.00,,,0.19,VWS V14.00,2013-10-19 22:55:00,
2013-10-19 18:56:00,46.8,41.0,29.80,SW,232,1.0,9.0,80,0.00,,,0.19,VWS V14.00,2013-10-19 22:56:00,
2013-10-19 18:57:00,46.6,41.1,29.80,SW,229,3.0,9.0,81,0.00,,,0.19,VWS V14.00,2013-10-19 22:57:00,
2013-10-19 18:58:00,46.6,41.1,29.80,SW,229,0.0,9.0,81,0.00,,,0.19,VWS V14.00,2013-10-19 22:58:00,
2013-10-19 18:59:00,46.5,41.0,29.80,SW,229,2.0,9.0,81,0.00,,,0.19,VWS V14.00,2013-10-19 22:59:00,
2013-10-19 19:00:00,46.5,41.0,29.80,SW,231,6.0,9.0,81,0.00,,,0.19,VWS V14.00,2013-10-19 23:00:00,
2013-10-19 19:01:00,46.7,40.9,29.80,SW,232,2.0,9.0,80,0.00,,,0.19,VWS V14.00,2013-10-19 23:01:00,
2013-10-19 19:02:00,46.6,41.1,29.80,SW,226,5.0,7.0,81,0.00,,,0.19,VWS V14.00,2013-10-19 23:02:00,
2013-10-19 19:03:00,46.6,41.1,29.80,SW,227,2.0,9.0,81,0.00,,,0.19,VWS V14.00,2013-10-19 23:03:00,
2013-10-19 19:04:00,46.6,41.1,29.80,SW,229,2.0,9.0,81,0.00,,,0.19,VWS V14.00,2013-10-19 23:04:00,
2013-10-19 19:05:00,46.6,41.1,29.80,SW,227,4.0,9.0,81,0.00,,,0.19,VWS V14.00,2013-10-19 23:05:00,
2013-10-19 19:06:00,46.6,41.1,29.80,SW,228,3.0,9.0,81,0.00,,,0.19,VWS V14.00,2013-10-19 23:06:00,
2013-10-19 19:07:00,46.7,41.2,29.80,SW,223,5.0,9.0,81,0.00,,,0.19,VWS V14.00,2013-10-19 23:07:00,
2013-10-19 19:08:00,46.8,41.3,29.80,SW,225,5.0,9.0,81,0.00,,,0.19,VWS V14.00,2013-10-19 23:08:00,
2013-10-19 19:09:00,46.8,41.3,29.80,SW,218,5.0,9.0,81,0.00,,,0.19,VWS V14.00,2013-10-19 23:09:00,
2013-10-19 19:10:00,46.8,41.3,29.80,SW,223,5.0,12.0,81,0.00,,,0.19,VWS V14.00,2013-10-19 23:10:00,
2013-10-19 19:11:00,46.5,41.0,29.80,SW,231,1.0,6.0,81,0.00,,,0.19,VWS V14.00,2013-10-19 23:11:00,
2013-10-19 19:12:00,46.8,41.3,29.80,SSW,205,4.0,12.0,81,0.00,,,0.19,VWS V14.00,2013-10-19 23:12:00,
2013-10-19 19:13:00,46.8,41.3,29.80,SW,218,4.0,12.0,81,0.00,,,0.19,VWS V14.00,2013-10-19 23:13:00,
2013-10-19 19:14:00,46.8,41.3,29.80,SSW,210,5.0,12.0,81,0.00,,,0.19,VWS V14.00,2013-10-19 23:14:00,
2013-10-19 19:15:00,46.8,41.3,29.80,SW,227,3.0,12.0,81,0.00,,,0.19,VWS V14.00,2013-10-19 23:15:00,
2013-10-19 19:16:00,46.7,41.2,29.80,SW,227,8.0,9.0,81,0.00,,,0.19,VWS V14.00,2013-10-19 23:16:00,
2013-10-19 19:17:00,46.7,41.2,29.80,SW,232,5.0,12.0,81,0.00,,,0.19,VWS V14.00,2013-10-19 23:17:00,
2013-10-19 19:18:00,46.7,41.2,29.80,SW,225,6.0,12.0,81,0.00,,,0.19,VWS V14.00,2013-10-19 23:18:00,
2013-10-19 19:19:00,46.7,41.2,29.80,West,263,4.0,12.0,81,0.00,,,0.19,VWS V14.00,2013-10-19 23:19:00,
2013-10-19 19:20:00,46.7,41.2,29.81,SSW,199,2.0,12.0,81,0.00,,,0.19,VWS V14.00,2013-10-19 23:20:00,
2013-10-19 19:21:00,46.8,41.3,29.80,SW,227,9.0,12.0,81,0.00,,,0.19,VWS V14.00,2013-10-19 23:21:00,
2013-10-19 19:22:00,46.7,41.2,29.81,SSW,200,0.0,12.0,81,0.00,,,0.19,VWS V14.00,2013-10-19 23:22:00,
2013-10-19 19:23:00,46.7,41.2,29.81,SSW,206,4.0,12.0,81,0.00,,,0.19,VWS V14.00,2013-10-19 23:23:00,
2013-10-19 19:24:00,46.7,41.2,29.81,SSW,213,5.0,12.0,81,0.00,,,0.19,VWS V14.00,2013-10-19 23:24:00,
2013-10-19 19:25:00,46.7,41.5,29.81,SSW,213,3.0,12.0,82,0.00,,,0.19,VWS V14.00,2013-10-19 23:25:00,
2013-10-19 19:26:00,46.8,41.3,29.80,SW,227,2.0,12.0,81,0.00,,,0.19,VWS V14.00,2013-10-19 23:26:00,
2013-10-19 19:27:00,46.7,41.2,29.81,SW,225,5.0,12.0,81,0.00,,,0.19,VWS V14.00,2013-10-19 23:27:00,
2013-10-19 19:28:00,46.7,41.2,29.81,SW,222,6.0,12.0,81,0.00,,,0.19,VWS V14.00,2013-10-19 23:28:00,
2013-10-19 19:29:00,46.7,41.2,29.81,SW,222,0.0,12.0,81,0.00,,,0.19,VWS V14.00,2013-10-19 23:29:00,
2013-10-19 19:30:00,46.7,41.2,29.81,SW,222,0.0,12.0,81,0.00,,,0.19,VWS V14.00,2013-10-19 23:30:00,
2013-10-19 19:31:00,46.7,41.2,29.81,SSW,199,2.0,12.0,81,0.00,,,0.19,VWS V14.00,2013-10-19 23:31:00,
2013-10-19 19:32:00,46.6,41.1,29.81,WSW,241,0.0,10.0,81,0.00,,,0.19,VWS V14.00,2013-10-19 23:32:00,
2013-10-19 19:33:00,46.6,41.1,29.81,WSW,242,0.0,10.0,81,0.00,,,0.19,VWS V14.00,2013-10-19 23:33:00,
2013-10-19 19:34:00,46.6,41.1,29.81,WSW,242,0.0,10.0,81,0.00,,,0.19,VWS V14.00,2013-10-19 23:34:00,
2013-10-19 19:35:00,46.5,41.0,29.81,WSW,242,1.0,10.0,81,0.00,,,0.19,VWS V14.00,2013-10-19 23:35:00,
2013-10-19 19:36:00,46.7,41.5,29.81,SW,214,4.0,12.0,82,0.00,,,0.19,VWS V14.00,2013-10-19 23:36:00,
2013-10-19 19:37:00,46.5,41.0,29.81,WSW,242,3.0,10.0,81,0.00,,,0.19,VWS V14.00,2013-10-19 23:37:00,
2013-10-19 19:38:00,46.5,41.0,29.81,WSW,242,0.0,10.0,81,0.00,,,0.19,VWS V14.00,2013-10-19 23:38:00,
2013-10-19 19:39:00,46.4,40.9,29.81,WSW,242,0.0,10.0,81,0.00,,,0.19,VWS V14.00,2013-10-19 23:39:00,
2013-10-19 19:40:00,46.4,41.2,29.81,WSW,242,3.0,10.0,82,0.00,,,0.19,VWS V14.00,2013-10-19 23:40:00,
2013-10-19 19:41:00,46.6,41.1,29.81,WSW,241,8.0,10.0,81,0.00,,,0.19,VWS V14.00,2013-10-19 23:41:00,
2013-10-19 19:42:00,46.3,41.1,29.81,WSW,240,1.0,10.0,82,0.00,,,0.19,VWS V14.00,2013-10-19 23:42:00,
2013-10-19 19:43:00,46.3,41.1,29.81,WSW,240,4.0,10.0,82,0.00,,,0.19,VWS V14.00,2013-10-19 23:43:00,
2013-10-19 19:44:00,46.3,41.1,29.81,WSW,240,2.0,10.0,82,0.00,,,0.19,VWS V14.00,2013-10-19 23:44:00,
2013-10-19 19:45:00,46.3,41.4,29.81,WSW,240,3.0,10.0,83,0.00,,,0.19,VWS V14.00,2013-10-19 23:45:00,
2013-10-19 19:46:00,46.5,41.0,29.81,WSW,242,0.0,10.0,81,0.00,,,0.19,VWS V14.00,2013-10-19 23:46:00,
2013-10-19 19:47:00,46.3,41.4,29.81,WSW,239,4.0,10.0,83,0.00,,,0.19,VWS V14.00,2013-10-19 23:47:00,
2013-10-19 19:48:00,46.2,41.3,29.81,WSW,240,3.0,10.0,83,0.00,,,0.19,VWS V14.00,2013-10-19 23:48:00,
2013-10-19 19:49:00,46.2,41.3,29.81,WSW,239,2.0,10.0,83,0.00,,,0.19,VWS V14.00,2013-10-19 23:49:00,
2013-10-19 19:50:00,46.1,41.2,29.81,WSW,239,0.0,10.0,83,0.00,,,0.19,VWS V14.00,2013-10-19 23:50:00,
2013-10-19 19:51:00,46.4,41.2,29.81,WSW,242,3.0,10.0,82,0.00,,,0.19,VWS V14.00,2013-10-19 23:51:00,
2013-10-19 19:52:00,46.1,41.2,29.82,WSW,238,2.0,10.0,83,0.00,,,0.19,VWS V14.00,2013-10-19 23:52:00,
2013-10-19 19:53:00,46.0,41.1,29.81,WSW,238,1.0,10.0,83,0.00,,,0.19,VWS V14.00,2013-10-19 23:53:00,
2013-10-19 19:54:00,46.0,41.1,29.81,WSW,238,0.0,10.0,83,0.00,,,0.19,VWS V14.00,2013-10-19 23:54:00,
2013-10-19 19:55:00,46.0,41.1,29.82,SW,235,5.0,10.0,83,0.00,,,0.19,VWS V14.00,2013-10-19 23:55:00,
2013-10-19 19:56:00,46.3,41.4,29.81,WSW,240,1.0,10.0,83,0.00,,,0.19,VWS V14.00,2013-10-19 23:56:00,
2013-10-19 19:57:00,45.9,41.0,29.82,SW,235,0.0,10.0,83,0.00,,,0.19,VWS V14.00,2013-10-19 23:57:00,
2013-10-19 19:58:00,45.9,41.0,29.82,SW,234,1.0,10.0,83,0.00,,,0.19,VWS V14.00,2013-10-19 23:58:00,
2013-10-19 19:59:00,45.8,40.9,29.82,SW,234,2.0,10.0,83,0.00,,,0.19,VWS V14.00,2013-10-19 23:59:00,
2013-10-19 20:00:00,45.8,40.9,29.82,SW,234,2.0,10.0,83,0.00,,,0.19,VWS V14.00,2013-10-20 00:00:00,
2013-10-19 20:01:00,46.1,41.2,29.81,WSW,239,0.0,10.0,83,0.00,,,0.19,VWS V14.00,2013-10-20 00:01:00,
2013-10-19 20:02:00,45.7,41.2,29.82,SW,235,0.0,4.0,84,0.00,,,0.19,VWS V14.00,2013-10-20 00:02:00,
2013-10-19 20:03:00,45.7,41.2,29.82,SW,235,3.0,5.0,84,0.00,,,0.19,VWS V14.00,2013-10-20 00:03:00,
2013-10-19 20:04:00,45.7,41.2,29.82,SW,233,5.0,6.0,84,0.00,,,0.19,VWS V14.00,2013-10-20 00:04:00,
2013-10-19 20:05:00,45.7,41.2,29.81,SW,233,2.0,6.0,84,0.00,,,0.19,VWS V14.00,2013-10-20 00:05:00,
2013-10-19 20:06:00,46.0,41.1,29.82,SW,235,3.0,10.0,83,0.00,,,0.19,VWS V14.00,2013-10-20 00:06:00,
2013-10-19 20:07:00,45.7,41.2,29.82,SW,233,0.0,6.0,84,0.00,,,0.19,VWS V14.00,2013-10-20 00:07:00,
2013-10-19 20:08:00,45.6,41.0,29.82,SW,233,0.0,6.0,84,0.00,,,0.19,VWS V14.00,2013-10-20 00:08:00,
2013-10-19 20:09:00,45.6,41.0,29.82,SW,233,0.0,6.0,84,0.00,,,0.19,VWS V14.00,2013-10-20 00:09:00,
2013-10-19 20:10:00,45.6,41.0,29.82,SW,233,0.0,6.0,84,0.00,,,0.19,VWS V14.00,2013-10-20 00:10:00,
2013-10-19 20:11:00,45.8,41.2,29.82,SW,234,0.0,3.0,84,0.00,,,0.19,VWS V14.00,2013-10-20 00:11:00,
2013-10-19 20:12:00,45.6,41.0,29.82,SW,233,0.0,6.0,84,0.00,,,0.19,VWS V14.00,2013-10-20 00:12:00,
2013-10-19 20:13:00,45.5,41.0,29.82,SW,233,0.0,6.0,84,0.00,,,0.19,VWS V14.00,2013-10-20 00:13:00,
2013-10-19 20:14:00,45.5,41.3,29.82,SW,233,1.0,6.0,85,0.00,,,0.19,VWS V14.00,2013-10-20 00:14:00,
2013-10-19 20:15:00,45.5,41.3,29.82,SW,233,1.0,6.0,85,0.00,,,0.19,VWS V14.00,2013-10-20 00:15:00,
2013-10-19 20:16:00,45.7,41.2,29.81,SW,233,0.0,6.0,84,0.00,,,0.19,VWS V14.00,2013-10-20 00:16:00,
2013-10-19 20:17:00,45.5,41.3,29.82,SW,233,0.0,6.0,85,0.00,,,0.19,VWS V14.00,2013-10-20 00:17:00,
2013-10-19 20:18:00,45.4,41.2,29.82,SW,233,4.0,6.0,85,0.00,,,0.19,VWS V14.00,2013-10-20 00:18:00,
2013-10-19 20:19:00,45.5,41.3,29.82,SW,233,0.0,6.0,85,0.00,,,0.19,VWS V14.00,2013-10-20 00:19:00,
2013-10-19 20:20:00,45.4,41.2,29.82,SW,233,0.0,6.0,85,0.00,,,0.19,VWS V14.00,2013-10-20 00:20:00,
2013-10-19 20:21:00,45.6,41.0,29.82,SW,233,0.0,6.0,84,0.00,,,0.19,VWS V14.00,2013-10-20 00:21:00,
2013-10-19 20:22:00,45.4,41.2,29.82,SW,233,2.0,6.0,85,0.00,,,0.19,VWS V14.00,2013-10-20 00:22:00,
2013-10-19 20:23:00,45.4,41.2,29.82,SW,233,0.0,6.0,85,0.00,,,0.19,VWS V14.00,2013-10-20 00:23:00,
2013-10-19 20:24:00,45.4,41.5,29.82,SW,233,0.0,6.0,86,0.00,,,0.19,VWS V14.00,2013-10-20 00:24:00,
2013-10-19 20:25:00,45.4,41.5,29.82,SW,233,2.0,6.0,86,0.00,,,0.19,VWS V14.00,2013-10-20 00:25:00,
2013-10-19 20:26:00,45.5,41.3,29.82,SW,233,0.0,6.0,85,0.00,,,0.19,VWS V14.00,2013-10-20 00:26:00,
2013-10-19 20:27:00,45.4,41.5,29.82,SW,233,1.0,6.0,86,0.00,,,0.19,VWS V14.00,2013-10-20 00:27:00,
2013-10-19 20:28:00,45.4,41.5,29.82,SW,233,1.0,6.0,86,0.00,,,0.19,VWS V14.00,2013-10-20 00:28:00,
2013-10-19 20:29:00,45.4,41.5,29.82,SW,233,0.0,6.0,86,0.00,,,0.19,VWS V14.00,2013-10-20 00:29:00,
2013-10-19 20:30:00,45.4,41.5,29.82,SW,233,0.0,6.0,86,0.00,,,0.19,VWS V14.00,2013-10-20 00:30:00,
2013-10-19 20:31:00,45.4,41.2,29.82,SW,233,0.0,6.0,85,0.00,,,0.19,VWS V14.00,2013-10-20 00:31:00,
2013-10-19 20:32:00,45.4,41.5,29.82,SW,233,0.0,4.0,86,0.00,,,0.19,VWS V14.00,2013-10-20 00:32:00,
2013-10-19 20:33:00,45.5,41.9,29.82,SW,233,0.0,4.0,87,0.00,,,0.19,VWS V14.00,2013-10-20 00:33:00,
2013-10-19 20:34:00,45.5,41.9,29.82,SW,233,2.0,4.0,87,0.00,,,0.19,VWS V14.00,2013-10-20 00:34:00,
2013-10-19 20:35:00,45.5,41.9,29.82,SW,233,0.0,4.0,87,0.00,,,0.19,VWS V14.00,2013-10-20 00:35:00,
2013-10-19 20:36:00,45.4,41.5,29.82,SW,233,2.0,6.0,86,0.00,,,0.19,VWS V14.00,2013-10-20 00:36:00,
2013-10-19 20:37:00,45.5,41.9,29.82,SW,233,0.0,4.0,87,0.00,,,0.19,VWS V14.00,2013-10-20 00:37:00,
2013-10-19 20:38:00,45.6,42.0,29.82,SW,233,3.0,4.0,87,0.00,,,0.19,VWS V14.00,2013-10-20 00:38:00,
2013-10-19 20:39:00,45.6,42.0,29.82,SW,233,0.0,4.0,87,0.00,,,0.19,VWS V14.00,2013-10-20 00:39:00,
2013-10-19 20:40:00,45.6,42.0,29.82,SW,234,1.0,5.0,87,0.00,,,0.19,VWS V14.00,2013-10-20 00:40:00,
2013-10-19 20:41:00,45.4,41.5,29.82,SW,233,0.0,0.0,86,0.00,,,0.19,VWS V14.00,2013-10-20 00:41:00,
2013-10-19 20:42:00,45.7,42.1,29.82,SW,229,6.0,6.0,87,0.00,,,0.19,VWS V14.00,2013-10-20 00:42:00,
2013-10-19 20:43:00,45.8,42.2,29.82,SW,229,0.0,6.0,87,0.00,,,0.19,VWS V14.00,2013-10-20 00:43:00,
2013-10-19 20:44:00,45.9,42.5,29.82,SW,229,2.0,6.0,88,0.00,,,0.19,VWS V14.00,2013-10-20 00:44:00,
2013-10-19 20:45:00,45.9,42.3,29.82,SW,229,1.0,6.0,87,0.00,,,0.19,VWS V14.00,2013-10-20 00:45:00,
2013-10-19 20:46:00,45.5,41.9,29.82,SW,233,0.0,4.0,87,0.00,,,0.19,VWS V14.00,2013-10-20 00:46:00,
2013-10-19 20:47:00,46.0,42.7,29.82,SW,229,2.0,9.0,88,0.00,,,0.19,VWS V14.00,2013-10-20 00:47:00,
2013-10-19 20:48:00,46.1,42.8,29.82,SW,229,2.0,9.0,88,0.00,,,0.19,VWS V14.00,2013-10-20 00:48:00,
2013-10-19 20:49:00,46.2,42.5,29.82,SW,215,0.0,9.0,87,0.00,,,0.19,VWS V14.00,2013-10-20 00:49:00,
2013-10-19 20:50:00,46.3,42.7,29.82,SW,215,2.0,9.0,87,0.00,,,0.19,VWS V14.00,2013-10-20 00:50:00,
2013-10-19 20:51:00,45.6,42.0,29.82,SW,234,4.0,5.0,87,0.00,,,0.19,VWS V14.00,2013-10-20 00:51:00,
2013-10-19 20:52:00,46.4,42.8,29.82,SW,219,6.0,9.0,87,0.00,,,0.19,VWS V14.00,2013-10-20 00:52:00,
2013-10-19 20:53:00,46.4,42.5,29.82,SW,223,2.0,9.0,86,0.00,,,0.19,VWS V14.00,2013-10-20 00:53:00,
2013-10-19 20:54:00,46.5,42.5,29.82,SW,224,3.0,9.0,86,0.00,,,0.19,VWS V14.00,2013-10-20 00:54:00,
2013-10-19 20:55:00,46.5,42.5,29.82,SW,225,2.0,9.0,86,0.00,,,0.19,VWS V14.00,2013-10-20 00:55:00,
2013-10-19 20:56:00,45.9,42.3,29.82,SW,229,3.0,6.0,87,0.00,,,0.19,VWS V14.00,2013-10-20 00:56:00,
2013-10-19 20:57:00,46.6,42.6,29.82,SW,223,2.0,9.0,86,0.00,,,0.19,VWS V14.00,2013-10-20 00:57:00,
2013-10-19 20:58:00,46.6,42.6,29.82,SW,214,4.0,9.0,86,0.00,,,0.19,VWS V14.00,2013-10-20 00:58:00,
2013-10-19 20:59:00,46.6,42.3,29.82,SW,214,0.0,9.0,85,0.00,,,0.19,VWS V14.00,2013-10-20 00:59:00,
2013-10-19 21:00:00,46.7,42.4,29.82,SW,214,2.0,9.0,85,0.00,,,0.19,VWS V14.00,2013-10-20 01:00:00,
2013-10-19 21:01:00,46.3,42.7,29.82,SW,215,1.0,9.0,87,0.00,,,0.19,VWS V14.00,2013-10-20 01:01:00,
2013-10-19 21:02:00,46.7,42.4,29.82,SW,224,4.0,7.0,85,0.00,,,0.19,VWS V14.00,2013-10-20 01:02:00,
2013-10-19 21:03:00,46.6,42.3,29.82,SW,224,0.0,7.0,85,0.00,,,0.19,VWS V14.00,2013-10-20 01:03:00,
2013-10-19 21:04:00,46.6,42.3,29.82,SW,217,7.0,9.0,85,0.00,,,0.19,VWS V14.00,2013-10-20 01:04:00,
2013-10-19 21:05:00,46.7,42.4,29.82,SW,228,2.0,9.0,85,0.00,,,0.19,VWS V14.00,2013-10-20 01:05:00,
2013-10-19 21:06:00,46.6,42.6,29.82,SW,224,3.0,9.0,86,0.00,,,0.19,VWS V14.00,2013-10-20 01:06:00,
2013-10-19 21:07:00,46.7,42.1,29.82,SW,221,2.0,9.0,84,0.00,,,0.19,VWS V14.00,2013-10-20 01:07:00,
2013-10-19 21:08:00,46.6,42.0,29.82,SW,221,1.0,9.0,84,0.00,,,0.19,VWS V14.00,2013-10-20 01:08:00,
2013-10-19 21:09:00,46.7,42.1,29.82,SW,229,5.0,9.0,84,0.00,,,0.19,VWS V14.00,2013-10-20 01:09:00,
2013-10-19 21:10:00,46.7,42.1,29.82,SW,221,4.0,9.0,84,0.00,,,0.19,VWS V14.00,2013-10-20 01:10:00,
2013-10-19 21:11:00,46.6,42.3,29.82,SW,214,2.0,3.0,85,0.00,,,0.19,VWS V14.00,2013-10-20 01:11:00,
2013-10-19 21:12:00,46.7,42.1,29.82,SSW,194,3.0,9.0,84,0.00,,,0.19,VWS V14.00,2013-10-20 01:12:00,
2013-10-19 21:13:00,46.7,42.1,29.82,SSW,199,4.0,9.0,84,0.00,,,0.19,VWS V14.00,2013-10-20 01:13:00,
2013-10-19 21:14:00,46.7,42.1,29.82,SSW,202,5.0,9.0,84,0.00,,,0.19,VWS V14.00,2013-10-20 01:14:00,
2013-10-19 21:15:00,46.7,42.1,29.82,SSW,201,4.0,9.0,84,0.00,,,0.19,VWS V14.00,2013-10-20 01:15:00,
2013-10-19 21:16:00,46.7,42.4,29.82,SW,225,3.0,9.0,85,0.00,,,0.19,VWS V14.00,2013-10-20 01:16:00,
2013-10-19 21:17:00,46.7,42.1,29.82,WSW,257,0.0,9.0,84,0.00,,,0.19,VWS V14.00,2013-10-20 01:17:00,
2013-10-19 21:18:00,46.6,42.0,29.82,SSW,213,5.0,9.0,84,0.00,,,0.19,VWS V14.00,2013-10-20 01:18:00,
2013-10-19 21:19:00,46.6,42.0,29.82,SW,214,4.0,9.0,84,0.00,,,0.19,VWS V14.00,2013-10-20 01:19:00,
2013-10-19 21:20:00,46.6,42.0,29.82,SW,225,4.0,9.0,84,0.00,,,0.19,VWS V14.00,2013-10-20 01:20:00,
2013-10-19 21:21:00,46.7,42.1,29.82,SW,222,5.0,9.0,84,0.00,,,0.19,VWS V14.00,2013-10-20 01:21:00,
2013-10-19 21:22:00,46.5,41.9,29.82,SW,221,3.0,9.0,84,0.00,,,0.19,VWS V14.00,2013-10-20 01:22:00,
2013-10-19 21:23:00,46.5,41.9,29.82,SW,219,4.0,9.0,84,0.00,,,0.19,VWS V14.00,2013-10-20 01:23:00,
2013-10-19 21:24:00,46.5,41.9,29.82,SW,220,3.0,9.0,84,0.00,,,0.19,VWS V14.00,2013-10-20 01:24:00,
2013-10-19 21:25:00,46.5,41.9,29.82,SW,220,0.0,9.0,84,0.00,,,0.19,VWS V14.00,2013-10-20 01:25:00,
2013-10-19 21:26:00,46.7,42.1,29.82,SSW,202,4.0,9.0,84,0.00,,,0.19,VWS V14.00,2013-10-20 01:26:00,
2013-10-19 21:27:00,46.4,41.8,29.83,SW,217,3.0,9.0,84,0.00,,,0.19,VWS V14.00,2013-10-20 01:27:00,
2013-10-19 21:28:00,46.4,41.8,29.83,SW,217,0.0,9.0,84,0.00,,,0.19,VWS V14.00,2013-10-20 01:28:00,
2013-10-19 21:29:00,46.4,41.8,29.83,SSW,213,4.0,9.0,84,0.00,,,0.19,VWS V14.00,2013-10-20 01:29:00,
2013-10-19 21:30:00,46.4,41.8,29.83,SSW,213,2.0,9.0,84,0.00,,,0.19,VWS V14.00,2013-10-20 01:30:00,
2013-10-19 21:31:00,46.6,42.0,29.82,SSW,213,5.0,9.0,84,0.00,,,0.19,VWS V14.00,2013-10-20 01:31:00,
2013-10-19 21:32:00,46.3,41.7,29.83,SW,227,3.0,9.0,84,0.00,,,0.19,VWS V14.00,2013-10-20 01:32:00,
2013-10-19 21:33:00,46.3,41.7,29.83,SW,228,0.0,9.0,84,0.00,,,0.19,VWS V14.00,2013-10-20 01:33:00,
2013-10-19 21:34:00,46.3,41.7,29.83,SW,229,6.0,9.0,84,0.00,,,0.19,VWS V14.00,2013-10-20 01:34:00,
2013-10-19 21:35:00,46.3,41.7,29.83,SW,223,3.0,9.0,84,0.00,,,0.19,VWS V14.00,2013-10-20 01:35:00,
2013-10-19 21:36:00,46.5,41.9,29.82,SW,219,0.0,9.0,84,0.00,,,0.19,VWS V14.00,2013-10-20 01:36:00,
2013-10-19 21:37:00,46.3,41.7,29.83,SW,228,6.0,9.0,84,0.00,,,0.19,VWS V14.00,2013-10-20 01:37:00,
2013-10-19 21:38:00,46.3,41.7,29.83,SW,226,2.0,9.0,84,0.00,,,0.19,VWS V14.00,2013-10-20 01:38:00,
2013-10-19 21:39:00,46.3,41.7,29.83,SW,228,2.0,9.0,84,0.00,,,0.19,VWS V14.00,2013-10-20 01:39:00,
2013-10-19 21:40:00,46.2,41.6,29.83,SW,225,6.0,11.0,84,0.00,,,0.19,VWS V14.00,2013-10-20 01:40:00,
2013-10-19 21:41:00,46.4,41.8,29.83,SW,219,5.0,5.0,84,0.00,,,0.19,VWS V14.00,2013-10-20 01:41:00,
2013-10-19 21:42:00,46.2,41.3,29.83,WSW,239,2.0,11.0,83,0.00,,,0.19,VWS V14.00,2013-10-20 01:42:00,
2013-10-19 21:43:00,46.1,41.2,29.83,WSW,239,0.0,11.0,83,0.00,,,0.19,VWS V14.00,2013-10-20 01:43:00,
2013-10-19 21:44:00,46.1,41.2,29.83,SW,224,8.0,11.0,83,0.00,,,0.19,VWS V14.00,2013-10-20 01:44:00,
2013-10-19 21:45:00,46.1,41.2,29.83,WSW,242,3.0,11.0,83,0.00,,,0.19,VWS V14.00,2013-10-20 01:45:00,
2013-10-19 21:46:00,46.3,41.7,29.83,SW,223,2.0,9.0,84,0.00,,,0.19,VWS V14.00,2013-10-20 01:46:00,
2013-10-19 21:47:00,46.1,41.2,29.83,SW,232,0.0,11.0,83,0.00,,,0.19,VWS V14.00,2013-10-20 01:47:00,
2013-10-19 21:48:00,46.1,41.2,29.83,SW,232,0.0,11.0,83,0.00,,,0.19,VWS V14.00,2013-10-20 01:48:00,
2013-10-19 21:49:00,46.0,41.1,29.83,SW,230,9.0,11.0,83,0.00,,,0.19,VWS V14.00,2013-10-20 01:49:00,
2013-10-19 21:50:00,46.0,41.1,29.83,SW,226,3.0,11.0,83,0.00,,,0.19,VWS V14.00,2013-10-20 01:50:00,
2013-10-19 21:51:00,46.2,41.6,29.83,SW,225,4.0,11.0,84,0.00,,,0.19,VWS V14.00,2013-10-20 01:51:00,
2013-10-19 21:52:00,46.0,41.1,29.83,SW,226,4.0,11.0,83,0.00,,,0.19,VWS V14.00,2013-10-20 01:52:00,
2013-10-19 21:53:00,45.9,41.0,29.83,SW,228,4.0,11.0,83,0.00,,,0.19,VWS V14.00,2013-10-20 01:53:00,
2013-10-19 21:54:00,45.9,41.0,29.83,WSW,239,5.0,11.0,83,0.00,,,0.19,VWS V14.00,2013-10-20 01:54:00,
2013-10-19 21:55:00,45.9,40.7,29.83,WSW,248,0.0,11.0,82,0.00,,,0.19,VWS V14.00,2013-10-20 01:55:00,
2013-10-19 21:56:00,46.1,41.2,29.83,WSW,240,5.0,11.0,83,0.00,,,0.19,VWS V14.00,2013-10-20 01:56:00,
2013-10-19 21:57:00,45.7,40.5,29.83,WSW,248,2.0,11.0,82,0.00,,,0.19,VWS V14.00,2013-10-20 01:57:00,
2013-10-19 21:58:00,45.6,40.4,29.84,WSW,248,0.0,11.0,82,0.00,,,0.19,VWS V14.00,2013-10-20 01:58:00,
2013-10-19 21:59:00,45.5,40.3,29.84,WSW,248,0.0,11.0,82,0.00,,,0.19,VWS V14.00,2013-10-20 01:59:00,
2013-10-19 22:00:00,45.5,40.3,29.84,WSW,248,0.0,11.0,82,0.00,,,0.19,VWS V14.00,2013-10-20 02:00:00,
2013-10-19 22:01:00,46.0,41.1,29.83,SW,233,5.0,11.0,83,0.00,,,0.19,VWS V14.00,2013-10-20 02:01:00,
2013-10-19 22:02:00,45.2,40.3,29.84,WSW,248,0.0,0.0,83,0.00,,,0.19,VWS V14.00,2013-10-20 02:02:00,
2013-10-19 22:03:00,45.1,40.2,29.84,WSW,248,0.0,2.0,83,0.00,,,0.19,VWS V14.00,2013-10-20 02:03:00,
2013-10-19 22:04:00,45.0,40.2,29.84,WSW,248,0.0,2.0,83,0.00,,,0.19,VWS V14.00,2013-10-20 02:04:00,
2013-10-19 22:05:00,44.9,40.1,29.84,WSW,248,0.0,2.0,83,0.00,,,0.19,VWS V14.00,2013-10-20 02:05:00,
2013-10-19 22:06:00,45.8,40.6,29.83,WSW,248,0.0,11.0,82,0.00,,,0.19,VWS V14.00,2013-10-20 02:06:00,
2013-10-19 22:07:00,44.7,40.2,29.84,WSW,248,0.0,2.0,84,0.00,,,0.19,VWS V14.00,2013-10-20 02:07:00,
2013-10-19 22:08:00,44.6,40.1,29.84,WSW,248,0.0,2.0,84,0.00,,,0.19,VWS V14.00,2013-10-20 02:08:00,
2013-10-19 22:09:00,44.5,40.0,29.84,WSW,248,0.0,2.0,84,0.00,,,0.19,VWS V14.00,2013-10-20 02:09:00,
2013-10-19 22:10:00,44.4,39.9,29.84,WSW,248,0.0,2.0,84,0.00,,,0.19,VWS V14.00,2013-10-20 02:10:00,
2013-10-19 22:11:00,45.4,40.2,29.84,WSW,248,0.0,0.0,82,0.00,,,0.19,VWS V14.00,2013-10-20 02:11:00,
2013-10-19 22:12:00,44.2,39.7,29.85,WSW,248,0.0,2.0,84,0.00,,,0.19,VWS V14.00,2013-10-20 02:12:00,
2013-10-19 22:13:00,44.1,39.6,29.85,WSW,248,0.0,2.0,84,0.00,,,0.19,VWS V14.00,2013-10-20 02:13:00,
2013-10-19 22:14:00,44.0,39.8,29.85,WSW,248,0.0,2.0,85,0.00,,,0.19,VWS V14.00,2013-10-20 02:14:00,
2013-10-19 22:15:00,43.9,39.7,29.85,WSW,248,0.0,2.0,85,0.00,,,0.19,VWS V14.00,2013-10-20 02:15:00,
2013-10-19 22:16:00,44.9,40.1,29.84,WSW,248,0.0,2.0,83,0.00,,,0.19,VWS V14.00,2013-10-20 02:16:00,
2013-10-19 22:17:00,43.8,39.6,29.85,WSW,248,0.0,2.0,85,0.00,,,0.19,VWS V14.00,2013-10-20 02:17:00,
2013-10-19 22:18:00,43.7,39.5,29.85,WSW,248,0.0,2.0,85,0.00,,,0.19,VWS V14.00,2013-10-20 02:18:00,
2013-10-19 22:19:00,43.6,39.4,29.85,WSW,248,0.0,2.0,85,0.00,,,0.19,VWS V14.00,2013-10-20 02:19:00,
2013-10-19 22:20:00,43.5,39.3,29.85,WSW,248,0.0,2.0,85,0.00,,,0.19,VWS V14.00,2013-10-20 02:20:00,
2013-10-19 22:21:00,44.4,39.9,29.84,WSW,248,0.0,2.0,84,0.00,,,0.19,VWS V14.00,2013-10-20 02:21:00,
2013-10-19 22:22:00,43.3,39.1,29.85,WSW,248,0.0,2.0,85,0.00,,,0.19,VWS V14.00,2013-10-20 02:22:00,
2013-10-19 22:23:00,43.2,39.0,29.85,WSW,248,0.0,2.0,85,0.00,,,0.19,VWS V14.00,2013-10-20 02:23:00,
2013-10-19 22:24:00,43.1,38.9,29.85,WSW,248,0.0,2.0,85,0.00,,,0.19,VWS V14.00,2013-10-20 02:24:00,
2013-10-19 22:25:00,43.1,38.9,29.85,WSW,248,0.0,2.0,85,0.00,,,0.19,VWS V14.00,2013-10-20 02:25:00,
2013-10-19 22:26:00,43.9,39.7,29.85,WSW,248,0.0,2.0,85,0.00,,,0.19,VWS V14.00,2013-10-20 02:26:00,
2013-10-19 22:27:00,42.8,38.6,29.85,WSW,248,0.0,2.0,85,0.00,,,0.19,VWS V14.00,2013-10-20 02:27:00,
2013-10-19 22:28:00,42.7,38.8,29.85,WSW,248,0.0,2.0,86,0.00,,,0.19,VWS V14.00,2013-10-20 02:28:00,
2013-10-19 22:29:00,42.6,38.7,29.85,WSW,248,0.0,2.0,86,0.00,,,0.19,VWS V14.00,2013-10-20 02:29:00,
2013-10-19 22:30:00,42.6,38.7,29.85,WSW,248,0.0,2.0,86,0.00,,,0.19,VWS V14.00,2013-10-20 02:30:00,
2013-10-19 22:31:00,43.5,39.3,29.85,WSW,248,0.0,2.0,85,0.00,,,0.19,VWS V14.00,2013-10-20 02:31:00,
2013-10-19 22:32:00,42.3,38.4,29.85,WSW,248,0.0,0.0,86,0.00,,,0.19,VWS V14.00,2013-10-20 02:32:00,
2013-10-19 22:33:00,42.2,38.6,29.85,WSW,248,0.0,0.0,87,0.00,,,0.19,VWS V14.00,2013-10-20 02:33:00,
2013-10-19 22:34:00,42.1,38.5,29.85,WSW,248,0.0,0.0,87,0.00,,,0.19,VWS V14.00,2013-10-20 02:34:00,
2013-10-19 22:35:00,42.0,38.4,29.85,WSW,248,0.0,0.0,87,0.00,,,0.19,VWS V14.00,2013-10-20 02:35:00,
2013-10-19 22:36:00,43.0,38.8,29.85,WSW,248,0.0,2.0,85,0.00,,,0.19,VWS V14.00,2013-10-20 02:36:00,
2013-10-19 22:37:00,41.9,38.3,29.85,WSW,248,0.0,0.0,87,0.00,,,0.19,VWS V14.00,2013-10-20 02:37:00,
2013-10-19 22:38:00,41.9,38.6,29.85,WSW,248,0.0,0.0,88,0.00,,,0.19,VWS V14.00,2013-10-20 02:38:00,
2013-10-19 22:39:00,41.8,38.5,29.85,WSW,248,0.0,0.0,88,0.00,,,0.19,VWS V14.00,2013-10-20 02:39:00,
2013-10-19 22:40:00,41.8,38.5,29.85,WSW,248,0.0,0.0,88,0.00,,,0.19,VWS V14.00,2013-10-20 02:40:00,
2013-10-19 22:41:00,42.5,38.6,29.85,WSW,248,0.0,0.0,86,0.00,,,0.19,VWS V14.00,2013-10-20 02:41:00,
2013-10-19 22:42:00,41.6,38.3,29.85,WSW,248,0.0,0.0,88,0.00,,,0.19,VWS V14.00,2013-10-20 02:42:00,
2013-10-19 22:43:00,41.6,38.3,29.85,WSW,248,0.0,0.0,88,0.00,,,0.19,VWS V14.00,2013-10-20 02:43:00,
2013-10-19 22:44:00,41.6,38.6,29.85,WSW,248,0.0,0.0,89,0.00,,,0.19,VWS V14.00,2013-10-20 02:44:00,
2013-10-19 22:45:00,41.6,38.6,29.85,WSW,248,0.0,0.0,89,0.00,,,0.19,VWS V14.00,2013-10-20 02:45:00,
2013-10-19 22:46:00,42.0,38.4,29.85,WSW,248,0.0,0.0,87,0.00,,,0.19,VWS V14.00,2013-10-20 02:46:00,
2013-10-19 22:47:00,41.5,38.5,29.85,WSW,248,0.0,0.0,89,0.00,,,0.19,VWS V14.00,2013-10-20 02:47:00,
2013-10-19 22:48:00,41.5,38.5,29.85,WSW,248,0.0,0.0,89,0.00,,,0.19,VWS V14.00,2013-10-20 02:48:00,
2013-10-19 22:49:00,41.4,38.4,29.85,WSW,248,0.0,0.0,89,0.00,,,0.19,VWS V14.00,2013-10-20 02:49:00,
2013-10-19 22:50:00,41.4,38.4,29.85,WSW,248,0.0,0.0,89,0.00,,,0.19,VWS V14.00,2013-10-20 02:50:00,
2013-10-19 22:51:00,41.7,38.4,29.85,WSW,248,0.0,0.0,88,0.00,,,0.19,VWS V14.00,2013-10-20 02:51:00,
2013-10-19 22:52:00,41.3,38.3,29.85,WSW,248,0.0,0.0,89,0.00,,,0.19,VWS V14.00,2013-10-20 02:52:00,
2013-10-19 22:53:00,41.3,38.3,29.85,WSW,248,0.0,0.0,89,0.00,,,0.19,VWS V14.00,2013-10-20 02:53:00,
2013-10-19 22:54:00,41.2,38.2,29.85,WSW,248,0.0,0.0,89,0.00,,,0.19,VWS V14.00,2013-10-20 02:54:00,
2013-10-19 22:55:00,41.1,38.1,29.85,WSW,248,1.0,3.0,89,0.00,,,0.19,VWS V14.00,2013-10-20 02:55:00,
2013-10-19 22:56:00,41.6,38.6,29.85,WSW,248,0.0,0.0,89,0.00,,,0.19,VWS V14.00,2013-10-20 02:56:00,
2013-10-19 22:57:00,41.1,38.4,29.85,WSW,248,0.0,3.0,90,0.00,,,0.19,VWS V14.00,2013-10-20 02:57:00,
2013-10-19 22:58:00,41.1,38.4,29.85,WSW,248,0.0,3.0,90,0.00,,,0.19,VWS V14.00,2013-10-20 02:58:00,
2013-10-19 22:59:00,41.1,38.4,29.85,WSW,248,0.0,3.0,90,0.00,,,0.19,VWS V14.00,2013-10-20 02:59:00,
2013-10-19 23:00:00,41.1,38.4,29.85,WSW,248,0.0,3.0,90,0.00,,,0.19,VWS V14.00,2013-10-20 03:00:00,
2013-10-19 23:01:00,41.3,38.3,29.85,WSW,248,0.0,0.0,89,0.00,,,0.19,VWS V14.00,2013-10-20 03:01:00,
2013-10-19 23:02:00,41.2,38.5,29.85,WSW,248,0.0,2.0,90,0.00,,,0.19,VWS V14.00,2013-10-20 03:02:00,
2013-10-19 23:03:00,41.2,38.5,29.85,WSW,248,0.0,2.0,90,0.00,,,0.19,VWS V14.00,2013-10-20 03:03:00,
2013-10-19 23:04:00,41.3,38.6,29.85,WSW,248,0.0,2.0,90,0.00,,,0.19,VWS V14.00,2013-10-20 03:04:00,
2013-10-19 23:05:00,41.3,38.6,29.85,WSW,248,0.0,2.0,90,0.00,,,0.19,VWS V14.00,2013-10-20 03:05:00,
2013-10-19 23:06:00,41.1,38.1,29.85,WSW,248,0.0,3.0,89,0.00,,,0.19,VWS V14.00,2013-10-20 03:06:00,
2013-10-19 23:07:00,41.4,38.7,29.85,WSW,248,0.0,2.0,90,0.00,,,0.19,VWS V14.00,2013-10-20 03:07:00,
2013-10-19 23:08:00,41.4,38.7,29.85,WSW,248,0.0,2.0,90,0.00,,,0.19,VWS V14.00,2013-10-20 03:08:00,
2013-10-19 23:09:00,41.5,38.8,29.85,WSW,248,1.0,3.0,90,0.00,,,0.19,VWS V14.00,2013-10-20 03:09:00,
2013-10-19 23:10:00,41.5,38.8,29.85,WSW,248,0.0,3.0,90,0.00,,,0.19,VWS V14.00,2013-10-20 03:10:00,
2013-10-19 23:11:00,41.1,38.4,29.85,WSW,248,0.0,0.0,90,0.00,,,0.19,VWS V14.00,2013-10-20 03:11:00,
2013-10-19 23:12:00,41.6,38.9,29.85,WSW,248,1.0,3.0,90,0.00,,,0.19,VWS V14.00,2013-10-20 03:12:00,
2013-10-19 23:13:00,41.6,38.9,29.85,WSW,242,0.0,5.0,90,0.00,,,0.19,VWS V14.00,2013-10-20 03:13:00,
2013-10-19 23:14:00,41.7,39.0,29.85,WSW,242,0.0,5.0,90,0.00,,,0.19,VWS V14.00,2013-10-20 03:14:00,
2013-10-19 23:15:00,41.8,39.1,29.85,WSW,242,0.0,5.0,90,0.00,,,0.19,VWS V14.00,2013-10-20 03:15:00,
2013-10-19 23:16:00,41.3,38.6,29.85,WSW,248,0.0,2.0,90,0.00,,,0.19,VWS V14.00,2013-10-20 03:16:00,
2013-10-19 23:17:00,42.0,39.3,29.85,WSW,241,0.0,5.0,90,0.00,,,0.19,VWS V14.00,2013-10-20 03:17:00,
2013-10-19 23:18:00,42.0,39.0,29.85,WSW,242,1.0,5.0,89,0.00,,,0.19,VWS V14.00,2013-10-20 03:18:00,
2013-10-19 23:19:00,42.0,39.0,29.85,WSW,241,4.0,5.0,89,0.00,,,0.19,VWS V14.00,2013-10-20 03:19:00,
2013-10-19 23:20:00,42.1,39.1,29.85,WSW,242,1.0,5.0,89,0.00,,,0.19,VWS V14.00,2013-10-20 03:20:00,
2013-10-19 23:21:00,41.5,38.8,29.85,WSW,248,0.0,3.0,90,0.00,,,0.19,VWS V14.00,2013-10-20 03:21:00,
2013-10-19 23:22:00,42.2,39.2,29.85,WSW,242,3.0,5.0,89,0.00,,,0.19,VWS V14.00,2013-10-20 03:22:00,
2013-10-19 23:23:00,42.2,39.2,29.85,WSW,242,0.0,5.0,89,0.00,,,0.19,VWS V14.00,2013-10-20 03:23:00,
2013-10-19 23:24:00,42.3,39.3,29.85,WSW,242,1.0,5.0,89,0.00,,,0.19,VWS V14.00,2013-10-20 03:24:00,
2013-10-19 23:25:00,42.3,39.3,29.85,WSW,242,0.0,5.0,89,0.00,,,0.19,VWS V14.00,2013-10-20 03:25:00,
2013-10-19 23:26:00,41.8,39.1,29.85,WSW,242,0.0,5.0,90,0.00,,,0.19,VWS V14.00,2013-10-20 03:26:00,
2013-10-19 23:27:00,42.4,39.4,29.85,WSW,242,0.0,5.0,89,0.00,,,0.19,VWS V14.00,2013-10-20 03:27:00,
2013-10-19 23:28:00,42.4,39.4,29.85,WSW,242,1.0,6.0,89,0.00,,,0.19,VWS V14.00,2013-10-20 03:28:00,
2013-10-19 23:29:00,42.4,39.4,29.85,WSW,242,0.0,6.0,89,0.00,,,0.19,VWS V14.00,2013-10-20 03:29:00,
2013-10-19 23:30:00,42.4,39.4,29.85,WSW,242,0.0,6.0,89,0.00,,,0.19,VWS V14.00,2013-10-20 03:30:00,
2013-10-19 23:31:00,42.1,39.1,29.85,WSW,242,1.0,5.0,89,0.00,,,0.19,VWS V14.00,2013-10-20 03:31:00,
2013-10-19 23:32:00,42.5,39.5,29.85,WSW,240,3.0,6.0,89,0.00,,,0.19,VWS V14.00,2013-10-20 03:32:00,
2013-10-19 23:33:00,42.6,39.6,29.85,WSW,240,1.0,6.0,89,0.00,,,0.19,VWS V14.00,2013-10-20 03:33:00,
2013-10-19 23:34:00,42.7,39.7,29.85,WSW,240,3.0,6.0,89,0.00,,,0.19,VWS V14.00,2013-10-20 03:34:00,
2013-10-19 23:35:00,42.7,39.7,29.85,WSW,240,5.0,6.0,89,0.00,,,0.19,VWS V14.00,2013-10-20 03:35:00,
2013-10-19 23:36:00,42.3,39.3,29.85,WSW,242,2.0,5.0,89,0.00,,,0.19,VWS V14.00,2013-10-20 03:36:00,
2013-10-19 23:37:00,42.8,39.8,29.85,SW,236,5.0,6.0,89,0.00,,,0.19,VWS V14.00,2013-10-20 03:37:00,
2013-10-19 23:38:00,42.9,39.9,29.85,SW,234,0.0,6.0,89,0.00,,,0.19,VWS V14.00,2013-10-20 03:38:00,
2013-10-19 23:39:00,42.9,39.9,29.85,SW,234,0.0,6.0,89,0.00,,,0.19,VWS V14.00,2013-10-20 03:39:00,
2013-10-19 23:40:00,43.0,40.0,29.85,SW,234,1.0,6.0,89,0.00,,,0.19,VWS V14.00,2013-10-20 03:40:00,
2013-10-19 23:41:00,42.5,39.5,29.85,WSW,242,2.0,3.0,89,0.00,,,0.19,VWS V14.00,2013-10-20 03:41:00,
2013-10-19 23:42:00,43.1,40.1,29.85,SW,234,0.0,6.0,89,0.00,,,0.19,VWS V14.00,2013-10-20 03:42:00,
2013-10-19 23:43:00,43.2,40.2,29.85,SW,234,1.0,6.0,89,0.00,,,0.19,VWS V14.00,2013-10-20 03:43:00,
2013-10-19 23:44:00,43.2,40.2,29.85,SW,234,0.0,6.0,89,0.00,,,0.19,VWS V14.00,2013-10-20 03:44:00,
2013-10-19 23:45:00,43.3,40.3,29.85,SW,234,0.0,6.0,89,0.00,,,0.19,VWS V14.00,2013-10-20 03:45:00,
2013-10-19 23:46:00,42.7,39.7,29.85,WSW,240,1.0,6.0,89,0.00,,,0.19,VWS V14.00,2013-10-20 03:46:00,
2013-10-19 23:47:00,43.3,40.0,29.85,WSW,238,4.0,6.0,88,0.00,,,0.19,VWS V14.00,2013-10-20 03:47:00,
2013-10-19 23:48:00,43.4,40.1,29.85,WSW,245,2.0,10.0,88,0.00,,,0.19,VWS V14.00,2013-10-20 03:48:00,
2013-10-19 23:49:00,43.4,40.1,29.85,WSW,244,1.0,10.0,88,0.00,,,0.19,VWS V14.00,2013-10-20 03:49:00,
2013-10-19 23:50:00,43.5,40.2,29.85,WSW,241,4.0,10.0,88,0.00,,,0.19,VWS V14.00,2013-10-20 03:50:00,
2013-10-19 23:51:00,43.1,40.1,29.85,SW,234,3.0,6.0,89,0.00,,,0.19,VWS V14.00,2013-10-20 03:51:00,
2013-10-19 23:52:00,43.6,40.3,29.85,WSW,242,6.0,10.0,88,0.00,,,0.19,VWS V14.00,2013-10-20 03:52:00,
2013-10-19 23:53:00,43.6,40.3,29.84,SW,231,3.0,10.0,88,0.00,,,0.19,VWS V14.00,2013-10-20 03:53:00,
2013-10-19 23:54:00,43.7,40.4,29.84,SW,236,5.0,10.0,88,0.00,,,0.19,VWS V14.00,2013-10-20 03:54:00,
2013-10-19 23:55:00,43.8,40.5,29.84,SW,235,1.0,10.0,88,0.00,,,0.19,VWS V14.00,2013-10-20 03:55:00,
2013-10-19 23:56:00,43.3,40.3,29.85,WSW,238,5.0,6.0,89,0.00,,,0.19,VWS V14.00,2013-10-20 03:56:00,
2013-10-19 23:57:00,43.8,40.2,29.84,SW,232,1.0,10.0,87,0.00,,,0.19,VWS V14.00,2013-10-20 03:57:00,
2013-10-19 23:58:00,43.9,40.6,29.84,SW,232,1.0,10.0,88,0.00,,,0.19,VWS V14.00,2013-10-20 03:58:00,
2013-10-19 23:59:00,43.9,40.6,29.84,SW,230,3.0,10.0,88,0.00,,,0.19,VWS V14.00,2013-10-20 03:59:00,